BA102 / G-ZBJA 7700 Squawk Report (11th of November, 2017)

Aircraft B788 Reg No. G-ZBJA Age 4 years old
Model 787 Jet engines 2 First flight 14-06-13
Registered 29-06-13 Rollout N/A Delivered 29-06-13
Construction No. 38609 Line No. 0108 Series 8
ADSHEX 40688E Airline name British Airways Owner N/A
Airfield based Heathrow~Gtr London~G First tracked 2013-06-14 22:46:01
Time Lat Lon Altitude Heading Speed Vertical Rate
2017-11-11 10:08:31 GMT 51.46494 -0.43419 225 270 150 -768
2017-11-11 10:08:27 GMT 51.46495 -0.43025 250 270 150 -768
2017-11-11 10:08:22 GMT 51.46494 -0.42328 325 270 150 -768
2017-11-11 10:08:18 GMT 51.46499 -0.41817 400 270 151 -768
2017-11-11 10:08:13 GMT 51.46499 -0.41481 450 270 151 -768
2017-11-11 10:08:10 GMT 51.46499 -0.41168 475 270 151 -832
2017-11-11 10:08:06 GMT 51.46500 -0.40686 525 270 151 -896
2017-11-11 10:08:03 GMT 51.46504 -0.40298 575 270 152 -832
2017-11-11 10:08:01 GMT 51.46504 -0.40070 600 270 152 -768
2017-11-11 10:07:55 GMT 51.46504 -0.39329 700 270 151 -896
2017-11-11 10:07:52 GMT 51.46504 -0.39053 750 270 151 -896
2017-11-11 10:07:50 GMT 51.46504 -0.38942 750 270 152 -896
2017-11-11 10:07:48 GMT 51.46508 -0.38498 800 270 151 -832
2017-11-11 10:07:46 GMT 51.46508 -0.38391 825 270 151 -768
2017-11-11 10:07:44 GMT 51.46509 -0.38200 850 270 151 -832
2017-11-11 10:07:41 GMT 51.46509 -0.37821 875 270 151 -832
2017-11-11 10:07:39 GMT 51.46509 -0.37710 900 270 152 -832
2017-11-11 10:07:37 GMT 51.46509 -0.37480 925 270 152 -896
2017-11-11 10:07:34 GMT 51.46508 -0.37109 975 270 153 -896
2017-11-11 10:07:32 GMT 51.46509 -0.36804 1,025 270 153 -896
2017-11-11 10:07:30 GMT 51.46513 -0.36619 1,050 270 154 -832
2017-11-11 10:07:28 GMT 51.46513 -0.36407 1,075 270 153 -832
2017-11-11 10:07:23 GMT 51.46513 -0.35824 1,150 270 154 -960
2017-11-11 10:07:18 GMT 51.46513 -0.35297 1,200 270 156 -960
2017-11-11 10:07:16 GMT 51.46513 -0.35057 1,250 270 156 -832
2017-11-11 10:07:14 GMT 51.46518 -0.34683 1,275 270 157 -640
2017-11-11 10:07:12 GMT 51.46518 -0.34569 1,300 270 157 -512
2017-11-11 10:07:09 GMT 51.46518 -0.34218 1,325 270 158 -448
2017-11-11 10:07:07 GMT 51.46518 -0.33981 1,350 270 160 -896
2017-11-11 10:07:05 GMT 51.46518 -0.33791 1,375 270 161 -1024
2017-11-11 10:07:03 GMT 51.46518 -0.33333 1,450 270 165 -1216
2017-11-11 10:06:58 GMT 51.46522 -0.32890 1,500 270 166 -832
2017-11-11 10:06:57 GMT 51.46522 -0.32707 1,525 270 164 -960
2017-11-11 10:06:56 GMT 51.46522 -0.32707 1,525 270 165 -832
2017-11-11 10:06:54 GMT 51.46522 -0.32395 1,550 270 164 -960
2017-11-11 10:06:52 GMT 51.46522 -0.32128 1,600 270 163 -1024
2017-11-11 10:06:48 GMT 51.46522 -0.31677 1,650 270 163 -832
2017-11-11 10:06:46 GMT 51.46522 -0.31486 1,675 270 163 -832
2017-11-11 10:06:44 GMT 51.46522 -0.31066 1,725 270 163 -832
2017-11-11 10:06:42 GMT 51.46522 -0.30930 1,725 270 163 -896
2017-11-11 10:06:38 GMT 51.46522 -0.30518 1,775 270 164 -960
2017-11-11 10:06:36 GMT 51.46522 -0.30212 1,825 270 165 -1024
2017-11-11 10:06:33 GMT 51.46527 -0.29862 1,875 270 167 -1024
2017-11-11 10:06:32 GMT 51.46527 -0.29610 1,900 270 168 -960
2017-11-11 10:06:31 GMT 51.46527 -0.29663 1,900 270 167 -960
2017-11-11 10:06:29 GMT 51.46527 -0.29255 1,950 270 170 -832
2017-11-11 10:06:27 GMT 51.46527 -0.29077 1,950 270 171 -768
2017-11-11 10:06:25 GMT 51.46532 -0.28876 1,975 270 173 -832
2017-11-11 10:06:23 GMT 51.46532 -0.28564 2,000 270 174 -832
2017-11-11 10:06:21 GMT 51.46532 -0.28357 2,025 270 175 -896
2017-11-11 10:06:20 GMT 51.46531 -0.28244 2,050 270 175 -896
2017-11-11 10:06:18 GMT 51.46531 -0.27901 2,100 270 177 -1024
2017-11-11 10:06:16 GMT 51.46531 -0.27641 2,125 270 177 -1152
2017-11-11 10:06:14 GMT 51.46532 -0.27444 2,150 270 177 -1088
2017-11-11 10:06:12 GMT 51.46532 -0.27006 2,225 270 176 -1152
2017-11-11 10:06:10 GMT 51.46531 -0.26939 2,225 270 176 -1152
2017-11-11 10:06:08 GMT 51.46532 -0.26612 2,275 270 176 -1088
2017-11-11 10:06:06 GMT 51.46531 -0.26283 2,325 270 176 -960
2017-11-11 10:06:04 GMT 51.46532 -0.26093 2,325 270 176 -960
2017-11-11 10:06:02 GMT 51.46532 -0.25803 2,375 270 176 -960
2017-11-11 10:06:00 GMT 51.46531 -0.25604 2,400 270 176 -960
2017-11-11 10:05:58 GMT 51.46531 -0.25291 2,425 270 177 -960
2017-11-11 10:05:56 GMT 51.46531 -0.25055 2,450 270 177 -896
2017-11-11 10:05:52 GMT 51.46531 -0.24506 2,525 270 177 -896
2017-11-11 10:05:50 GMT 51.46532 -0.24311 2,550 270 178 -896
2017-11-11 10:05:48 GMT 51.46532 -0.23866 2,600 270 178 -960
2017-11-11 10:05:46 GMT 51.46531 -0.23743 2,600 270 178 -1024
2017-11-11 10:05:44 GMT 51.46532 -0.23361 2,650 270 178 -1024
2017-11-11 10:05:42 GMT 51.46532 -0.23227 2,675 270 178 -1024
2017-11-11 10:05:40 GMT 51.46532 -0.22967 2,700 270 178 -1088
2017-11-11 10:05:38 GMT 51.46531 -0.22560 2,775 271 178 -1088
2017-11-11 10:05:35 GMT 51.46532 -0.22255 2,800 271 178 -1088
2017-11-11 10:05:32 GMT 51.46532 -0.21913 2,850 271 178 -1024
2017-11-11 10:05:30 GMT 51.46531 -0.21606 2,900 271 178 -960
2017-11-11 10:05:27 GMT 51.46532 -0.21126 2,950 271 177 -960
2017-11-11 10:05:25 GMT 51.46532 -0.21074 2,950 271 177 -960
2017-11-11 10:05:22 GMT 51.46527 -0.20599 3,000 271 176 -960
2017-11-11 10:05:20 GMT 51.46527 -0.20288 3,050 271 176 -1024
2017-11-11 10:05:18 GMT 51.46522 -0.20080 3,075 271 176 -1024
2017-11-11 10:05:16 GMT 51.46522 -0.19783 3,125 271 174 -1088
2017-11-11 10:05:14 GMT 51.46518 -0.19486 3,150 271 174 -1088
2017-11-11 10:05:12 GMT 51.46518 -0.19278 3,175 271 174 -1088
2017-11-11 10:05:10 GMT 51.46518 -0.19048 3,225 271 173 -1088
2017-11-11 10:05:07 GMT 51.46513 -0.18736 3,250 271 173 -1088
2017-11-11 10:05:05 GMT 51.46513 -0.18432 3,300 271 172 -1024
2017-11-11 10:05:03 GMT 51.46513 -0.18053 3,350 271 172 -832
2017-11-11 10:05:00 GMT 51.46508 -0.17632 3,400 270 172 -704
2017-11-11 10:04:58 GMT 51.46508 -0.17479 3,400 270 172 -640
2017-11-11 10:04:55 GMT 51.46513 -0.17143 3,425 270 172 -576
2017-11-11 10:04:53 GMT 51.46513 -0.16776 3,450 270 172 -512
2017-11-11 10:04:51 GMT 51.46513 -0.16702 3,475 270 172 -512
2017-11-11 10:04:49 GMT 51.46518 -0.16346 3,500 269 172 -512
2017-11-11 10:04:47 GMT 51.46522 -0.16151 3,500 269 172 -512
2017-11-11 10:04:44 GMT 51.46532 -0.15604 3,525 268 172 -512
2017-11-11 10:04:41 GMT 51.46545 -0.15366 3,550 265 172 -576
2017-11-11 10:04:39 GMT 51.46564 -0.15038 3,575 263 172 -512
2017-11-11 10:04:37 GMT 51.46582 -0.14817 3,600 260 172 -512
2017-11-11 10:04:34 GMT 51.46620 -0.14534 3,625 256 173 -576
2017-11-11 10:04:32 GMT 51.46680 -0.14236 3,625 248 174 -640
2017-11-11 10:04:30 GMT 51.46761 -0.13941 3,650 243 175 -768
2017-11-11 10:04:28 GMT 51.46825 -0.13755 3,675 240 176 -768
2017-11-11 10:04:26 GMT 51.46895 -0.13565 3,700 239 176 -768
2017-11-11 10:04:24 GMT 51.47006 -0.13275 3,725 239 177 -832
2017-11-11 10:04:22 GMT 51.47067 -0.13109 3,750 239 177 -832
2017-11-11 10:04:20 GMT 51.47151 -0.12894 3,775 239 178 -832
2017-11-11 10:04:18 GMT 51.47253 -0.12627 3,800 239 178 -832
2017-11-11 10:04:16 GMT 51.47342 -0.12398 3,850 239 178 -896
2017-11-11 10:04:14 GMT 51.47411 -0.12222 3,850 239 178 -832
2017-11-11 10:04:12 GMT 51.47520 -0.11936 3,900 239 180 -832
2017-11-11 10:04:10 GMT 51.47621 -0.11673 3,925 239 180 -832
2017-11-11 10:04:08 GMT 51.47733 -0.11383 3,975 239 181 -832
2017-11-11 10:04:05 GMT 51.47830 -0.11131 4,000 239 182 -896
2017-11-11 10:04:05 GMT 51.47830 -0.11131 4,000 239 181 -832
2017-11-11 10:04:03 GMT 51.47946 -0.10845 4,025 239 182 -896
2017-11-11 10:04:01 GMT 51.48063 -0.10536 4,075 239 183 -896
2017-11-11 10:03:59 GMT 51.48088 -0.10474 4,075 239 183 -896
2017-11-11 10:03:57 GMT 51.48179 -0.10239 4,100 239 183 -960
2017-11-11 10:03:55 GMT 51.48305 -0.09911 4,150 238 184 -1088
2017-11-11 10:03:53 GMT 51.48354 -0.09784 4,175 238 184 -1024
2017-11-11 10:03:51 GMT 51.48454 -0.09531 4,200 238 184 -960
2017-11-11 10:03:49 GMT 51.48582 -0.09205 4,250 238 184 -1088
2017-11-11 10:03:46 GMT 51.48656 -0.09019 4,275 238 184 -1088
2017-11-11 10:03:43 GMT 51.48812 -0.08614 4,350 238 185 -1088
2017-11-11 10:03:41 GMT 51.48924 -0.08339 4,375 237 185 -1152
2017-11-11 10:03:39 GMT 51.48999 -0.08156 4,425 237 185 -1152
2017-11-11 10:03:36 GMT 51.49124 -0.07858 4,450 236 185 -1024
2017-11-11 10:03:33 GMT 51.49306 -0.07454 4,525 233 186 -896
2017-11-11 10:03:31 GMT 51.49422 -0.07217 4,550 230 187 -832
2017-11-11 10:03:29 GMT 51.49511 -0.07050 4,575 229 188 -896
2017-11-11 10:03:27 GMT 51.49599 -0.06889 4,600 223 191 -832
2017-11-11 10:03:27 GMT 51.49599 -0.06889 4,600 227 189 -832
2017-11-11 10:03:25 GMT 51.49722 -0.06696 4,625 223 191 -832
2017-11-11 10:03:23 GMT 51.49928 -0.06414 4,650 216 194 -832
2017-11-11 10:03:20 GMT 51.50111 -0.06221 4,700 209 198 -832
2017-11-11 10:03:18 GMT 51.50265 -0.06088 4,700 204 201 -640
2017-11-11 10:03:18 GMT 51.50265 -0.06088 4,700 204 201 -640
2017-11-11 10:03:16 GMT 51.50395 -0.05998 4,725 202 203 -576
2017-11-11 10:03:14 GMT 51.50651 -0.05859 4,775 192 210 -1088
2017-11-11 10:03:12 GMT 51.50940 -0.05760 4,800 186 217 -1024
2017-11-11 10:03:12 GMT 51.50890 -0.05775 4,800 188 214 -1088
2017-11-11 10:03:10 GMT 51.51050 -0.05738 4,825 186 217 -1024
2017-11-11 10:03:08 GMT 51.51238 -0.05714 4,850 182 221 -960
2017-11-11 10:03:06 GMT 51.51485 -0.05707 4,900 176 227 -832
2017-11-11 10:03:03 GMT 51.51704 -0.05723 4,925 174 231 -896
2017-11-11 10:03:01 GMT 51.51950 -0.05768 4,950 171 236 -832
2017-11-11 10:02:59 GMT 51.52263 -0.05835 5,000 171 239 -896
2017-11-11 10:02:57 GMT 51.52318 -0.05844 5,000 171 239 -896
2017-11-11 10:02:57 GMT 51.52318 -0.05844 5,000 171 239 -896
2017-11-11 10:02:55 GMT 51.52607 -0.05920 5,025 170 244 -1024
2017-11-11 10:02:52 GMT 51.53018 -0.06035 5,100 168 248 -1152
2017-11-11 10:02:50 GMT 51.53188 -0.06088 5,125 167 250 -1152
2017-11-11 10:02:48 GMT 51.53412 -0.06165 5,150 167 252 -1152
2017-11-11 10:02:46 GMT 51.53686 -0.06264 5,200 165 253 -1152
2017-11-11 10:02:44 GMT 51.53792 -0.06310 5,225 163 257 -1152
2017-11-11 10:02:44 GMT 51.53792 -0.06310 5,225 163 257 -1152
2017-11-11 10:02:42 GMT 51.54131 -0.06473 5,275 161 258 -1152
2017-11-11 10:02:40 GMT 51.54301 -0.06561 5,300 159 262 -1152
2017-11-11 10:02:38 GMT 51.54552 -0.06722 5,350 143 274 -1088
2017-11-11 10:02:38 GMT 51.54552 -0.06722 5,350 155 265 -1216
2017-11-11 10:02:36 GMT 51.54664 -0.06805 5,375 154 267 -1216
2017-11-11 10:02:36 GMT 51.54664 -0.06805 5,375 154 267 -1216
2017-11-11 10:02:34 GMT 51.55000 -0.07089 5,425 148 271 -1216
2017-11-11 10:02:32 GMT 51.55204 -0.07294 5,475 140 275 -1216
2017-11-11 10:02:31 GMT 51.55339 -0.07446 5,500 143 274 -1088
2017-11-11 10:02:30 GMT 51.55339 -0.07446 5,500 143 274 -1088
2017-11-11 10:02:28 GMT 51.55600 -0.07772 5,550 136 276 -1408
2017-11-11 10:02:26 GMT 51.55744 -0.07973 5,575 135 276 -1536
2017-11-11 10:02:24 GMT 51.55971 -0.08336 5,650 130 275 -1728
2017-11-11 10:02:22 GMT 51.56108 -0.08581 5,675 129 275 -1664
2017-11-11 10:02:20 GMT 51.56275 -0.08911 5,750 126 275 -1664
2017-11-11 10:02:18 GMT 51.56470 -0.09338 5,800 123 273 -2240
2017-11-11 10:02:16 GMT 51.56573 -0.09575 5,850 124 272 -2176
2017-11-11 10:02:14 GMT 51.56749 -0.09992 5,950 123 272 -2304
2017-11-11 10:02:12 GMT 51.56857 -0.10246 6,000 123 272 -2304
2017-11-11 10:02:10 GMT 51.57062 -0.10750 6,100 123 272 -2368
2017-11-11 10:02:10 GMT 51.57062 -0.10750 6,100 123 272 -2368
2017-11-11 10:02:08 GMT 51.57124 -0.10905 6,150 123 272 -2368
2017-11-11 10:02:06 GMT 51.57294 -0.11306 6,225 123 273 -2368
2017-11-11 10:02:04 GMT 51.57480 -0.11764 6,350 123 273 -2304
2017-11-11 10:02:02 GMT 51.57564 -0.11963 6,375 123 273 -2304
2017-11-11 10:02:00 GMT 51.57760 -0.12436 6,500 123 273 -2240
2017-11-11 10:01:57 GMT 51.57921 -0.12827 6,575 123 274 -2176
2017-11-11 10:01:55 GMT 51.58044 -0.13132 6,650 123 274 -2112
2017-11-11 10:01:55 GMT 51.58044 -0.13132 6,650 123 274 -2112
2017-11-11 10:01:53 GMT 51.58277 -0.13695 6,750 123 275 -1920
2017-11-11 10:01:51 GMT 51.58383 -0.13948 6,800 123 276 -1856
2017-11-11 10:01:49 GMT 51.58452 -0.14119 6,825 123 277 -1728
2017-11-11 10:01:47 GMT 51.58653 -0.14601 6,925 123 277 -1664
2017-11-11 10:01:45 GMT 51.58830 -0.15038 6,975 123 280 -1472
2017-11-11 10:01:42 GMT 51.58964 -0.15366 7,025 123 281 -1408
2017-11-11 10:01:40 GMT 51.59114 -0.15732 7,075 123 283 -1408
2017-11-11 10:01:38 GMT 51.59301 -0.16190 7,125 123 285 -1344
2017-11-11 10:01:36 GMT 51.59413 -0.16457 7,175 123 287 -1344
2017-11-11 10:01:34 GMT 51.59519 -0.16724 7,200 123 287 -1344
2017-11-11 10:01:32 GMT 51.59747 -0.17274 7,275 123 291 -1408
2017-11-11 10:01:30 GMT 51.59920 -0.17693 7,325 123 292 -1344
2017-11-11 10:01:26 GMT 51.60222 -0.18417 7,400 123 295 -1344
2017-11-11 10:01:23 GMT 51.60379 -0.18803 7,450 123 299 -1408
2017-11-11 10:01:21 GMT 51.60525 -0.19150 7,500 123 300 -1344
2017-11-11 10:01:19 GMT 51.60672 -0.19508 7,550 123 302 -1344
2017-11-11 10:01:17 GMT 51.60837 -0.19898 7,600 123 304 -1344
2017-11-11 10:01:15 GMT 51.60991 -0.20271 7,625 123 307 -1344
2017-11-11 10:01:13 GMT 51.61208 -0.20785 7,700 124 310 -1344
2017-11-11 10:01:11 GMT 51.61368 -0.21164 7,725 124 312 -1408
2017-11-11 10:01:09 GMT 51.61521 -0.21530 7,775 124 312 -1344
2017-11-11 10:01:07 GMT 51.61647 -0.21817 7,800 125 313 -1344
2017-11-11 10:01:05 GMT 51.61862 -0.22314 7,875 125 314 -1216
2017-11-11 10:01:03 GMT 51.61991 -0.22598 7,900 127 314 -896
2017-11-11 10:01:01 GMT 51.62260 -0.23175 7,950 128 314 -576
2017-11-11 10:00:59 GMT 51.62329 -0.23324 7,950 128 314 -576
2017-11-11 10:00:57 GMT 51.62494 -0.23658 7,975 129 314 -320
2017-11-11 10:00:55 GMT 51.62736 -0.24118 8,000 131 313 -128
2017-11-11 10:00:53 GMT 51.62960 -0.24521 8,000 134 313 -64
2017-11-11 10:00:51 GMT 51.63062 -0.24681 7,975 136 313 -64
2017-11-11 10:00:49 GMT 51.63337 -0.25101 8,000 137 312 -64
2017-11-11 10:00:46 GMT 51.63560 -0.25424 8,000 139 312 -64
2017-11-11 10:00:43 GMT 51.63886 -0.25856 8,000 140 312 0
2017-11-11 10:00:41 GMT 51.64133 -0.26176 8,000 141 312 -64
2017-11-11 10:00:39 GMT 51.64491 -0.26642 8,000 141 312 0
2017-11-11 10:00:37 GMT 51.64705 -0.26924 8,000 141 312 0
2017-11-11 10:00:35 GMT 51.64831 -0.27084 8,000 141 313 -64
2017-11-11 10:00:33 GMT 51.65055 -0.27374 8,000 141 313 -64
2017-11-11 10:00:31 GMT 51.65236 -0.27611 8,000 141 313 0
2017-11-11 10:00:29 GMT 51.65571 -0.28046 8,000 141 313 0
2017-11-11 10:00:27 GMT 51.65753 -0.28282 8,000 141 313 0
2017-11-11 10:00:25 GMT 51.65922 -0.28498 8,000 141 313 0
2017-11-11 10:00:23 GMT 51.66330 -0.29025 8,000 141 313 0
2017-11-11 10:00:21 GMT 51.66498 -0.29251 8,000 141 313 0
2017-11-11 10:00:19 GMT 51.66710 -0.29530 8,000 141 313 -64
2017-11-11 10:00:17 GMT 51.66847 -0.29700 8,000 141 313 -64
2017-11-11 10:00:15 GMT 51.67061 -0.29984 8,000 141 313 -64
2017-11-11 10:00:13 GMT 51.67284 -0.30273 8,000 141 313 0
2017-11-11 10:00:11 GMT 51.67578 -0.30655 8,000 141 312 -64
2017-11-11 10:00:09 GMT 51.67795 -0.30932 8,000 141 312 -64
2017-11-11 10:00:07 GMT 51.68065 -0.31281 8,000 141 312 -64
2017-11-11 10:00:05 GMT 51.68304 -0.31586 8,000 141 313 -64
2017-11-11 10:00:03 GMT 51.68472 -0.31808 8,000 141 312 -64
2017-11-11 10:00:00 GMT 51.68802 -0.32227 8,000 142 312 -64
2017-11-11 09:59:58 GMT 51.69017 -0.32491 8,000 142 313 0
2017-11-11 09:59:56 GMT 51.69258 -0.32791 8,000 143 312 -64
2017-11-11 09:59:54 GMT 51.69468 -0.33043 8,000 143 312 0
2017-11-11 09:59:52 GMT 51.69724 -0.33340 8,000 145 311 64
2017-11-11 09:59:50 GMT 51.70031 -0.33691 8,000 146 310 64
2017-11-11 09:59:48 GMT 51.70222 -0.33890 8,000 148 310 0
2017-11-11 09:59:46 GMT 51.70441 -0.34111 8,000 149 310 -64
2017-11-11 09:59:44 GMT 51.70864 -0.34492 7,975 153 308 -64
2017-11-11 09:59:42 GMT 51.70931 -0.34540 8,000 156 307 0
2017-11-11 09:59:40 GMT 51.71200 -0.34752 8,000 156 307 0
2017-11-11 09:59:38 GMT 51.71603 -0.35030 8,000 157 306 0
2017-11-11 09:59:36 GMT 51.71879 -0.35210 8,000 158 306 0
2017-11-11 09:59:34 GMT 51.71997 -0.35282 8,000 158 306 0
2017-11-11 09:59:32 GMT 51.72275 -0.35454 8,000 158 306 0
2017-11-11 09:59:30 GMT 51.72619 -0.35675 8,000 158 306 0
2017-11-11 09:59:30 GMT 51.72619 -0.35675 8,000 158 306 0
2017-11-11 09:59:28 GMT 51.72801 -0.35790 8,000 158 305 0
2017-11-11 09:59:26 GMT 51.73160 -0.36010 8,000 158 305 0
2017-11-11 09:59:24 GMT 51.73343 -0.36129 8,000 158 305 0
2017-11-11 09:59:22 GMT 51.73631 -0.36314 8,000 158 305 64
2017-11-11 09:59:20 GMT 51.73737 -0.36374 8,000 158 305 0
2017-11-11 09:59:18 GMT 51.74090 -0.36598 7,975 158 305 64
2017-11-11 09:59:16 GMT 51.74501 -0.36856 7,975 158 305 64
2017-11-11 09:59:14 GMT 51.74751 -0.37010 7,975 158 305 0
2017-11-11 09:59:12 GMT 51.74817 -0.37049 7,975 158 305 0
2017-11-11 09:59:10 GMT 51.75091 -0.37224 7,975 159 305 0
2017-11-11 09:59:08 GMT 51.75436 -0.37430 7,975 159 304 0
2017-11-11 09:59:08 GMT 51.75436 -0.37430 7,975 159 304 0
2017-11-11 09:59:06 GMT 51.75764 -0.37636 7,975 159 303 0
2017-11-11 09:59:04 GMT 51.75883 -0.37712 7,975 159 303 -64
2017-11-11 09:59:02 GMT 51.76263 -0.37940 7,975 159 303 -64
2017-11-11 09:59:00 GMT 51.76381 -0.38017 7,975 159 303 -64
2017-11-11 09:58:58 GMT 51.76868 -0.38311 7,975 159 304 -64
2017-11-11 09:58:56 GMT 51.76935 -0.38345 7,975 159 303 -64
2017-11-11 09:58:54 GMT 51.77382 -0.38612 8,000 160 303 -64
2017-11-11 09:58:52 GMT 51.77726 -0.38811 8,000 160 303 -64
2017-11-11 09:58:50 GMT 51.77908 -0.38910 7,975 161 303 -64
2017-11-11 09:58:48 GMT 51.78030 -0.38979 7,975 161 303 -64
2017-11-11 09:58:46 GMT 51.78257 -0.39101 8,000 161 304 -64
2017-11-11 09:58:44 GMT 51.78644 -0.39298 7,975 163 305 0
2017-11-11 09:58:44 GMT 51.78644 -0.39298 7,975 166 305 64
2017-11-11 09:58:41 GMT 51.78955 -0.39452 8,000 165 305 0
2017-11-11 09:58:39 GMT 51.79421 -0.39650 7,975 166 305 64
2017-11-11 09:58:37 GMT 51.79568 -0.39707 7,975 167 305 64
2017-11-11 09:58:35 GMT 51.79820 -0.39796 7,975 168 307 64
2017-11-11 09:58:35 GMT 51.79820 -0.39796 7,975 168 307 64
2017-11-11 09:58:33 GMT 51.80082 -0.39886 7,975 169 308 64
2017-11-11 09:58:31 GMT 51.80366 -0.39970 7,975 169 308 64
2017-11-11 09:58:29 GMT 51.80729 -0.40077 7,975 168 314 64
2017-11-11 09:58:27 GMT 51.81056 -0.40174 7,975 168 314 64
2017-11-11 09:58:25 GMT 51.81230 -0.40234 7,975 167 316 0
2017-11-11 09:58:23 GMT 51.81613 -0.40382 7,975 163 321 -192
2017-11-11 09:58:21 GMT 51.81770 -0.40449 7,975 162 322 -192
2017-11-11 09:58:19 GMT 51.82069 -0.40604 7,975 159 325 -128
2017-11-11 09:58:17 GMT 51.82338 -0.40768 7,975 156 329 -192
2017-11-11 09:58:15 GMT 51.82744 -0.41054 8,000 152 335 -256
2017-11-11 09:58:13 GMT 51.82963 -0.41244 8,000 151 337 -256
2017-11-11 09:58:11 GMT 51.83345 -0.41603 8,000 146 343 -384
2017-11-11 09:58:09 GMT 51.83554 -0.41824 8,025 143 346 -448
2017-11-11 09:58:07 GMT 51.83736 -0.42038 8,025 141 349 -512
2017-11-11 09:58:05 GMT 51.84043 -0.42427 8,050 139 351 -576
2017-11-11 09:58:03 GMT 51.84270 -0.42758 8,050 138 352 -640
2017-11-11 09:58:01 GMT 51.84393 -0.42943 8,075 135 356 -832
2017-11-11 09:57:59 GMT 51.84737 -0.43515 8,100 130 360 -1152
2017-11-11 09:57:57 GMT 51.84900 -0.43816 8,150 129 360 -1216
2017-11-11 09:57:55 GMT 51.85103 -0.44212 8,175 127 363 -1280
2017-11-11 09:57:53 GMT 51.85351 -0.44754 8,225 125 364 -1280
2017-11-11 09:57:51 GMT 51.85603 -0.45334 8,275 124 366 -1472
2017-11-11 09:57:49 GMT 51.85767 -0.45727 8,325 123 367 -1536
2017-11-11 09:57:47 GMT 51.85895 -0.46046 8,350 122 368 -1536
2017-11-11 09:57:45 GMT 51.86036 -0.46394 8,400 122 368 -1536
2017-11-11 09:57:43 GMT 51.86292 -0.47035 8,450 122 369 -1536
2017-11-11 09:57:41 GMT 51.86552 -0.47684 8,525 123 374 -1536
2017-11-11 09:57:39 GMT 51.86646 -0.47920 8,550 123 371 -1536
2017-11-11 09:57:37 GMT 51.86836 -0.48386 8,600 123 371 -1536
2017-11-11 09:57:35 GMT 51.87060 -0.48943 8,650 123 372 -1536
2017-11-11 09:57:33 GMT 51.87241 -0.49386 8,700 123 373 -1600
2017-11-11 09:57:31 GMT 51.87381 -0.49736 8,750 123 374 -1536
2017-11-11 09:57:29 GMT 51.87609 -0.50293 8,800 123 376 -1536
2017-11-11 09:57:27 GMT 51.87849 -0.50879 8,875 123 376 -1536
2017-11-11 09:57:25 GMT 51.87954 -0.51140 8,900 123 376 -1536
2017-11-11 09:57:23 GMT 51.88144 -0.51605 8,950 123 377 -1600
2017-11-11 09:57:21 GMT 51.88408 -0.52244 9,025 123 378 -1536
2017-11-11 09:57:18 GMT 51.88745 -0.53070 9,100 123 380 -1536
2017-11-11 09:57:16 GMT 51.88889 -0.53425 9,150 123 380 -1536
2017-11-11 09:57:14 GMT 51.89026 -0.53759 9,175 123 381 -1536
2017-11-11 09:57:12 GMT 51.89182 -0.54145 9,225 123 382 -1536
2017-11-11 09:57:10 GMT 51.89392 -0.54665 9,275 123 383 -1600
2017-11-11 09:57:08 GMT 51.89695 -0.55410 9,350 123 384 -1600
2017-11-11 09:57:06 GMT 51.89885 -0.55889 9,400 123 385 -1600
2017-11-11 09:57:04 GMT 51.90033 -0.56252 9,450 122 386 -1600
2017-11-11 09:57:02 GMT 51.90216 -0.56713 9,500 122 386 -1664
2017-11-11 09:57:00 GMT 51.90356 -0.57050 9,525 122 387 -1664
2017-11-11 09:56:58 GMT 51.90626 -0.57733 9,625 122 388 -1728
2017-11-11 09:56:56 GMT 51.90784 -0.58126 9,650 123 388 -1728
2017-11-11 09:56:54 GMT 51.90990 -0.58632 9,725 123 389 -1792
2017-11-11 09:56:52 GMT 51.91138 -0.58997 9,775 123 390 -1792
2017-11-11 09:56:50 GMT 51.91342 -0.59517 9,825 123 391 -1792
2017-11-11 09:56:48 GMT 51.91562 -0.60051 9,900 123 392 -1856
2017-11-11 09:56:46 GMT 51.91766 -0.60566 9,950 123 392 -1920
2017-11-11 09:56:43 GMT 51.91985 -0.61108 10,025 123 392 -1920
2017-11-11 09:56:41 GMT 51.92294 -0.61874 10,125 123 393 -1984
2017-11-11 09:56:38 GMT 51.92532 -0.62462 10,200 123 394 -2048
2017-11-11 09:56:36 GMT 51.92734 -0.62958 10,275 123 395 -2048
2017-11-11 09:56:34 GMT 51.92931 -0.63454 10,325 123 395 -2048
2017-11-11 09:56:32 GMT 51.93233 -0.64194 10,425 123 396 -2048
2017-11-11 09:56:30 GMT 51.93411 -0.64644 10,500 123 396 -2048
2017-11-11 09:56:28 GMT 51.93594 -0.65086 10,550 123 397 -2048
2017-11-11 09:56:26 GMT 51.93805 -0.65612 10,625 123 397 -2048
2017-11-11 09:56:24 GMT 51.94005 -0.66106 10,675 123 397 -2048
2017-11-11 09:56:22 GMT 51.94157 -0.66475 10,725 123 398 -2048
2017-11-11 09:56:20 GMT 51.94369 -0.67001 10,800 123 398 -2048
2017-11-11 09:56:17 GMT 51.94676 -0.67746 10,900 123 399 -2048
2017-11-11 09:56:15 GMT 51.94876 -0.68249 10,975 123 399 -2112
2017-11-11 09:56:13 GMT 51.95183 -0.68994 11,075 123 400 -2112
2017-11-11 09:56:13 GMT 51.95132 -0.68870 11,050 123 400 -2112
2017-11-11 09:56:11 GMT 51.95286 -0.69245 11,100 123 400 -2112
2017-11-11 09:56:09 GMT 51.95425 -0.69590 11,150 123 400 -2112
2017-11-11 09:56:07 GMT 51.95732 -0.70344 11,250 123 401 -2112
2017-11-11 09:56:05 GMT 51.95888 -0.70717 11,300 123 401 -2112
2017-11-11 09:56:03 GMT 51.96207 -0.71498 11,425 123 401 -2112
2017-11-11 09:56:01 GMT 51.96412 -0.72000 11,475 123 402 -2112
2017-11-11 09:56:01 GMT 51.96359 -0.71876 11,475 123 402 -2112
2017-11-11 09:55:59 GMT 51.96506 -0.72228 11,500 123 403 -2112
2017-11-11 09:55:57 GMT 51.96794 -0.72929 11,600 123 403 -2112
2017-11-11 09:55:55 GMT 51.96887 -0.73153 11,650 123 403 -2112
2017-11-11 09:55:53 GMT 51.97134 -0.73757 11,725 123 404 -2048
2017-11-11 09:55:51 GMT 51.97288 -0.74135 11,775 123 404 -2048
2017-11-11 09:55:49 GMT 51.97567 -0.74817 11,875 123 405 -2048
2017-11-11 09:55:47 GMT 51.97787 -0.75348 11,925 123 406 -2112
2017-11-11 09:55:45 GMT 51.97993 -0.75851 12,000 123 406 -2112
2017-11-11 09:55:43 GMT 51.98251 -0.76488 12,075 123 406 -2112
2017-11-11 09:55:41 GMT 51.98410 -0.76866 12,125 123 406 -2112
2017-11-11 09:55:39 GMT 51.98628 -0.77399 12,200 123 407 -2112
2017-11-11 09:55:37 GMT 51.98845 -0.77934 12,275 123 408 -2112
2017-11-11 09:55:35 GMT 51.99051 -0.78445 12,350 123 407 -2112
2017-11-11 09:55:33 GMT 51.99156 -0.78697 12,375 123 407 -2176
2017-11-11 09:55:31 GMT 51.99385 -0.79262 12,450 123 408 -2112
2017-11-11 09:55:29 GMT 51.99591 -0.79773 12,525 123 409 -2112
2017-11-11 09:55:27 GMT 51.99811 -0.80310 12,600 123 409 -2112
2017-11-11 09:55:25 GMT 52.00015 -0.80828 12,675 123 409 -2112
2017-11-11 09:55:25 GMT 52.00015 -0.80828 12,675 123 409 -2112
2017-11-11 09:55:23 GMT 52.00319 -0.81574 12,775 123 411 -2176
2017-11-11 09:55:21 GMT 52.00471 -0.81958 12,825 123 411 -2176
2017-11-11 09:55:19 GMT 52.00731 -0.82603 12,900 123 411 -2176
2017-11-11 09:55:17 GMT 52.00919 -0.83069 12,975 123 411 -2176
2017-11-11 09:55:15 GMT 52.01077 -0.83449 13,025 123 411 -2176
2017-11-11 09:55:12 GMT 52.01472 -0.84430 13,150 123 412 -2112
2017-11-11 09:55:12 GMT 52.01418 -0.84305 13,150 123 411 -2112
2017-11-11 09:55:10 GMT 52.01564 -0.84663 13,200 123 412 -2112
2017-11-11 09:55:08 GMT 52.01816 -0.85289 13,275 123 413 -2048
2017-11-11 09:55:06 GMT 52.02022 -0.85808 13,325 123 413 -1984
2017-11-11 09:55:04 GMT 52.02232 -0.86327 13,400 123 414 -1664
2017-11-11 09:55:02 GMT 52.02431 -0.86816 13,450 123 415 -1600
2017-11-11 09:55:00 GMT 52.02748 -0.87600 13,525 123 416 -1216
2017-11-11 09:54:58 GMT 52.02850 -0.87859 13,550 123 416 -1216
2017-11-11 09:54:56 GMT 52.03157 -0.88615 13,600 123 419 -896
2017-11-11 09:54:54 GMT 52.03297 -0.88958 13,625 123 419 -832
2017-11-11 09:54:52 GMT 52.03465 -0.89382 13,625 123 421 -640
2017-11-11 09:54:50 GMT 52.03656 -0.89853 13,650 123 426 -640
2017-11-11 09:54:48 GMT 52.03967 -0.90630 13,675 123 426 -640
2017-11-11 09:54:46 GMT 52.04118 -0.91003 13,675 123 427 -640
2017-11-11 09:54:44 GMT 52.04387 -0.91673 13,700 123 429 -832
2017-11-11 09:54:42 GMT 52.04624 -0.92270 13,750 123 431 -1024
2017-11-11 09:54:41 GMT 52.04624 -0.92270 13,750 123 432 -1152
2017-11-11 09:54:39 GMT 52.04955 -0.93078 13,800 123 433 -1216
2017-11-11 09:54:37 GMT 52.05116 -0.93491 13,825 123 434 -1280
2017-11-11 09:54:35 GMT 52.05280 -0.93894 13,850 123 435 -1408
2017-11-11 09:54:33 GMT 52.05556 -0.94582 13,925 123 436 -1664
2017-11-11 09:54:31 GMT 52.05734 -0.95017 13,950 123 437 -1792
2017-11-11 09:54:29 GMT 52.05954 -0.95566 14,025 123 438 -1856
2017-11-11 09:54:27 GMT 52.06197 -0.96176 14,075 123 438 -1856
2017-11-11 09:54:27 GMT 52.06197 -0.96176 14,075 123 438 -1856
2017-11-11 09:54:24 GMT 52.06561 -0.97088 14,175 122 439 -1856
2017-11-11 09:54:24 GMT 52.06626 -0.97252 14,200 122 439 -1856
2017-11-11 09:54:22 GMT 52.06826 -0.97747 14,250 122 440 -1856
2017-11-11 09:54:20 GMT 52.06993 -0.98167 14,300 122 441 -1856
2017-11-11 09:54:17 GMT 52.07291 -0.98916 14,375 122 442 -1856
2017-11-11 09:54:15 GMT 52.07524 -0.99503 14,450 122 442 -1856
2017-11-11 09:54:13 GMT 52.07799 -1.00195 14,525 122 443 -1856
2017-11-11 09:54:13 GMT 52.07858 -1.00342 14,525 122 443 -1856
2017-11-11 09:54:11 GMT 52.07945 -1.00563 14,550 122 444 -1856
2017-11-11 09:54:09 GMT 52.08157 -1.01098 14,625 122 444 -1920
2017-11-11 09:54:07 GMT 52.08492 -1.01937 14,700 122 446 -1920
2017-11-11 09:54:05 GMT 52.08669 -1.02385 14,750 122 446 -1920
2017-11-11 09:54:03 GMT 52.08838 -1.02806 14,800 122 446 -1920
2017-11-11 09:54:01 GMT 52.09062 -1.03371 14,875 122 447 -1920
2017-11-11 09:53:59 GMT 52.09298 -1.03962 14,925 122 447 -1920
2017-11-11 09:53:56 GMT 52.09656 -1.04864 15,025 122 447 -1984
2017-11-11 09:53:56 GMT 52.09698 -1.04974 15,050 122 449 -1856
2017-11-11 09:53:54 GMT 52.10051 -1.05850 15,150 123 449 -1792
2017-11-11 09:53:52 GMT 52.10108 -1.05994 15,150 123 449 -1792
2017-11-11 09:53:50 GMT 52.10378 -1.06669 15,225 123 450 -1792
2017-11-11 09:53:48 GMT 52.10625 -1.07297 15,300 123 450 -1792
2017-11-11 09:53:46 GMT 52.10866 -1.07887 15,350 123 450 -1792
2017-11-11 09:53:46 GMT 52.10866 -1.07887 15,350 123 450 -1792
2017-11-11 09:53:44 GMT 52.10969 -1.08145 15,375 122 451 -1792
2017-11-11 09:53:42 GMT 52.11355 -1.09110 15,475 123 453 -1792
2017-11-11 09:53:40 GMT 52.11467 -1.09400 15,500 123 453 -1792
2017-11-11 09:53:38 GMT 52.11649 -1.09855 15,550 123 453 -1792
2017-11-11 09:53:36 GMT 52.11923 -1.10538 15,625 122 454 -1792
2017-11-11 09:53:36 GMT 52.12051 -1.10855 15,650 122 455 -1792
2017-11-11 09:53:36 GMT 52.11923 -1.10538 15,625 122 454 -1792
2017-11-11 09:53:34 GMT 52.12212 -1.11252 15,700 122 455 -1792
2017-11-11 09:53:32 GMT 52.12496 -1.11966 15,750 122 455 -1792
2017-11-11 09:53:30 GMT 52.12601 -1.12228 15,775 122 455 -1792
2017-11-11 09:53:28 GMT 52.12910 -1.13002 15,875 123 456 -1792
2017-11-11 09:53:26 GMT 52.13081 -1.13434 15,900 123 456 -1792
2017-11-11 09:53:26 GMT 52.13081 -1.13434 15,900 123 456 -1792
2017-11-11 09:53:24 GMT 52.13310 -1.14014 15,975 122 457 -1792
2017-11-11 09:53:21 GMT 52.13681 -1.14929 16,050 123 458 -1792
2017-11-11 09:53:19 GMT 52.13855 -1.15364 16,100 123 458 -1856
2017-11-11 09:53:17 GMT 52.14135 -1.16055 16,175 123 459 -1792
2017-11-11 09:53:15 GMT 52.14409 -1.16753 16,250 123 460 -1856
2017-11-11 09:53:13 GMT 52.14565 -1.17126 16,275 123 460 -1856
2017-11-11 09:53:11 GMT 52.14844 -1.17821 16,350 123 461 -1856
2017-11-11 09:53:09 GMT 52.15112 -1.18487 16,425 123 463 -1792
2017-11-11 09:53:07 GMT 52.15407 -1.19209 16,500 123 462 -1856
2017-11-11 09:53:05 GMT 52.15513 -1.19476 16,525 123 462 -1856
2017-11-11 09:53:03 GMT 52.15745 -1.20057 16,575 123 463 -1856
2017-11-11 09:53:00 GMT 52.15993 -1.20667 16,650 123 464 -1728
2017-11-11 09:53:01 GMT 52.15993 -1.20667 16,650 123 464 -1728
2017-11-11 09:53:00 GMT 52.15993 -1.20667 16,650 123 464 -1728
2017-11-11 09:52:58 GMT 52.16446 -1.21765 16,750 123 464 -1664
2017-11-11 09:52:56 GMT 52.16672 -1.22325 16,800 123 465 -1728
2017-11-11 09:52:54 GMT 52.16922 -1.22932 16,850 123 466 -1728
2017-11-11 09:52:52 GMT 52.17114 -1.23398 16,900 124 467 -1728
2017-11-11 09:52:50 GMT 52.17357 -1.23978 16,950 124 467 -1728
2017-11-11 09:52:48 GMT 52.17650 -1.24672 17,025 124 468 -1792
2017-11-11 09:52:46 GMT 52.17761 -1.24938 17,050 124 468 -1792
2017-11-11 09:52:44 GMT 52.18094 -1.25717 17,125 125 470 -1792
2017-11-11 09:52:42 GMT 52.18272 -1.26114 17,175 126 470 -1792
2017-11-11 09:52:40 GMT 52.18607 -1.26854 17,250 127 471 -1856
2017-11-11 09:52:39 GMT 52.18684 -1.27029 17,250 127 471 -1856
2017-11-11 09:52:37 GMT 52.19032 -1.27754 17,350 128 471 -1856
2017-11-11 09:52:35 GMT 52.19153 -1.28006 17,375 129 471 -1984
2017-11-11 09:52:33 GMT 52.19444 -1.28578 17,425 130 471 -1984
2017-11-11 09:52:31 GMT 52.19800 -1.29254 17,525 131 472 -1984
2017-11-11 09:52:29 GMT 52.20117 -1.29843 17,600 131 473 -1856
2017-11-11 09:52:27 GMT 52.20405 -1.30368 17,650 132 473 -1856
2017-11-11 09:52:25 GMT 52.20699 -1.30902 17,700 132 473 -1920
2017-11-11 09:52:23 GMT 52.20936 -1.31326 17,750 131 474 -1856
2017-11-11 09:52:21 GMT 52.21243 -1.31882 17,825 132 475 -1856
2017-11-11 09:52:19 GMT 52.21449 -1.32256 17,850 132 475 -1920
2017-11-11 09:52:19 GMT 52.21522 -1.32385 17,875 132 475 -1920
2017-11-11 09:52:17 GMT 52.21829 -1.32942 17,925 132 475 -1920
2017-11-11 09:52:15 GMT 52.22230 -1.33664 18,025 132 476 -1920
2017-11-11 09:52:13 GMT 52.22420 -1.34010 18,050 132 476 -1920
2017-11-11 09:52:11 GMT 52.22728 -1.34567 18,125 132 476 -1984
2017-11-11 09:52:09 GMT 52.23038 -1.35124 18,200 132 476 -1984
2017-11-11 09:52:07 GMT 52.23335 -1.35658 18,275 132 477 -1984
2017-11-11 09:52:05 GMT 52.23790 -1.36482 18,375 132 477 -1856
2017-11-11 09:52:03 GMT 52.23850 -1.36591 18,375 132 477 -1856
2017-11-11 09:52:01 GMT 52.24176 -1.37180 18,450 131 478 -1664
2017-11-11 09:52:01 GMT 52.24088 -1.37015 18,425 132 479 -1600
2017-11-11 09:51:59 GMT 52.24397 -1.37581 18,475 132 479 -1600
2017-11-11 09:51:59 GMT 52.24397 -1.37581 18,475 132 479 -1600
2017-11-11 09:51:57 GMT 52.24841 -1.38382 18,550 131 480 -1792
2017-11-11 09:51:55 GMT 52.24992 -1.38657 18,575 131 483 -1792
2017-11-11 09:51:53 GMT 52.25377 -1.39351 18,650 131 480 -1728
2017-11-11 09:51:53 GMT 52.25464 -1.39511 18,675 131 481 -1728
2017-11-11 09:51:51 GMT 52.25689 -1.39919 18,725 131 481 -1792
2017-11-11 09:51:49 GMT 52.25838 -1.40186 18,750 131 481 -1792
2017-11-11 09:51:47 GMT 52.26313 -1.41049 18,825 131 482 -1728
2017-11-11 09:51:47 GMT 52.26313 -1.41049 18,825 131 482 -1728
2017-11-11 09:51:45 GMT 52.26550 -1.41480 18,875 131 482 -1856
2017-11-11 09:51:43 GMT 52.26908 -1.42132 18,950 131 484 -1664
2017-11-11 09:51:41 GMT 52.27118 -1.42508 19,000 131 483 -1728
2017-11-11 09:51:39 GMT 52.27643 -1.43456 19,100 131 484 -1664
2017-11-11 09:51:37 GMT 52.27807 -1.43756 19,125 131 485 -1728
2017-11-11 09:51:35 GMT 52.28044 -1.44196 19,175 132 487 -1792
2017-11-11 09:51:33 GMT 52.28375 -1.44792 19,225 131 486 -1728
2017-11-11 09:51:31 GMT 52.28599 -1.45195 19,275 132 487 -1728
2017-11-11 09:51:29 GMT 52.29036 -1.45985 19,350 132 488 -1728
2017-11-11 09:51:27 GMT 52.29414 -1.46667 19,425 132 487 -1600
2017-11-11 09:51:25 GMT 52.29716 -1.47217 19,475 132 488 -1728
2017-11-11 09:51:23 GMT 52.29883 -1.47515 19,500 132 488 -1792
2017-11-11 09:51:21 GMT 52.30380 -1.48415 19,600 132 489 -1728
2017-11-11 09:51:19 GMT 52.30456 -1.48551 19,600 132 489 -1728
2017-11-11 09:51:17 GMT 52.30698 -1.48990 19,650 132 489 -1728
2017-11-11 09:51:15 GMT 52.31021 -1.49567 19,700 132 490 -1728
2017-11-11 09:51:13 GMT 52.31522 -1.50473 19,800 132 492 -1728
2017-11-11 09:51:11 GMT 52.31749 -1.50879 19,850 132 492 -1728
2017-11-11 09:51:09 GMT 52.32071 -1.51462 19,900 132 492 -1792
2017-11-11 09:51:07 GMT 52.32390 -1.52039 19,975 132 493 -1728
2017-11-11 09:51:04 GMT 52.32848 -1.52862 20,050 132 494 -1728
2017-11-11 09:51:02 GMT 52.32988 -1.53110 20,075 132 494 -1728
2017-11-11 09:51:00 GMT 52.33477 -1.53997 20,150 132 495 -1728
2017-11-11 09:50:58 GMT 52.33649 -1.54304 20,200 132 495 -1728
2017-11-11 09:50:56 GMT 52.33998 -1.54939 20,250 132 495 -1728
2017-11-11 09:50:54 GMT 52.34245 -1.55386 20,300 131 497 -1728
2017-11-11 09:50:52 GMT 52.34537 -1.55914 20,350 131 497 -1728
2017-11-11 09:50:50 GMT 52.34860 -1.56500 20,425 131 497 -1728
2017-11-11 09:50:48 GMT 52.35293 -1.57285 20,500 131 499 -1728
2017-11-11 09:50:45 GMT 52.35677 -1.57982 20,575 131 499 -1792
2017-11-11 09:50:45 GMT 52.35600 -1.57842 20,550 131 499 -1792
2017-11-11 09:50:43 GMT 52.35968 -1.58517 20,625 131 499 -1728
2017-11-11 09:50:41 GMT 52.36263 -1.59050 20,675 131 500 -1792
2017-11-11 09:50:41 GMT 52.36263 -1.59050 20,675 131 500 -1728
2017-11-11 09:50:39 GMT 52.36647 -1.59749 20,750 131 502 -1728
2017-11-11 09:50:37 GMT 52.36816 -1.60065 20,775 131 502 -1728
2017-11-11 09:50:35 GMT 52.37141 -1.60659 20,825 131 502 -1792
2017-11-11 09:50:33 GMT 52.37466 -1.61255 20,900 131 503 -1792
2017-11-11 09:50:31 GMT 52.37820 -1.61907 20,950 131 503 -1792
2017-11-11 09:50:29 GMT 52.38225 -1.62645 21,025 131 504 -1792
2017-11-11 09:50:27 GMT 52.38396 -1.62956 21,075 131 504 -1792
2017-11-11 09:50:25 GMT 52.38702 -1.63521 21,125 131 505 -1792
2017-11-11 09:50:23 GMT 52.39014 -1.64093 21,175 131 505 -1792
2017-11-11 09:50:21 GMT 52.39481 -1.64948 21,275 131 507 -1792
2017-11-11 09:50:19 GMT 52.39824 -1.65581 21,325 131 507 -1792
2017-11-11 09:50:17 GMT 52.40135 -1.66153 21,400 131 507 -1792
2017-11-11 09:50:15 GMT 52.40367 -1.66584 21,425 131 507 -1792
2017-11-11 09:50:13 GMT 52.40666 -1.67130 21,500 131 508 -1856
2017-11-11 09:50:11 GMT 52.40897 -1.67557 21,525 131 508 -1792
2017-11-11 09:50:09 GMT 52.41149 -1.68012 21,575 131 509 -1856
2017-11-11 09:50:07 GMT 52.41717 -1.69040 21,675 132 510 -1856
2017-11-11 09:50:05 GMT 52.41875 -1.69331 21,725 132 510 -1856
2017-11-11 09:50:03 GMT 52.42305 -1.70097 21,800 132 511 -1856
2017-11-11 09:50:01 GMT 52.42593 -1.70609 21,850 133 512 -1856
2017-11-11 09:49:59 GMT 52.42754 -1.70891 21,875 133 511 -1856
2017-11-11 09:49:59 GMT 52.42754 -1.70891 21,875 133 512 -1856
2017-11-11 09:49:56 GMT 52.43388 -1.71983 22,000 134 512 -1856
2017-11-11 09:49:54 GMT 52.43605 -1.72348 22,025 134 512 -1856
2017-11-11 09:49:54 GMT 52.43541 -1.72234 22,025 134 512 -1856
2017-11-11 09:49:52 GMT 52.43939 -1.72890 22,100 136 512 -1856
2017-11-11 09:49:50 GMT 52.44436 -1.73670 22,175 137 513 -1792
2017-11-11 09:49:49 GMT 52.44594 -1.73912 22,200 137 513 -1792
2017-11-11 09:49:49 GMT 52.44594 -1.73912 22,200 137 513 -1792
2017-11-11 09:49:47 GMT 52.44924 -1.74408 22,275 139 513 -1856
2017-11-11 09:49:45 GMT 52.45267 -1.74889 22,325 139 513 -1856
2017-11-11 09:49:43 GMT 52.45613 -1.75365 22,375 140 513 -1856
2017-11-11 09:49:41 GMT 52.46055 -1.75954 22,450 142 514 -1856
2017-11-11 09:49:39 GMT 52.46411 -1.76407 22,525 143 514 -1856
2017-11-11 09:49:39 GMT 52.46526 -1.76544 22,525 143 514 -1856
2017-11-11 09:49:36 GMT 52.46810 -1.76896 22,575 143 514 -1856
2017-11-11 09:49:34 GMT 52.47212 -1.77376 22,625 144 514 -1856
2017-11-11 09:49:32 GMT 52.47541 -1.77759 22,700 145 515 -1856
2017-11-11 09:49:30 GMT 52.48187 -1.78490 22,775 145 515 -1856
2017-11-11 09:49:28 GMT 52.48540 -1.78886 22,850 145 515 -1856
2017-11-11 09:49:26 GMT 52.48933 -1.79329 22,900 145 516 -1920
2017-11-11 09:49:24 GMT 52.49230 -1.79658 22,950 145 516 -1920
2017-11-11 09:49:22 GMT 52.49626 -1.80097 23,000 145 517 -1920
2017-11-11 09:49:20 GMT 52.50041 -1.80565 23,075 145 518 -1856
2017-11-11 09:49:18 GMT 52.50357 -1.80916 23,125 145 518 -1856
2017-11-11 09:49:16 GMT 52.50911 -1.81534 23,200 145 518 -1856
2017-11-11 09:49:14 GMT 52.51305 -1.81984 23,275 145 520 -1856
2017-11-11 09:49:12 GMT 52.51642 -1.82357 23,325 145 520 -1856
2017-11-11 09:49:12 GMT 52.51721 -1.82452 23,325 145 520 -1856
2017-11-11 09:49:10 GMT 52.52238 -1.83032 23,400 145 521 -1856
2017-11-11 09:49:08 GMT 52.52417 -1.83228 23,425 145 521 -1856
2017-11-11 09:49:06 GMT 52.52774 -1.83632 23,500 145 522 -1920
2017-11-11 09:49:04 GMT 52.53308 -1.84241 23,575 145 523 -1856
2017-11-11 09:49:02 GMT 52.53588 -1.84555 23,625 145 523 -1856
2017-11-11 09:49:00 GMT 52.53946 -1.84955 23,675 145 523 -1856
2017-11-11 09:48:58 GMT 52.54486 -1.85570 23,750 145 524 -1920
2017-11-11 09:48:56 GMT 52.54821 -1.85952 23,800 145 524 -1984
2017-11-11 09:48:53 GMT 52.55501 -1.86720 23,925 145 525 -1984
2017-11-11 09:48:51 GMT 52.56022 -1.87309 24,000 145 526 -2048
2017-11-11 09:48:49 GMT 52.56322 -1.87645 24,050 145 526 -2048
2017-11-11 09:48:47 GMT 52.56601 -1.87958 24,100 145 526 -2048
2017-11-11 09:48:45 GMT 52.56926 -1.88324 24,150 145 527 -2048
2017-11-11 09:48:45 GMT 52.56926 -1.88324 24,150 145 527 -2048
2017-11-11 09:48:43 GMT 52.57324 -1.88774 24,200 145 527 -1984
2017-11-11 09:48:41 GMT 52.57846 -1.89362 24,300 145 527 -2048
2017-11-11 09:48:39 GMT 52.58249 -1.89812 24,375 145 528 -2048
2017-11-11 09:48:37 GMT 52.58693 -1.90308 24,450 145 528 -2048
2017-11-11 09:48:35 GMT 52.58977 -1.90628 24,475 145 528 -2048
2017-11-11 09:48:33 GMT 52.59462 -1.91170 24,575 145 528 -2048
2017-11-11 09:48:31 GMT 52.59844 -1.91602 24,625 145 529 -1984
2017-11-11 09:48:29 GMT 52.60128 -1.91915 24,675 145 529 -1984
2017-11-11 09:48:27 GMT 52.60634 -1.92482 24,750 145 530 -1984
2017-11-11 09:48:25 GMT 52.61017 -1.92904 24,825 146 531 -1984
2017-11-11 09:48:23 GMT 52.61444 -1.93382 24,875 146 531 -1984
2017-11-11 09:48:21 GMT 52.62016 -1.94016 24,975 146 532 -1984
2017-11-11 09:48:19 GMT 52.62400 -1.94442 25,050 146 532 -1984
2017-11-11 09:48:17 GMT 52.62625 -1.94687 25,050 146 533 -1984
2017-11-11 09:48:15 GMT 52.63056 -1.95164 25,150 146 533 -1984
2017-11-11 09:48:13 GMT 52.63609 -1.95770 25,225 146 534 -2112
2017-11-11 09:48:11 GMT 52.63918 -1.96106 25,275 146 534 -2048
2017-11-11 09:48:09 GMT 52.64264 -1.96487 25,325 146 534 -2176
2017-11-11 09:48:07 GMT 52.65398 -1.97730 25,525 146 535 -2240
2017-11-11 09:48:05 GMT 52.65624 -1.97975 25,575 146 535 -2240
2017-11-11 09:48:03 GMT 52.65624 -1.97975 25,575 146 535 -2240
2017-11-11 09:48:01 GMT 52.65850 -1.98225 25,625 146 535 -2240
2017-11-11 09:47:59 GMT 52.66324 -1.98746 25,700 146 537 -2240
2017-11-11 09:47:57 GMT 52.66905 -1.99379 25,800 146 538 -2176
2017-11-11 09:47:55 GMT 52.67172 -1.99669 25,850 146 538 -2240
2017-11-11 09:47:53 GMT 52.67586 -2.00124 25,925 146 538 -2176
2017-11-11 09:47:51 GMT 52.68022 -2.00600 26,000 146 538 -2240
2017-11-11 09:47:49 GMT 52.68582 -2.01207 26,100 146 538 -2240
2017-11-11 09:47:47 GMT 52.68974 -2.01637 26,150 146 539 -2176
2017-11-11 09:47:45 GMT 52.69267 -2.01958 26,200 146 539 -2176
2017-11-11 09:47:42 GMT 52.70096 -2.02866 26,350 146 541 -2240
2017-11-11 09:47:40 GMT 52.70389 -2.03178 26,400 146 541 -2240
2017-11-11 09:47:38 GMT 52.70784 -2.03616 26,475 146 541 -2240
2017-11-11 09:47:36 GMT 52.71222 -2.04094 26,550 146 542 -2240
2017-11-11 09:47:36 GMT 52.71222 -2.04094 26,550 146 542 -2240
2017-11-11 09:47:34 GMT 52.71721 -2.04643 26,650 146 544 -2368
2017-11-11 09:47:32 GMT 52.72138 -2.05101 26,700 146 543 -2240
2017-11-11 09:47:30 GMT 52.72451 -2.05444 26,775 146 543 -2304
2017-11-11 09:47:28 GMT 52.72702 -2.05719 26,825 146 543 -2368
2017-11-11 09:47:26 GMT 52.73392 -2.06482 26,950 146 544 -2368
2017-11-11 09:47:24 GMT 52.73602 -2.06711 26,975 146 544 -2368
2017-11-11 09:47:21 GMT 52.74373 -2.07563 27,125 146 544 -2432
2017-11-11 09:47:19 GMT 52.74857 -2.08092 27,225 146 546 -2368
2017-11-11 09:47:17 GMT 52.75127 -2.08395 27,275 146 546 -2432
2017-11-11 09:47:15 GMT 52.75525 -2.08832 27,350 146 546 -2432
2017-11-11 09:47:13 GMT 52.75965 -2.09321 27,425 146 547 -2432
2017-11-11 09:47:11 GMT 52.76157 -2.09526 27,450 146 547 -2432
2017-11-11 09:47:09 GMT 52.76871 -2.10312 27,575 146 548 -2368
2017-11-11 09:47:07 GMT 52.77269 -2.10749 27,675 146 548 -2368
2017-11-11 09:47:05 GMT 52.77713 -2.11235 27,750 146 548 -2368
2017-11-11 09:47:03 GMT 52.78134 -2.11700 27,825 146 548 -2368
2017-11-11 09:47:01 GMT 52.78725 -2.12341 27,925 146 549 -2368
2017-11-11 09:46:59 GMT 52.79022 -2.12669 27,975 146 550 -2368
2017-11-11 09:46:57 GMT 52.79424 -2.13103 28,050 146 549 -2368
2017-11-11 09:46:55 GMT 52.79741 -2.13455 28,125 146 550 -2368
2017-11-11 09:46:55 GMT 52.79828 -2.13547 28,125 146 551 -2368
2017-11-11 09:46:53 GMT 52.80104 -2.13849 28,175 146 551 -2368
2017-11-11 09:46:51 GMT 52.80527 -2.14312 28,250 146 551 -2368
2017-11-11 09:46:51 GMT 52.80527 -2.14312 28,250 146 553 -2432
2017-11-11 09:46:49 GMT 52.81081 -2.14908 28,350 146 553 -2432
2017-11-11 09:46:47 GMT 52.81526 -2.15393 28,450 146 553 -2432
2017-11-11 09:46:47 GMT 52.81421 -2.15277 28,425 146 552 -2496
2017-11-11 09:46:44 GMT 52.82126 -2.16042 28,550 146 553 -2432
2017-11-11 09:46:41 GMT 52.82827 -2.16807 28,700 146 554 -2496
2017-11-11 09:46:38 GMT 52.83362 -2.17384 28,800 146 554 -2496
2017-11-11 09:46:36 GMT 52.83809 -2.17875 28,875 146 554 -2432
2017-11-11 09:46:34 GMT 52.84131 -2.18224 28,950 146 554 -2496
2017-11-11 09:46:32 GMT 52.84689 -2.18834 29,050 146 554 -2496
2017-11-11 09:46:30 GMT 52.84964 -2.19138 29,100 146 555 -2496
2017-11-11 09:46:28 GMT 52.85522 -2.19742 29,200 146 556 -2496
2017-11-11 09:46:26 GMT 52.85737 -2.19978 29,250 146 556 -2496
2017-11-11 09:46:24 GMT 52.86379 -2.20684 29,375 146 557 -2496
2017-11-11 09:46:24 GMT 52.86379 -2.20684 29,375 146 557 -2496
2017-11-11 09:46:22 GMT 52.86807 -2.21155 29,450 145 559 -2560
2017-11-11 09:46:20 GMT 52.87299 -2.21695 29,550 146 558 -2496
2017-11-11 09:46:18 GMT 52.87622 -2.22057 29,600 146 558 -2496
2017-11-11 09:46:18 GMT 52.87622 -2.22057 29,600 146 558 -2496
2017-11-11 09:46:16 GMT 52.88068 -2.22557 29,700 146 559 -2496
2017-11-11 09:46:14 GMT 52.88562 -2.23101 29,800 145 560 -2496
2017-11-11 09:46:12 GMT 52.88882 -2.23457 29,850 145 560 -2496
2017-11-11 09:46:10 GMT 52.89313 -2.23938 29,950 145 560 -2496
2017-11-11 09:46:08 GMT 52.89825 -2.24518 30,050 145 560 -2560
2017-11-11 09:46:06 GMT 52.90275 -2.25024 30,125 145 561 -2496
2017-11-11 09:46:06 GMT 52.90275 -2.25024 30,125 145 561 -2496
2017-11-11 09:46:04 GMT 52.90599 -2.25388 30,200 145 561 -2496
2017-11-11 09:46:02 GMT 52.91174 -2.26036 30,300 145 562 -2496
2017-11-11 09:46:00 GMT 52.91602 -2.26522 30,375 145 563 -2496
2017-11-11 09:45:58 GMT 52.91798 -2.26746 30,425 145 563 -2496
2017-11-11 09:45:56 GMT 52.92485 -2.27524 30,550 145 563 -2496
2017-11-11 09:45:54 GMT 52.92787 -2.27867 30,600 145 564 -2496
2017-11-11 09:45:52 GMT 52.93106 -2.28233 30,675 145 565 -2496
2017-11-11 09:45:50 GMT 52.93474 -2.28645 30,750 145 565 -2496
2017-11-11 09:45:48 GMT 52.94270 -2.29552 30,900 145 566 -2560
2017-11-11 09:45:46 GMT 52.94484 -2.29803 30,950 145 567 -2560
2017-11-11 09:45:44 GMT 52.94980 -2.30370 31,050 145 567 -2560
2017-11-11 09:45:42 GMT 52.95538 -2.31010 31,150 145 568 -2560
2017-11-11 09:45:40 GMT 52.95862 -2.31380 31,200 145 568 -2560
2017-11-11 09:45:38 GMT 52.96337 -2.31929 31,300 145 569 -2560
2017-11-11 09:45:38 GMT 52.96337 -2.31929 31,300 145 569 -2560
2017-11-11 09:45:36 GMT 52.96747 -2.32399 31,375 145 570 -2560
2017-11-11 09:45:34 GMT 52.97182 -2.32895 31,475 145 570 -2560
2017-11-11 09:45:32 GMT 52.97505 -2.33271 31,525 145 570 -2560
2017-11-11 09:45:31 GMT 52.97850 -2.33671 31,600 144 571 -2560
2017-11-11 09:45:30 GMT 52.97955 -2.33803 31,625 144 571 -2560
2017-11-11 09:45:28 GMT 52.98282 -2.34174 31,675 144 572 -2560
2017-11-11 09:45:26 GMT 52.98971 -2.34982 31,825 144 573 -2560
2017-11-11 09:45:24 GMT 52.99168 -2.35207 31,850 144 573 -2560
2017-11-11 09:45:22 GMT 52.99864 -2.36015 32,000 144 574 -2560
2017-11-11 09:45:22 GMT 52.99731 -2.35863 31,975 144 574 -2560
2017-11-11 09:45:20 GMT 53.00166 -2.36374 32,050 144 574 -2560
2017-11-11 09:45:18 GMT 53.00666 -2.36952 32,150 144 575 -2560
2017-11-11 09:45:16 GMT 53.01077 -2.37434 32,225 144 577 -2560
2017-11-11 09:45:14 GMT 53.01536 -2.37964 32,325 144 576 -2560
2017-11-11 09:45:12 GMT 53.01993 -2.38495 32,425 145 577 -2560
2017-11-11 09:45:10 GMT 53.02473 -2.39059 32,500 144 577 -2560
2017-11-11 09:45:08 GMT 53.02844 -2.39486 32,575 144 578 -2560
2017-11-11 09:45:06 GMT 53.03063 -2.39745 32,625 144 579 -2560
2017-11-11 09:45:04 GMT 53.03742 -2.40532 32,750 144 580 -2496
2017-11-11 09:45:02 GMT 53.04181 -2.41043 32,825 144 580 -2560
2017-11-11 09:45:00 GMT 53.04575 -2.41501 32,925 144 580 -2560
2017-11-11 09:44:58 GMT 53.04772 -2.41731 32,950 144 582 -2560
2017-11-11 09:44:56 GMT 53.05433 -2.42500 33,075 144 582 -2688
2017-11-11 09:44:54 GMT 53.05847 -2.42989 33,175 144 583 -2880
2017-11-11 09:44:52 GMT 53.06266 -2.43481 33,250 144 583 -2816
2017-11-11 09:44:50 GMT 53.06620 -2.43889 33,325 144 583 -2880
2017-11-11 09:44:48 GMT 53.07083 -2.44430 33,425 144 583 -3072
2017-11-11 09:44:46 GMT 53.07655 -2.45102 33,575 144 584 -3328
2017-11-11 09:44:44 GMT 53.08119 -2.45646 33,675 144 584 -3392
2017-11-11 09:44:44 GMT 53.08119 -2.45646 33,675 144 584 -3648
2017-11-11 09:44:42 GMT 53.08338 -2.45905 33,750 144 584 -3456
2017-11-11 09:44:40 GMT 53.08868 -2.46517 33,875 144 584 -3648
2017-11-11 09:44:38 GMT 53.09264 -2.46988 34,000 144 584 -3840
2017-11-11 09:44:35 GMT 53.10055 -2.47911 34,250 144 582 -3968
2017-11-11 09:44:33 GMT 53.10516 -2.48456 34,375 144 581 -3968
2017-11-11 09:44:31 GMT 53.10823 -2.48817 34,475 144 582 -3968
2017-11-11 09:44:31 GMT 53.10910 -2.48919 34,500 144 582 -3968
2017-11-11 09:44:29 GMT 53.11326 -2.49414 34,625 144 581 -3968
2017-11-11 09:44:27 GMT 53.11743 -2.49900 34,750 144 580 -3904
2017-11-11 09:44:25 GMT 53.12265 -2.50520 34,900 144 580 -3904
2017-11-11 09:44:23 GMT 53.12572 -2.50881 35,000 144 579 -3840
2017-11-11 09:44:21 GMT 53.13119 -2.51530 35,150 144 578 -3840
2017-11-11 09:44:21 GMT 53.13030 -2.51425 35,125 144 579 -3840
2017-11-11 09:44:19 GMT 53.13510 -2.51991 35,275 144 578 -3840
2017-11-11 09:44:17 GMT 53.13943 -2.52508 35,400 144 577 -3840
2017-11-11 09:44:15 GMT 53.14398 -2.53046 35,525 144 577 -3840
2017-11-11 09:44:13 GMT 53.14833 -2.53565 35,675 144 576 -3840
2017-11-11 09:44:11 GMT 53.15135 -2.53925 35,775 144 576 -3840
2017-11-11 09:44:09 GMT 53.15632 -2.54519 35,900 144 575 -3840
2017-11-11 09:44:09 GMT 53.15632 -2.54519 35,900 144 575 -3840
2017-11-11 09:44:07 GMT 53.16065 -2.55028 36,025 144 574 -3840
2017-11-11 09:44:05 GMT 53.16476 -2.55518 36,150 144 574 -3840
2017-11-11 09:44:03 GMT 53.17104 -2.56256 36,350 144 572 -3648
2017-11-11 09:44:01 GMT 53.17342 -2.56539 36,400 144 572 -3584
2017-11-11 09:43:59 GMT 53.17923 -2.57226 36,575 144 572 -3328
2017-11-11 09:43:56 GMT 53.18678 -2.58116 36,750 144 572 -3200
2017-11-11 09:43:54 GMT 53.18765 -2.58218 36,775 144 572 -3200
2017-11-11 09:43:52 GMT 53.19411 -2.58971 36,950 145 571 -3200
2017-11-11 09:43:50 GMT 53.19846 -2.59474 37,050 145 571 -3264
2017-11-11 09:43:48 GMT 53.20255 -2.59948 37,150 145 570 -3328
2017-11-11 09:43:46 GMT 53.20688 -2.60449 37,275 145 570 -3328
2017-11-11 09:43:44 GMT 53.21141 -2.60972 37,400 145 569 -3328
2017-11-11 09:43:42 GMT 53.21489 -2.61373 37,500 145 569 -3328
2017-11-11 09:43:40 GMT 53.21791 -2.61718 37,575 145 568 -3328
2017-11-11 09:43:38 GMT 53.22436 -2.62471 37,750 145 568 -3264
2017-11-11 09:43:38 GMT 53.22545 -2.62597 37,775 145 568 -3264
2017-11-11 09:43:36 GMT 53.22890 -2.62993 37,850 145 567 -3264
2017-11-11 09:43:34 GMT 53.23128 -2.63272 37,900 145 567 -3264
2017-11-11 09:43:32 GMT 53.23621 -2.63850 38,025 144 567 -3264
2017-11-11 09:43:30 GMT 53.24153 -2.64472 38,175 144 566 -3200
2017-11-11 09:43:28 GMT 53.24603 -2.64997 38,275 144 565 -3200
2017-11-11 09:43:26 GMT 53.25009 -2.65477 38,375 144 564 -3264
2017-11-11 09:43:26 GMT 53.25009 -2.65477 38,375 144 564 -3264
2017-11-11 09:43:24 GMT 53.25455 -2.66006 38,500 144 563 -3264
2017-11-11 09:43:22 GMT 53.25687 -2.66285 38,550 144 563 -3264
2017-11-11 09:43:20 GMT 53.26108 -2.66795 38,675 144 563 -3264
2017-11-11 09:43:18 GMT 53.26740 -2.67556 38,825 144 562 -3264
2017-11-11 09:43:16 GMT 53.27182 -2.68091 38,950 143 561 -3328
2017-11-11 09:43:16 GMT 53.26950 -2.67807 38,875 144 562 -3328
2017-11-11 09:43:14 GMT 53.27392 -2.68341 39,000 144 560 -3264
2017-11-11 09:43:12 GMT 53.27788 -2.68828 39,125 144 560 -3200
2017-11-11 09:43:10 GMT 53.28229 -2.69351 39,250 144 559 -3264
2017-11-11 09:43:08 GMT 53.28877 -2.70130 39,400 144 558 -3200
2017-11-11 09:43:06 GMT 53.29088 -2.70381 39,450 144 557 -3072
2017-11-11 09:43:06 GMT 53.29088 -2.70381 39,450 144 557 -3072
2017-11-11 09:43:04 GMT 53.29654 -2.71055 39,600 144 557 -3072
2017-11-11 09:43:04 GMT 53.29528 -2.70910 39,550 144 557 -3072
2017-11-11 09:43:02 GMT 53.30177 -2.71676 39,725 144 556 -2944
2017-11-11 09:42:59 GMT 53.30785 -2.72396 39,850 144 556 -2816
2017-11-11 09:42:57 GMT 53.30974 -2.72626 39,900 144 556 -2752
2017-11-11 09:42:55 GMT 53.31308 -2.73018 39,975 144 556 -2560
2017-11-11 09:42:55 GMT 53.31395 -2.73120 40,000 144 556 -2624
2017-11-11 09:42:53 GMT 53.31811 -2.73615 40,100 144 556 -2560
2017-11-11 09:42:51 GMT 53.32210 -2.74085 40,175 144 558 -1792
2017-11-11 09:42:51 GMT 53.32210 -2.74085 40,175 144 556 -2496
2017-11-11 09:42:49 GMT 53.32713 -2.74682 40,250 144 556 -2368
2017-11-11 09:42:47 GMT 53.33215 -2.75280 40,350 144 557 -2304
2017-11-11 09:42:47 GMT 53.33215 -2.75280 40,350 144 557 -2304
2017-11-11 09:42:47 GMT 53.33215 -2.75280 40,350 144 557 -2240
2017-11-11 09:42:45 GMT 53.33713 -2.75886 40,450 144 557 -2240
2017-11-11 09:42:43 GMT 53.34114 -2.76361 40,525 144 557 -1984
2017-11-11 09:42:41 GMT 53.34342 -2.76637 40,575 144 557 -1920
2017-11-11 09:42:39 GMT 53.34824 -2.77209 40,650 144 558 -1856
2017-11-11 09:42:39 GMT 53.34824 -2.77209 40,650 144 558 -1856
2017-11-11 09:42:39 GMT 53.34824 -2.77209 40,650 144 558 -1728
2017-11-11 09:42:37 GMT 53.35138 -2.77583 40,675 144 558 -1728
2017-11-11 09:42:35 GMT 53.35620 -2.78158 40,750 144 558 -1472
2017-11-11 09:42:35 GMT 53.35538 -2.78064 40,725 144 558 -1664
2017-11-11 09:42:33 GMT 53.35934 -2.78536 40,800 144 558 -1472
2017-11-11 09:42:31 GMT 53.36499 -2.79217 40,850 144 559 -1280
2017-11-11 09:42:30 GMT 53.36499 -2.79217 40,850 144 558 -1088
2017-11-11 09:42:28 GMT 53.36961 -2.79767 40,900 144 558 -1088
2017-11-11 09:42:26 GMT 53.37382 -2.80261 40,950 144 558 -704
2017-11-11 09:42:24 GMT 53.38010 -2.81015 40,975 144 558 -448
2017-11-11 09:42:22 GMT 53.38431 -2.81517 40,975 144 557 -128
2017-11-11 09:42:20 GMT 53.38683 -2.81815 40,975 144 557 -64
2017-11-11 09:42:18 GMT 53.39310 -2.82568 41,000 144 557 -64
2017-11-11 09:42:16 GMT 53.39690 -2.83016 40,975 144 557 -64
2017-11-11 09:42:14 GMT 53.39877 -2.83237 40,975 144 557 -64
2017-11-11 09:42:12 GMT 53.40422 -2.83892 41,000 144 557 -64
2017-11-11 09:42:10 GMT 53.40966 -2.84538 41,000 144 557 -64
2017-11-11 09:42:08 GMT 53.41260 -2.84893 41,000 144 557 -64
2017-11-11 09:42:06 GMT 53.41823 -2.85566 41,000 144 557 -64
2017-11-11 09:42:04 GMT 53.42265 -2.86089 41,000 144 557 -64
2017-11-11 09:42:02 GMT 53.42661 -2.86571 41,000 144 558 -64
2017-11-11 09:42:00 GMT 53.42851 -2.86792 41,000 144 558 -64
2017-11-11 09:41:58 GMT 53.43375 -2.87418 41,000 144 558 -64
2017-11-11 09:41:56 GMT 53.43773 -2.87898 41,000 144 558 -64
2017-11-11 09:41:53 GMT 53.44569 -2.88852 41,000 144 558 -64
2017-11-11 09:41:51 GMT 53.44653 -2.88957 41,000 144 558 -64
2017-11-11 09:41:49 GMT 53.45174 -2.89584 41,000 144 558 0
2017-11-11 09:41:47 GMT 53.45595 -2.90086 41,000 144 558 0
2017-11-11 09:41:45 GMT 53.46098 -2.90690 40,975 144 558 0
2017-11-11 09:41:43 GMT 53.46701 -2.91420 41,000 144 558 0
2017-11-11 09:41:41 GMT 53.46911 -2.91671 41,000 144 558 -64
2017-11-11 09:41:39 GMT 53.47311 -2.92150 41,000 144 558 -64
2017-11-11 09:41:37 GMT 53.47728 -2.92652 41,000 144 558 0
2017-11-11 09:41:35 GMT 53.48377 -2.93432 41,000 144 558 0
2017-11-11 09:41:33 GMT 53.48587 -2.93690 41,000 144 558 0
2017-11-11 09:41:31 GMT 53.48964 -2.94143 41,000 144 558 0
2017-11-11 09:41:29 GMT 53.49555 -2.94846 41,000 144 558 0
2017-11-11 09:41:27 GMT 53.50053 -2.95451 41,000 144 558 64
2017-11-11 09:41:25 GMT 53.50493 -2.95980 40,975 144 558 64
2017-11-11 09:41:23 GMT 53.50703 -2.96231 40,975 144 558 64
2017-11-11 09:41:21 GMT 53.51059 -2.96663 41,000 144 558 64
2017-11-11 09:41:19 GMT 53.51459 -2.97141 41,000 144 558 64
2017-11-11 09:41:17 GMT 53.51897 -2.97673 40,975 144 558 64
2017-11-11 09:41:15 GMT 53.52316 -2.98174 40,975 144 558 64
2017-11-11 09:41:13 GMT 53.52754 -2.98703 40,975 144 558 64
2017-11-11 09:41:11 GMT 53.53154 -2.99184 40,975 144 558 64
2017-11-11 09:41:09 GMT 53.53572 -2.99684 40,975 144 558 64
2017-11-11 09:41:07 GMT 53.54033 -3.00242 41,000 144 558 64
2017-11-11 09:41:05 GMT 53.54452 -3.00751 40,975 144 558 0
2017-11-11 09:41:03 GMT 53.55057 -3.01480 40,975 144 558 0
2017-11-11 09:41:01 GMT 53.55437 -3.01936 40,975 144 558 0
2017-11-11 09:40:59 GMT 53.55895 -3.02485 40,975 144 558 -64
2017-11-11 09:40:57 GMT 53.56291 -3.02964 41,000 144 558 0
2017-11-11 09:40:55 GMT 53.56732 -3.03497 41,000 144 558 -64
2017-11-11 09:40:53 GMT 53.57045 -3.03877 41,000 144 558 -64
2017-11-11 09:40:51 GMT 53.57446 -3.04353 41,000 144 558 -64
2017-11-11 09:40:49 GMT 53.57800 -3.04782 41,000 144 558 0
2017-11-11 09:40:47 GMT 53.58115 -3.05161 41,000 144 558 0
2017-11-11 09:40:45 GMT 53.58655 -3.05820 41,000 144 558 0
2017-11-11 09:40:43 GMT 53.59199 -3.06479 41,000 144 558 -64
2017-11-11 09:40:41 GMT 53.59471 -3.06809 41,000 144 558 0
2017-11-11 09:40:41 GMT 53.59471 -3.06809 41,000 144 558 0
2017-11-11 09:40:39 GMT 53.59955 -3.07390 41,000 144 558 -64
2017-11-11 09:40:37 GMT 53.60141 -3.07617 41,000 144 558 0
2017-11-11 09:40:35 GMT 53.60811 -3.08425 41,000 144 558 -64
2017-11-11 09:40:33 GMT 53.60999 -3.08653 41,000 144 558 0
2017-11-11 09:40:31 GMT 53.61713 -3.09516 41,000 144 558 0
2017-11-11 09:40:31 GMT 53.61817 -3.09637 41,000 144 558 0
2017-11-11 09:40:31 GMT 53.61713 -3.09516 41,000 144 558 0
2017-11-11 09:40:29 GMT 53.62110 -3.09992 41,000 144 558 0
2017-11-11 09:40:27 GMT 53.62194 -3.10097 40,975 144 558 0
2017-11-11 09:40:25 GMT 53.62864 -3.10905 40,975 144 558 0
2017-11-11 09:40:23 GMT 53.63177 -3.11282 40,975 144 558 0
2017-11-11 09:40:20 GMT 53.63974 -3.12247 40,975 144 558 -64
2017-11-11 09:40:20 GMT 53.63887 -3.12145 40,975 144 558 0
2017-11-11 09:40:18 GMT 53.64262 -3.12600 41,000 144 558 0
2017-11-11 09:40:14 GMT 53.65100 -3.13620 40,975 144 558 -64
2017-11-11 09:40:12 GMT 53.65604 -3.14225 40,975 144 558 0
2017-11-11 09:40:12 GMT 53.65686 -3.14327 40,975 144 558 0
2017-11-11 09:40:09 GMT 53.66291 -3.15065 40,975 144 558 -64
2017-11-11 09:40:07 GMT 53.66524 -3.15339 40,975 144 558 0
2017-11-11 09:40:05 GMT 53.66877 -3.15776 40,975 144 558 0
2017-11-11 09:40:03 GMT 53.67398 -3.16406 40,975 144 558 -64
2017-11-11 09:40:01 GMT 53.67773 -3.16861 41,000 144 557 0
2017-11-11 09:39:59 GMT 53.68190 -3.17372 41,000 144 557 0
2017-11-11 09:39:57 GMT 53.68837 -3.18159 41,000 144 557 0
2017-11-11 09:39:55 GMT 53.69047 -3.18418 41,000 144 558 0
2017-11-11 09:39:53 GMT 53.69633 -3.19129 40,975 144 559 -64
2017-11-11 09:39:53 GMT 53.69633 -3.19129 40,975 144 558 0
2017-11-11 09:39:51 GMT 53.70052 -3.19638 41,000 144 559 -64
2017-11-11 09:39:49 GMT 53.70466 -3.20146 41,000 144 559 -64
2017-11-11 09:39:47 GMT 53.70657 -3.20377 41,000 144 559 0
2017-11-11 09:39:45 GMT 53.71115 -3.20934 41,000 144 559 0
2017-11-11 09:39:43 GMT 53.71639 -3.21576 41,000 144 559 0
2017-11-11 09:39:40 GMT 53.72159 -3.22213 41,000 144 559 0
2017-11-11 09:39:40 GMT 53.72159 -3.22213 41,000 144 559 0
2017-11-11 09:39:38 GMT 53.72575 -3.22723 41,000 144 559 -64
2017-11-11 09:39:36 GMT 53.73227 -3.23515 41,000 144 559 -64
2017-11-11 09:39:33 GMT 53.73683 -3.24072 41,000 144 559 0
2017-11-11 09:39:31 GMT 53.74102 -3.24581 41,000 144 559 0
2017-11-11 09:39:29 GMT 53.74605 -3.25195 41,000 144 559 0
2017-11-11 09:39:27 GMT 53.74960 -3.25635 41,000 144 559 0
2017-11-11 09:39:25 GMT 53.75568 -3.26375 40,975 144 559 0
2017-11-11 09:39:23 GMT 53.75880 -3.26757 41,000 144 559 0
2017-11-11 09:39:21 GMT 53.76109 -3.27037 40,975 144 559 0
2017-11-11 09:39:19 GMT 53.76904 -3.28015 40,975 144 559 0
2017-11-11 09:39:17 GMT 53.77114 -3.28273 40,975 144 559 0
2017-11-11 09:39:14 GMT 53.77510 -3.28758 41,000 144 559 0
2017-11-11 09:39:12 GMT 53.78055 -3.29425 40,975 144 559 0
2017-11-11 09:39:10 GMT 53.78595 -3.30092 41,000 144 559 0
2017-11-11 09:39:08 GMT 53.79012 -3.30602 40,975 143 559 0
2017-11-11 09:39:06 GMT 53.79325 -3.30987 40,975 143 559 0
2017-11-11 09:39:03 GMT 53.80247 -3.32110 41,000 143 559 0
2017-11-11 09:39:00 GMT 53.80559 -3.32501 41,000 143 559 -64
2017-11-11 09:38:58 GMT 53.81164 -3.33241 41,000 143 559 -64
2017-11-11 09:38:56 GMT 53.81644 -3.33835 41,000 143 559 -64
2017-11-11 09:38:54 GMT 53.81746 -3.33960 41,000 143 559 0
2017-11-11 09:38:51 GMT 53.82349 -3.34706 41,000 143 558 0
2017-11-11 09:38:49 GMT 53.82831 -3.35293 41,000 143 558 0
2017-11-11 09:38:49 GMT 53.82831 -3.35293 41,000 143 558 0
2017-11-11 09:38:47 GMT 53.83269 -3.35836 41,000 143 559 0
2017-11-11 09:38:45 GMT 53.83706 -3.36375 40,975 143 558 0
2017-11-11 09:38:43 GMT 53.84349 -3.37170 40,975 143 558 0
2017-11-11 09:38:41 GMT 53.84432 -3.37272 41,000 143 558 0
2017-11-11 09:38:39 GMT 53.84953 -3.37910 40,975 143 557 0
2017-11-11 09:38:37 GMT 53.85456 -3.38524 41,000 143 557 0
2017-11-11 09:38:35 GMT 53.85787 -3.38936 40,975 143 557 64
2017-11-11 09:38:34 GMT 53.85871 -3.39033 41,000 143 557 0
2017-11-11 09:38:31 GMT 53.86684 -3.40035 41,000 143 557 0
2017-11-11 09:38:29 GMT 53.86997 -3.40423 40,975 144 558 0
2017-11-11 09:38:27 GMT 53.87389 -3.40906 41,000 143 557 0
2017-11-11 09:38:25 GMT 53.87974 -3.41620 40,975 144 558 0
2017-11-11 09:38:25 GMT 53.87974 -3.41620 40,975 144 558 0
2017-11-11 09:38:23 GMT 53.88412 -3.42159 40,975 143 557 0
2017-11-11 09:38:21 GMT 53.88701 -3.42515 40,975 143 557 -64
2017-11-11 09:38:21 GMT 53.88701 -3.42515 40,975 143 557 -64
2017-11-11 09:38:19 GMT 53.88931 -3.42797 40,975 143 557 0
2017-11-11 09:38:17 GMT 53.89682 -3.43723 41,000 143 558 0
2017-11-11 09:38:15 GMT 53.89869 -3.43953 40,975 143 558 0
2017-11-11 09:38:13 GMT 53.90597 -3.44853 41,000 143 557 -64
2017-11-11 09:38:11 GMT 53.90828 -3.45132 41,000 143 558 -64
2017-11-11 09:38:09 GMT 53.91117 -3.45496 41,000 143 558 -64
2017-11-11 09:38:07 GMT 53.91765 -3.46289 41,000 143 558 0
2017-11-11 09:38:05 GMT 53.91971 -3.46548 41,000 143 558 0
2017-11-11 09:38:03 GMT 53.92406 -3.47087 41,000 143 558 0
2017-11-11 09:38:01 GMT 53.92969 -3.47780 41,000 143 558 64
2017-11-11 09:37:59 GMT 53.93449 -3.48372 41,000 143 558 0
2017-11-11 09:37:57 GMT 53.93575 -3.48525 41,000 143 558 0
2017-11-11 09:37:55 GMT 53.94095 -3.49169 40,975 143 558 0
2017-11-11 09:37:53 GMT 53.94511 -3.49687 40,975 143 558 64
2017-11-11 09:37:51 GMT 53.94928 -3.50205 40,975 143 558 64
2017-11-11 09:37:49 GMT 53.95221 -3.50566 40,975 143 559 0
2017-11-11 09:37:47 GMT 53.95949 -3.51466 40,975 143 558 0
2017-11-11 09:37:45 GMT 53.96178 -3.51743 40,975 143 558 0
2017-11-11 09:37:43 GMT 53.96759 -3.52465 40,975 143 558 0
2017-11-11 09:37:41 GMT 53.97052 -3.52826 40,975 143 558 0
2017-11-11 09:37:39 GMT 53.97386 -3.53242 40,975 143 558 -64
2017-11-11 09:37:37 GMT 53.98091 -3.54121 40,975 143 558 0
2017-11-11 09:37:35 GMT 53.98407 -3.54503 40,975 143 558 0
2017-11-11 09:37:33 GMT 53.98612 -3.54761 40,975 143 558 0
2017-11-11 09:37:31 GMT 53.99073 -3.55327 41,000 143 558 -64
2017-11-11 09:37:29 GMT 53.99571 -3.55949 41,000 143 558 -64
2017-11-11 09:37:27 GMT 53.99906 -3.56361 41,000 143 558 -64
2017-11-11 09:37:25 GMT 54.00362 -3.56926 41,000 143 558 -64
2017-11-11 09:37:23 GMT 54.00760 -3.57417 41,000 143 559 -64
2017-11-11 09:37:21 GMT 54.01196 -3.57960 41,000 143 559 -64
2017-11-11 09:37:19 GMT 54.01614 -3.58477 41,000 143 559 -64
2017-11-11 09:37:17 GMT 54.01903 -3.58841 41,000 143 559 -64
2017-11-11 09:37:15 GMT 54.02611 -3.59721 41,000 143 558 -64
2017-11-11 09:37:13 GMT 54.03030 -3.60238 41,000 143 559 -64
2017-11-11 09:37:11 GMT 54.03507 -3.60830 41,000 143 559 -64
2017-11-11 09:37:11 GMT 54.03342 -3.60626 41,000 143 559 -64
2017-11-11 09:37:08 GMT 54.03841 -3.61246 41,000 143 559 -64
2017-11-11 09:37:08 GMT 54.03841 -3.61246 41,000 143 559 -64
2017-11-11 09:37:06 GMT 54.04445 -3.61999 41,000 143 559 0
2017-11-11 09:37:06 GMT 54.04445 -3.61999 41,000 143 559 0
2017-11-11 09:37:04 GMT 54.04943 -3.62622 41,000 143 559 0
2017-11-11 09:37:02 GMT 54.05255 -3.63012 40,975 143 559 0
2017-11-11 09:36:59 GMT 54.05776 -3.63664 41,000 143 559 0
2017-11-11 09:36:59 GMT 54.05672 -3.63530 41,000 143 559 0
2017-11-11 09:36:57 GMT 54.06065 -3.64019 41,000 143 559 -64
2017-11-11 09:36:55 GMT 54.06834 -3.64981 41,000 143 559 0
2017-11-11 09:36:53 GMT 54.06963 -3.65138 40,975 143 559 64
2017-11-11 09:36:51 GMT 54.07462 -3.65766 40,975 143 558 64
2017-11-11 09:36:49 GMT 54.07874 -3.66284 40,975 143 559 0
2017-11-11 09:36:47 GMT 54.08271 -3.66774 40,975 143 559 64
2017-11-11 09:36:45 GMT 54.08789 -3.67422 40,975 143 558 64
2017-11-11 09:36:43 GMT 54.09000 -3.67681 41,000 143 558 0
2017-11-11 09:36:41 GMT 54.09622 -3.68458 41,000 143 558 0
2017-11-11 09:36:41 GMT 54.09622 -3.68458 41,000 143 558 0
2017-11-11 09:36:39 GMT 54.09933 -3.68850 41,000 143 558 0
2017-11-11 09:36:37 GMT 54.10451 -3.69494 40,975 143 558 0
2017-11-11 09:36:34 GMT 54.10971 -3.70142 41,000 143 558 0
2017-11-11 09:36:32 GMT 54.11390 -3.70659 41,000 143 558 0
2017-11-11 09:36:30 GMT 54.11948 -3.71361 41,000 143 558 0
2017-11-11 09:36:28 GMT 54.12177 -3.71645 41,000 143 558 0
2017-11-11 09:36:25 GMT 54.12863 -3.72507 41,000 143 558 0
2017-11-11 09:36:23 GMT 54.13321 -3.73072 41,000 143 558 0
2017-11-11 09:36:20 GMT 54.14048 -3.73979 41,000 143 559 0
2017-11-11 09:36:18 GMT 54.14154 -3.74116 41,000 143 559 0
2017-11-11 09:36:16 GMT 54.14777 -3.74893 40,975 143 559 0
2017-11-11 09:36:14 GMT 54.15133 -3.75337 41,000 143 559 0
2017-11-11 09:36:12 GMT 54.15527 -3.75827 40,975 143 560 0
2017-11-11 09:36:10 GMT 54.15920 -3.76322 40,975 143 560 0
2017-11-11 09:36:08 GMT 54.16319 -3.76815 41,000 143 559 0
2017-11-11 09:36:08 GMT 54.16319 -3.76815 41,000 143 559 0
2017-11-11 09:36:06 GMT 54.16674 -3.77259 41,000 143 559 0
2017-11-11 09:36:04 GMT 54.17172 -3.77881 41,000 143 559 0
2017-11-11 09:36:02 GMT 54.17591 -3.78398 40,975 143 559 0
2017-11-11 09:36:00 GMT 54.17986 -3.78895 41,000 143 559 0
2017-11-11 09:36:00 GMT 54.17986 -3.78895 41,000 143 559 0
2017-11-11 09:35:58 GMT 54.18382 -3.79384 41,000 143 559 0
2017-11-11 09:35:56 GMT 54.18695 -3.79774 41,000 143 559 0
2017-11-11 09:35:54 GMT 54.19235 -3.80449 41,000 143 560 0
2017-11-11 09:35:52 GMT 54.19821 -3.81178 41,000 143 560 64
2017-11-11 09:35:50 GMT 54.20217 -3.81670 41,000 143 560 64
2017-11-11 09:35:48 GMT 54.20526 -3.82065 40,975 143 560 64
2017-11-11 09:35:46 GMT 54.21153 -3.82842 40,975 143 560 64
2017-11-11 09:35:43 GMT 54.21529 -3.83313 40,975 143 560 64
2017-11-11 09:35:41 GMT 54.21925 -3.83811 40,975 143 560 64
2017-11-11 09:35:39 GMT 54.22470 -3.84481 40,975 143 560 64
2017-11-11 09:35:37 GMT 54.23052 -3.85216 40,975 143 560 64
2017-11-11 09:35:35 GMT 54.23241 -3.85447 40,975 143 560 0
2017-11-11 09:35:33 GMT 54.23680 -3.85992 40,975 143 561 0
2017-11-11 09:35:31 GMT 54.24304 -3.86775 40,975 143 561 0
2017-11-11 09:35:29 GMT 54.24597 -3.87139 40,975 143 561 0
2017-11-11 09:35:27 GMT 54.25076 -3.87739 40,975 143 561 0
2017-11-11 09:35:25 GMT 54.25184 -3.87874 40,975 143 561 0
2017-11-11 09:35:23 GMT 54.25682 -3.88496 40,975 143 561 0
2017-11-11 09:35:21 GMT 54.26413 -3.89410 40,975 143 560 0
2017-11-11 09:35:19 GMT 54.26747 -3.89826 40,975 143 560 0
2017-11-11 09:35:17 GMT 54.27102 -3.90265 40,975 143 560 0
2017-11-11 09:35:15 GMT 54.27605 -3.90895 40,975 143 560 -64
2017-11-11 09:35:13 GMT 54.28001 -3.91388 40,975 143 560 0
2017-11-11 09:35:11 GMT 54.28233 -3.91671 41,000 143 560 -64
2017-11-11 09:35:11 GMT 54.28125 -3.91541 41,000 143 560 -64
2017-11-11 09:35:09 GMT 54.28773 -3.92353 40,975 143 560 -64
2017-11-11 09:35:07 GMT 54.29086 -3.92745 41,000 143 560 -64
2017-11-11 09:35:05 GMT 54.29690 -3.93502 40,975 143 560 -64
2017-11-11 09:35:04 GMT 54.29878 -3.93731 41,000 143 560 -64
2017-11-11 09:35:03 GMT 54.29965 -3.93836 41,000 143 560 -64
2017-11-11 09:35:01 GMT 54.30277 -3.94226 41,000 143 560 -64
2017-11-11 09:34:59 GMT 54.30588 -3.94619 41,000 143 560 -64
2017-11-11 09:34:57 GMT 54.31132 -3.95298 41,000 143 560 0
2017-11-11 09:34:54 GMT 54.31734 -3.96057 41,000 143 560 -64
2017-11-11 09:34:52 GMT 54.32172 -3.96606 41,000 143 560 -64
2017-11-11 09:34:50 GMT 54.32799 -3.97390 41,000 143 560 0
2017-11-11 09:34:48 GMT 54.33196 -3.97888 41,000 143 560 0
2017-11-11 09:34:46 GMT 54.33405 -3.98146 41,000 143 561 0
2017-11-11 09:34:44 GMT 54.33966 -3.98852 41,000 143 560 0
2017-11-11 09:34:42 GMT 54.34259 -3.99216 41,000 143 560 0
2017-11-11 09:34:40 GMT 54.34867 -3.99977 40,975 143 561 0
2017-11-11 09:34:38 GMT 54.35160 -4.00335 41,000 143 561 0
2017-11-11 09:34:36 GMT 54.35678 -4.00993 41,000 143 560 0
2017-11-11 09:34:34 GMT 54.36077 -4.01484 41,000 143 560 0
2017-11-11 09:34:32 GMT 54.36491 -4.02008 40,975 143 560 0
2017-11-11 09:34:30 GMT 54.36701 -4.02274 41,000 143 560 64
2017-11-11 09:34:28 GMT 54.37329 -4.03057 40,975 143 560 0
2017-11-11 09:34:25 GMT 54.37744 -4.03581 40,975 143 560 0
2017-11-11 09:34:23 GMT 54.38367 -4.04372 41,000 143 561 0
2017-11-11 09:34:21 GMT 54.39075 -4.05271 41,000 143 561 0
2017-11-11 09:34:19 GMT 54.39075 -4.05271 41,000 143 561 0
2017-11-11 09:34:17 GMT 54.39615 -4.05953 41,000 143 561 0
2017-11-11 09:34:15 GMT 54.39904 -4.06328 41,000 143 560 -64
2017-11-11 09:34:13 GMT 54.40732 -4.07393 41,000 142 561 0
2017-11-11 09:34:10 GMT 54.40942 -4.07659 41,000 142 561 0
2017-11-11 09:34:07 GMT 54.41561 -4.08467 41,000 142 561 0
2017-11-11 09:34:05 GMT 54.42032 -4.09079 41,000 142 561 0
2017-11-11 09:34:02 GMT 54.42795 -4.10081 40,975 142 561 0
2017-11-11 09:34:00 GMT 54.42874 -4.10189 41,000 142 561 0
2017-11-11 09:33:57 GMT 54.43614 -4.11172 41,000 142 562 0
2017-11-11 09:33:55 GMT 54.44124 -4.11858 40,975 142 562 0
2017-11-11 09:33:52 GMT 54.44633 -4.12545 40,975 142 562 0
2017-11-11 09:33:50 GMT 54.45268 -4.13393 41,000 142 562 0
2017-11-11 09:33:48 GMT 54.45574 -4.13802 41,000 142 562 0
2017-11-11 09:33:47 GMT 54.45653 -4.13918 41,000 142 562 0
2017-11-11 09:33:46 GMT 54.45779 -4.14076 40,975 142 562 0
2017-11-11 09:33:44 GMT 54.46184 -4.14626 41,000 142 562 64
2017-11-11 09:33:41 GMT 54.46903 -4.15590 41,000 142 562 0
2017-11-11 09:33:39 GMT 54.47635 -4.16576 40,975 142 562 0
2017-11-11 09:33:36 GMT 54.47964 -4.17012 40,975 142 562 0
2017-11-11 09:33:34 GMT 54.48558 -4.17805 40,975 142 562 -64
2017-11-11 09:33:32 GMT 54.48758 -4.18080 41,000 142 562 -64
2017-11-11 09:33:30 GMT 54.49150 -4.18603 41,000 142 562 0
2017-11-11 09:33:28 GMT 54.49722 -4.19371 41,000 141 562 0
2017-11-11 09:33:26 GMT 54.50006 -4.19759 41,000 141 562 0
2017-11-11 09:33:24 GMT 54.50619 -4.20582 41,000 141 562 -64
2017-11-11 09:33:21 GMT 54.50986 -4.21075 41,000 141 562 0
2017-11-11 09:33:19 GMT 54.51393 -4.21625 41,000 141 562 0
2017-11-11 09:33:17 GMT 54.51784 -4.22150 41,000 141 562 64
2017-11-11 09:33:15 GMT 54.52314 -4.22865 40,975 141 563 0
2017-11-11 09:33:12 GMT 54.52826 -4.23555 41,000 141 563 0
2017-11-11 09:33:10 GMT 54.53334 -4.24247 41,000 141 563 0
2017-11-11 09:33:10 GMT 54.53435 -4.24387 41,000 141 563 0
2017-11-11 09:33:08 GMT 54.53623 -4.24630 40,975 141 563 0
2017-11-11 09:33:06 GMT 54.54089 -4.25268 40,975 141 563 0
2017-11-11 09:33:04 GMT 54.54395 -4.25679 40,975 141 563 0
2017-11-11 09:33:02 GMT 54.54721 -4.26128 41,000 141 563 0
2017-11-11 09:33:02 GMT 54.54826 -4.26262 40,975 141 563 0
2017-11-11 09:33:00 GMT 54.55316 -4.26924 40,975 141 563 0
2017-11-11 09:32:58 GMT 54.55703 -4.27451 41,000 141 563 -64
2017-11-11 09:32:55 GMT 54.56276 -4.28225 40,975 141 563 -64
2017-11-11 09:32:53 GMT 54.56868 -4.29032 41,000 141 563 -64
2017-11-11 09:32:51 GMT 54.57049 -4.29282 41,000 141 563 0
2017-11-11 09:32:49 GMT 54.57440 -4.29808 41,000 141 563 -64
2017-11-11 09:32:47 GMT 54.58173 -4.30809 41,000 141 563 0
2017-11-11 09:32:45 GMT 54.58357 -4.31055 41,000 141 563 0
2017-11-11 09:32:43 GMT 54.58767 -4.31613 41,000 141 563 0
2017-11-11 09:32:41 GMT 54.59074 -4.32029 40,975 141 563 0
2017-11-11 09:32:41 GMT 54.59176 -4.32162 41,000 141 563 0
2017-11-11 09:32:39 GMT 54.59770 -4.32974 41,000 141 563 0
2017-11-11 09:32:37 GMT 54.60054 -4.33362 40,975 141 564 0
2017-11-11 09:32:35 GMT 54.60359 -4.33777 41,000 141 564 64
2017-11-11 09:32:33 GMT 54.60750 -4.34307 40,975 141 564 64
2017-11-11 09:32:31 GMT 54.61220 -4.34942 40,975 141 564 64
2017-11-11 09:32:29 GMT 54.61667 -4.35558 40,975 141 564 64
2017-11-11 09:32:27 GMT 54.62118 -4.36165 40,975 141 564 64
2017-11-11 09:32:25 GMT 54.62549 -4.36747 40,975 141 564 0
2017-11-11 09:32:23 GMT 54.62980 -4.37331 40,975 141 564 0
2017-11-11 09:32:20 GMT 54.63487 -4.38031 40,975 141 564 64
2017-11-11 09:32:18 GMT 54.63794 -4.38446 40,975 141 563 0
2017-11-11 09:32:16 GMT 54.64513 -4.39413 40,975 141 563 0
2017-11-11 09:32:14 GMT 54.64693 -4.39670 40,975 141 563 -64
2017-11-11 09:32:12 GMT 54.65002 -4.40083 40,975 141 563 0
2017-11-11 09:32:10 GMT 54.65410 -4.40641 41,000 141 563 -64
2017-11-11 09:32:07 GMT 54.66065 -4.41529 41,000 141 563 0
2017-11-11 09:32:06 GMT 54.66472 -4.42087 41,000 141 563 -64
2017-11-11 09:32:05 GMT 54.66573 -4.42225 41,000 141 563 -64
2017-11-11 09:32:03 GMT 54.67141 -4.42999 41,000 141 563 -64
2017-11-11 09:32:01 GMT 54.67509 -4.43498 41,000 141 563 0
2017-11-11 09:32:01 GMT 54.67430 -4.43390 41,000 141 563 0
2017-11-11 09:31:59 GMT 54.67798 -4.43889 41,000 141 563 0
2017-11-11 09:31:56 GMT 54.68344 -4.44639 41,000 141 563 0
2017-11-11 09:31:54 GMT 54.68896 -4.45396 41,000 141 563 0
2017-11-11 09:31:52 GMT 54.69163 -4.45754 41,000 141 563 0
2017-11-11 09:31:50 GMT 54.69469 -4.46170 41,000 141 563 0
2017-11-11 09:31:48 GMT 54.70015 -4.46925 40,975 141 563 0
2017-11-11 09:31:46 GMT 54.70284 -4.47285 41,000 141 563 0
2017-11-11 09:31:44 GMT 54.70793 -4.47976 41,000 141 562 0
2017-11-11 09:31:42 GMT 54.71278 -4.48646 41,000 141 562 0
2017-11-11 09:31:40 GMT 54.71750 -4.49283 40,975 141 562 -64
2017-11-11 09:31:38 GMT 54.72076 -4.49732 40,975 141 562 -64
2017-11-11 09:31:36 GMT 54.72728 -4.50623 41,000 141 563 -64
2017-11-11 09:31:35 GMT 54.72624 -4.50480 41,000 141 562 -64
2017-11-11 09:31:33 GMT 54.73133 -4.51180 41,000 141 563 -64
2017-11-11 09:31:30 GMT 54.73621 -4.51846 41,000 141 563 -64
2017-11-11 09:31:28 GMT 54.73947 -4.52295 41,000 141 563 -64
2017-11-11 09:31:26 GMT 54.74616 -4.53210 41,000 141 563 0
2017-11-11 09:31:26 GMT 54.75004 -4.53744 41,000 141 563 0
2017-11-11 09:31:23 GMT 54.75288 -4.54135 41,000 141 562 0
2017-11-11 09:31:21 GMT 54.75673 -4.54664 41,000 141 562 0
2017-11-11 09:31:19 GMT 54.76061 -4.55192 41,000 141 562 0
2017-11-11 09:31:17 GMT 54.76266 -4.55475 41,000 141 562 0
2017-11-11 09:31:15 GMT 54.76611 -4.55941 41,000 141 562 0
2017-11-11 09:31:13 GMT 54.76978 -4.56450 41,000 141 562 0
2017-11-11 09:31:11 GMT 54.77527 -4.57198 41,000 141 562 0
2017-11-11 09:31:09 GMT 54.77853 -4.57647 41,000 141 563 0
2017-11-11 09:31:07 GMT 54.78300 -4.58255 41,000 141 563 64
2017-11-11 09:31:05 GMT 54.78726 -4.58841 41,000 141 563 0
2017-11-11 09:31:03 GMT 54.79152 -4.59428 40,975 141 563 64
2017-11-11 09:31:01 GMT 54.79599 -4.60044 40,975 141 563 64
2017-11-11 09:30:59 GMT 54.79990 -4.60578 40,975 141 563 64
2017-11-11 09:30:56 GMT 54.80681 -4.61523 40,975 141 563 64
2017-11-11 09:30:55 GMT 54.80986 -4.61942 40,975 141 563 0
2017-11-11 09:30:54 GMT 54.80986 -4.61942 40,975 141 563 0
2017-11-11 09:30:52 GMT 54.81228 -4.62275 40,975 141 563 0
2017-11-11 09:30:50 GMT 54.81880 -4.63165 40,975 141 563 64
2017-11-11 09:30:48 GMT 54.82164 -4.63556 40,975 141 563 0
2017-11-11 09:30:46 GMT 54.82573 -4.64122 40,975 141 563 0
2017-11-11 09:30:44 GMT 54.82878 -4.64536 41,000 141 563 0
2017-11-11 09:30:44 GMT 54.83038 -4.64762 41,000 141 563 0
2017-11-11 09:30:42 GMT 54.83487 -4.65376 41,000 141 563 0
2017-11-11 09:30:39 GMT 54.84059 -4.66168 41,000 141 563 0
2017-11-11 09:30:37 GMT 54.84261 -4.66442 40,975 141 563 0
2017-11-11 09:30:35 GMT 54.85117 -4.67622 40,975 141 563 -64
2017-11-11 09:30:33 GMT 54.85318 -4.67905 40,975 141 563 0
2017-11-11 09:30:31 GMT 54.85849 -4.68631 40,975 141 563 0
2017-11-11 09:30:29 GMT 54.86133 -4.69027 40,975 141 564 -64
2017-11-11 09:30:27 GMT 54.86659 -4.69754 40,975 141 564 -64
2017-11-11 09:30:25 GMT 54.86763 -4.69890 40,975 141 564 -64
2017-11-11 09:30:23 GMT 54.87252 -4.70564 41,000 141 563 0
2017-11-11 09:30:21 GMT 54.87657 -4.71130 41,000 141 563 0
2017-11-11 09:30:18 GMT 54.88248 -4.71944 41,000 141 563 -64
2017-11-11 09:30:15 GMT 54.88861 -4.72784 41,000 141 563 -64
2017-11-11 09:30:12 GMT 54.89470 -4.73624 41,000 141 564 -64
2017-11-11 09:30:10 GMT 54.90180 -4.74609 40,975 141 564 -64
2017-11-11 09:30:08 GMT 54.90285 -4.74755 40,975 141 564 -64
2017-11-11 09:30:07 GMT 54.90385 -4.74892 41,000 141 563 0
2017-11-11 09:30:05 GMT 54.90953 -4.75683 40,975 141 563 0
2017-11-11 09:30:03 GMT 54.91363 -4.76249 40,975 141 563 0
2017-11-11 09:30:01 GMT 54.91786 -4.76839 40,975 141 563 -64
2017-11-11 09:29:58 GMT 54.92436 -4.77744 41,000 141 563 -64
2017-11-11 09:29:56 GMT 54.92720 -4.78132 40,975 141 563 -64
2017-11-11 09:29:54 GMT 54.93108 -4.78671 41,000 141 563 -64
2017-11-11 09:29:52 GMT 54.93592 -4.79345 41,000 141 562 -64
2017-11-11 09:29:49 GMT 54.94244 -4.80244 41,000 141 562 -64
2017-11-11 09:29:47 GMT 54.94570 -4.80694 41,000 141 562 -64
2017-11-11 09:29:44 GMT 54.95078 -4.81403 41,000 141 563 -64
2017-11-11 09:29:42 GMT 54.95706 -4.82275 41,000 141 563 -64
2017-11-11 09:29:40 GMT 54.96111 -4.82841 41,000 141 563 -64
2017-11-11 09:29:38 GMT 54.96414 -4.83261 41,000 141 563 -64
2017-11-11 09:29:35 GMT 54.97023 -4.84109 41,000 141 563 0
2017-11-11 09:29:32 GMT 54.97549 -4.84844 41,000 141 562 0
2017-11-11 09:29:30 GMT 54.98035 -4.85523 41,000 141 563 0
2017-11-11 09:29:28 GMT 54.98483 -4.86145 41,000 141 563 0
2017-11-11 09:29:26 GMT 54.98788 -4.86569 41,000 141 563 0
2017-11-11 09:29:24 GMT 54.99193 -4.87136 40,975 141 563 64
2017-11-11 09:29:22 GMT 54.99696 -4.87841 40,975 141 563 0
2017-11-11 09:29:20 GMT 55.00104 -4.88407 40,975 141 563 0
2017-11-11 09:29:18 GMT 55.00507 -4.88972 40,975 141 562 0
2017-11-11 09:29:16 GMT 55.00729 -4.89283 40,975 141 562 -64
2017-11-11 09:29:14 GMT 55.01502 -4.90356 41,000 141 562 0
2017-11-11 09:29:12 GMT 55.01823 -4.90806 41,000 141 562 0
2017-11-11 09:29:09 GMT 55.02433 -4.91655 41,000 141 562 -64
2017-11-11 09:29:07 GMT 55.02637 -4.91938 41,000 141 562 -64
2017-11-11 09:29:04 GMT 55.03326 -4.92903 41,000 141 563 -64
2017-11-11 09:29:04 GMT 55.03326 -4.92903 41,000 141 563 -64
2017-11-11 09:29:02 GMT 55.03711 -4.93440 41,000 141 563 -64
2017-11-11 09:29:00 GMT 55.04114 -4.94005 41,000 141 563 0
2017-11-11 09:28:58 GMT 55.04521 -4.94571 41,000 141 563 0
2017-11-11 09:28:56 GMT 55.04904 -4.95101 41,000 141 563 0
2017-11-11 09:28:54 GMT 55.05472 -4.95891 41,000 141 563 0
2017-11-11 09:28:51 GMT 55.05940 -4.96542 41,000 141 562 0
2017-11-11 09:28:49 GMT 55.06307 -4.97051 41,000 141 562 0
2017-11-11 09:28:47 GMT 55.06956 -4.97955 41,000 141 563 0
2017-11-11 09:28:44 GMT 55.07339 -4.98496 41,000 141 562 64
2017-11-11 09:28:41 GMT 55.07949 -4.99345 41,000 141 563 0
2017-11-11 09:28:39 GMT 55.08354 -4.99911 41,000 141 563 0
2017-11-11 09:28:37 GMT 55.08880 -5.00652 41,000 141 563 0
2017-11-11 09:28:35 GMT 55.09424 -5.01413 41,000 141 563 0
2017-11-11 09:28:33 GMT 55.09527 -5.01559 40,975 141 563 64
2017-11-11 09:28:31 GMT 55.10033 -5.02269 40,975 141 563 0
2017-11-11 09:28:29 GMT 55.10416 -5.02808 40,975 141 563 64
2017-11-11 09:28:26 GMT 55.11026 -5.03657 40,975 141 563 64
2017-11-11 09:28:23 GMT 55.11818 -5.04765 40,975 141 563 64
2017-11-11 09:28:21 GMT 55.11896 -5.04878 40,975 141 563 0
2017-11-11 09:28:19 GMT 55.12283 -5.05413 40,975 141 563 0
2017-11-11 09:28:17 GMT 55.12912 -5.06300 41,000 141 563 0
2017-11-11 09:28:16 GMT 55.13093 -5.06553 41,000 141 563 0
2017-11-11 09:28:15 GMT 55.13093 -5.06553 41,000 141 563 0
2017-11-11 09:28:13 GMT 55.13557 -5.07205 40,975 141 563 0
2017-11-11 09:28:11 GMT 55.14061 -5.07918 41,000 141 563 0
2017-11-11 09:28:09 GMT 55.14587 -5.08659 40,975 141 563 64
2017-11-11 09:28:07 GMT 55.14871 -5.09058 40,975 141 563 0
2017-11-11 09:28:05 GMT 55.15318 -5.09682 41,000 141 563 0
2017-11-11 09:28:03 GMT 55.15723 -5.10248 40,975 141 563 0
2017-11-11 09:28:01 GMT 55.16148 -5.10848 40,975 141 563 0
2017-11-11 09:27:59 GMT 55.16450 -5.11280 40,975 141 563 0
2017-11-11 09:27:57 GMT 55.17017 -5.12071 40,975 141 563 0
2017-11-11 09:27:54 GMT 55.17339 -5.12529 40,975 141 563 0
2017-11-11 09:27:51 GMT 55.18191 -5.13727 40,975 141 563 0
2017-11-11 09:27:49 GMT 55.18492 -5.14152 41,000 141 563 -64
2017-11-11 09:27:47 GMT 55.18776 -5.14556 40,975 141 563 -64
2017-11-11 09:27:45 GMT 55.19504 -5.15582 40,975 141 563 -64
2017-11-11 09:27:42 GMT 55.19870 -5.16091 41,000 141 563 -64
2017-11-11 09:27:40 GMT 55.20355 -5.16777 41,000 141 563 -64
2017-11-11 09:27:38 GMT 55.21063 -5.17781 41,000 141 563 -64
2017-11-11 09:27:36 GMT 55.21063 -5.17781 41,000 141 563 -64
2017-11-11 09:27:34 GMT 55.21449 -5.18320 41,000 141 563 -64
2017-11-11 09:27:32 GMT 55.21873 -5.18921 41,000 141 563 0
2017-11-11 09:27:29 GMT 55.22502 -5.19807 41,000 141 563 -64
2017-11-11 09:27:27 GMT 55.23065 -5.20606 41,000 141 564 -64
2017-11-11 09:27:27 GMT 55.23065 -5.20606 41,000 141 564 0
2017-11-11 09:27:25 GMT 55.23349 -5.21011 41,000 141 564 -64
2017-11-11 09:27:23 GMT 55.23756 -5.21584 41,000 141 564 0
2017-11-11 09:27:20 GMT 55.24320 -5.22384 41,000 141 564 0
2017-11-11 09:27:18 GMT 55.24928 -5.23240 41,000 141 564 0
2017-11-11 09:27:16 GMT 55.25130 -5.23531 40,975 141 564 0
2017-11-11 09:27:14 GMT 55.25755 -5.24414 41,000 141 564 0
2017-11-11 09:27:10 GMT 55.26549 -5.25534 40,975 141 564 0
2017-11-11 09:27:10 GMT 55.26466 -5.25421 40,975 141 564 64
2017-11-11 09:27:07 GMT 55.27235 -5.26512 40,975 141 564 0
2017-11-11 09:27:05 GMT 55.27417 -5.26769 40,975 141 564 0
2017-11-11 09:27:03 GMT 55.27721 -5.27198 40,975 141 564 0
2017-11-11 09:27:01 GMT 55.28165 -5.27828 40,975 140 565 0
2017-11-11 09:26:59 GMT 55.28548 -5.28376 40,975 140 565 0
2017-11-11 09:26:57 GMT 55.29037 -5.29067 40,975 140 565 64
2017-11-11 09:26:55 GMT 55.29642 -5.29924 40,975 140 565 64
2017-11-11 09:26:53 GMT 55.29843 -5.30215 40,975 140 565 0
2017-11-11 09:26:50 GMT 55.30532 -5.31189 40,975 140 565 0
2017-11-11 09:26:48 GMT 55.30714 -5.31447 40,975 140 565 0
2017-11-11 09:26:46 GMT 55.31401 -5.32425 40,975 140 565 0
2017-11-11 09:26:43 GMT 55.31951 -5.33203 40,975 140 565 -64
2017-11-11 09:26:41 GMT 55.32252 -5.33637 40,975 140 565 0
2017-11-11 09:26:38 GMT 55.32861 -5.34501 40,975 140 565 -64
2017-11-11 09:26:36 GMT 55.33223 -5.35018 40,975 140 565 -64
2017-11-11 09:26:34 GMT 55.33791 -5.35826 41,000 140 565 -64
2017-11-11 09:26:32 GMT 55.34116 -5.36286 40,975 140 565 -64
2017-11-11 09:26:30 GMT 55.34399 -5.36690 41,000 140 565 -64
2017-11-11 09:26:28 GMT 55.34982 -5.37523 41,000 140 564 -64
2017-11-11 09:26:26 GMT 55.35308 -5.37981 41,000 140 564 0
2017-11-11 09:26:24 GMT 55.35690 -5.38532 40,975 140 564 -64
2017-11-11 09:26:22 GMT 55.35933 -5.38879 41,000 140 564 0
2017-11-11 09:26:20 GMT 55.36382 -5.39510 40,975 140 564 -64
2017-11-11 09:26:18 GMT 55.36802 -5.40120 41,000 140 564 0
2017-11-11 09:26:15 GMT 55.37631 -5.41303 40,975 140 564 0
2017-11-11 09:26:13 GMT 55.38017 -5.41842 40,975 140 564 0
2017-11-11 09:26:11 GMT 55.38217 -5.42134 40,975 140 564 -64
2017-11-11 09:26:09 GMT 55.38885 -5.43088 40,975 140 564 0
2017-11-11 09:26:07 GMT 55.39009 -5.43258 40,975 140 564 0
2017-11-11 09:26:04 GMT 55.39655 -5.44179 41,000 140 564 -64
2017-11-11 09:26:02 GMT 55.40117 -5.44847 40,975 140 564 0
2017-11-11 09:25:59 GMT 55.40969 -5.46054 40,975 140 564 -64
2017-11-11 09:25:57 GMT 55.41048 -5.46170 40,975 140 564 -64
2017-11-11 09:25:55 GMT 55.41732 -5.47152 40,975 140 563 0
2017-11-11 09:25:53 GMT 55.41957 -5.47466 40,975 140 563 -64
2017-11-11 09:25:52 GMT 55.42236 -5.47870 41,000 140 563 -64
2017-11-11 09:25:51 GMT 55.42236 -5.47870 41,000 140 563 -64
2017-11-11 09:25:48 GMT 55.42863 -5.48767 41,000 140 563 -64
2017-11-11 09:25:46 GMT 55.43408 -5.49551 40,975 140 563 -64
2017-11-11 09:25:44 GMT 55.43811 -5.50124 41,000 140 563 -64
2017-11-11 09:25:44 GMT 55.43811 -5.50124 41,000 140 563 -64
2017-11-11 09:25:42 GMT 55.44415 -5.50998 40,975 140 563 -64
2017-11-11 09:25:40 GMT 55.44617 -5.51281 40,975 140 563 -64
2017-11-11 09:25:38 GMT 55.44937 -5.51747 41,000 140 563 -64
2017-11-11 09:25:36 GMT 55.45521 -5.52587 41,000 140 563 -64
2017-11-11 09:25:33 GMT 55.46005 -5.53282 41,000 140 563 -64
2017-11-11 09:25:30 GMT 55.46590 -5.54119 41,000 140 563 -64
2017-11-11 09:25:28 GMT 55.47174 -5.54955 41,000 140 562 -64
2017-11-11 09:25:26 GMT 55.47253 -5.55076 41,000 140 563 -64
2017-11-11 09:25:24 GMT 55.48100 -5.56286 41,000 140 563 0
2017-11-11 09:25:22 GMT 55.48179 -5.56406 41,000 140 562 -64
2017-11-11 09:25:20 GMT 55.48480 -5.56840 41,000 140 563 0
2017-11-11 09:25:18 GMT 55.49002 -5.57589 41,000 140 563 0
2017-11-11 09:25:15 GMT 55.49590 -5.58432 41,000 140 563 0
2017-11-11 09:25:13 GMT 55.50070 -5.59127 41,000 140 563 0
2017-11-11 09:25:10 GMT 55.50596 -5.59882 41,000 140 563 0
2017-11-11 09:25:08 GMT 55.50975 -5.60436 41,000 140 563 0
2017-11-11 09:25:06 GMT 55.51419 -5.61068 40,975 140 563 64
2017-11-11 09:25:03 GMT 55.52023 -5.61942 40,975 140 563 0
2017-11-11 09:25:01 GMT 55.52323 -5.62380 41,000 140 563 0
2017-11-11 09:24:59 GMT 55.52747 -5.62991 40,975 140 563 0
2017-11-11 09:24:56 GMT 55.53449 -5.64002 41,000 140 563 0
2017-11-11 09:24:54 GMT 55.53831 -5.64556 41,000 140 563 0
2017-11-11 09:24:52 GMT 55.54234 -5.65138 41,000 140 563 -64
2017-11-11 09:24:50 GMT 55.54739 -5.65865 41,000 140 563 -64
2017-11-11 09:24:48 GMT 55.55018 -5.66277 41,000 140 563 -64
2017-11-11 09:24:45 GMT 55.55727 -5.67294 41,000 140 564 -64
2017-11-11 09:24:43 GMT 55.55928 -5.67585 41,000 140 564 -64
2017-11-11 09:24:41 GMT 55.56307 -5.68139 41,000 140 564 0
2017-11-11 09:24:38 GMT 55.56913 -5.69006 41,000 140 564 0
2017-11-11 09:24:36 GMT 55.57555 -5.69942 41,000 140 564 64
2017-11-11 09:24:34 GMT 55.57960 -5.70525 40,975 140 564 64
2017-11-11 09:24:32 GMT 55.58340 -5.71081 40,975 140 564 0
2017-11-11 09:24:29 GMT 55.59105 -5.72188 41,000 140 564 0
2017-11-11 09:24:27 GMT 55.59287 -5.72448 41,000 140 564 0
2017-11-11 09:24:25 GMT 55.59668 -5.73004 41,000 140 564 0
2017-11-11 09:24:23 GMT 55.60071 -5.73586 41,000 140 564 0
2017-11-11 09:24:21 GMT 55.60413 -5.74079 41,000 140 564 0
2017-11-11 09:24:16 GMT 55.61440 -5.75567 41,000 140 564 64
2017-11-11 09:24:13 GMT 55.62066 -5.76473 41,000 140 564 64
2017-11-11 09:24:11 GMT 55.62447 -5.77032 40,975 140 564 64
2017-11-11 09:24:08 GMT 55.63211 -5.78139 40,975 140 564 64
2017-11-11 09:24:06 GMT 55.63692 -5.78838 40,975 140 564 64
2017-11-11 09:24:04 GMT 55.63793 -5.78988 40,975 140 564 64
2017-11-11 09:24:02 GMT 55.64177 -5.79537 40,975 140 564 64
2017-11-11 09:24:02 GMT 55.64177 -5.79537 40,975 140 564 64
2017-11-11 09:24:00 GMT 55.64699 -5.80303 40,975 140 564 64
2017-11-11 09:23:56 GMT 55.65463 -5.81410 40,975 140 564 64
2017-11-11 09:23:54 GMT 55.66046 -5.82258 40,975 140 564 0
2017-11-11 09:23:52 GMT 55.66306 -5.82633 40,975 140 564 0
2017-11-11 09:23:50 GMT 55.66609 -5.83074 40,975 140 564 0
2017-11-11 09:23:46 GMT 55.67473 -5.84331 41,000 140 563 0
2017-11-11 09:23:43 GMT 55.68155 -5.85322 41,000 140 563 64
2017-11-11 09:23:40 GMT 55.68636 -5.86021 40,975 140 563 64
2017-11-11 09:23:36 GMT 55.69500 -5.87279 40,975 140 563 0
2017-11-11 09:23:34 GMT 55.70000 -5.88010 41,000 140 562 0
2017-11-11 09:23:32 GMT 55.70398 -5.88593 41,000 140 562 0
2017-11-11 09:23:29 GMT 55.70842 -5.89233 40,975 140 562 0
2017-11-11 09:23:26 GMT 55.71702 -5.90489 40,975 140 562 0
2017-11-11 09:23:22 GMT 55.72582 -5.91777 40,975 140 562 -64
2017-11-11 09:23:19 GMT 55.72879 -5.92221 41,000 140 562 -64
2017-11-11 09:23:19 GMT 55.72782 -5.92069 40,975 140 562 -64
2017-11-11 09:23:15 GMT 55.73602 -5.93270 41,000 140 562 -64
2017-11-11 09:23:13 GMT 55.74142 -5.94060 41,000 140 562 -64
2017-11-11 09:23:11 GMT 55.74440 -5.94494 40,975 140 562 -64
2017-11-11 09:23:10 GMT 55.74821 -5.95056 41,000 140 562 -64
2017-11-11 09:23:09 GMT 55.74821 -5.95056 41,000 140 562 -64
2017-11-11 09:23:06 GMT 55.75639 -5.96250 41,000 140 561 0
2017-11-11 09:23:03 GMT 55.76280 -5.97190 41,000 140 561 0
2017-11-11 09:23:01 GMT 55.76482 -5.97482 41,000 140 561 0
2017-11-11 09:22:59 GMT 55.76902 -5.98103 41,000 140 562 0
2017-11-11 09:22:59 GMT 55.76999 -5.98247 41,000 140 562 0
2017-11-11 09:22:55 GMT 55.77640 -5.99188 41,000 140 562 0
2017-11-11 09:22:52 GMT 55.78336 -6.00214 40,975 140 562 0
2017-11-11 09:22:49 GMT 55.78958 -6.01119 40,975 140 562 0
2017-11-11 09:22:48 GMT 55.79036 -6.01235 40,975 140 562 -64
2017-11-11 09:22:45 GMT 55.79737 -6.02265 40,975 140 561 0
2017-11-11 09:22:43 GMT 55.80212 -6.02969 40,975 140 561 0
2017-11-11 09:22:41 GMT 55.80556 -6.03466 41,000 140 561 0
2017-11-11 09:22:39 GMT 55.81134 -6.04317 41,000 140 561 0
2017-11-11 09:22:38 GMT 55.81032 -6.04173 41,000 140 561 0
2017-11-11 09:22:35 GMT 55.81750 -6.05230 41,000 140 561 0
2017-11-11 09:22:31 GMT 55.82748 -6.06695 41,000 140 560 -64
2017-11-11 09:22:27 GMT 55.83266 -6.07452 41,000 140 560 -64
2017-11-11 09:22:27 GMT 55.83147 -6.07278 41,000 140 560 -64
2017-11-11 09:22:24 GMT 55.83943 -6.08451 40,975 140 560 -64
2017-11-11 09:22:22 GMT 55.84538 -6.09325 41,000 140 559 -64
2017-11-11 09:22:20 GMT 55.84718 -6.09595 41,000 140 559 -64
2017-11-11 09:22:17 GMT 55.85314 -6.10471 41,000 140 559 -64
2017-11-11 09:22:15 GMT 55.85811 -6.11206 41,000 140 560 -64
2017-11-11 09:22:11 GMT 55.86488 -6.12197 41,000 140 560 -64
2017-11-11 09:22:11 GMT 55.86390 -6.12050 41,000 140 560 -64
2017-11-11 09:22:09 GMT 55.86864 -6.12754 41,000 140 560 -64
2017-11-11 09:22:07 GMT 55.87302 -6.13406 41,000 140 560 -64
2017-11-11 09:22:04 GMT 55.87898 -6.14282 41,000 140 560 64
2017-11-11 09:22:01 GMT 55.88694 -6.15458 41,000 140 560 0
2017-11-11 09:21:59 GMT 55.88914 -6.15784 41,000 140 560 0
2017-11-11 09:21:57 GMT 55.89510 -6.16658 41,000 140 560 0
2017-11-11 09:21:54 GMT 55.89908 -6.17248 41,000 140 560 0
2017-11-11 09:21:51 GMT 55.90503 -6.18131 40,975 140 560 0
2017-11-11 09:21:49 GMT 55.90704 -6.18422 41,000 140 560 0
2017-11-11 09:21:45 GMT 55.91698 -6.19895 40,975 140 560 0
2017-11-11 09:21:43 GMT 55.91895 -6.20186 41,000 140 560 0
2017-11-11 09:21:41 GMT 55.92474 -6.21045 41,000 140 560 0
2017-11-11 09:21:39 GMT 55.92773 -6.21485 41,000 140 560 -64
2017-11-11 09:21:35 GMT 55.93529 -6.22609 40,975 140 560 -64
2017-11-11 09:21:33 GMT 55.93945 -6.23225 41,000 140 561 0
2017-11-11 09:21:31 GMT 55.94462 -6.23998 41,000 140 561 0
2017-11-11 09:21:29 GMT 55.94838 -6.24556 41,000 140 561 -64
2017-11-11 09:21:26 GMT 55.95474 -6.25505 41,000 140 561 0
2017-11-11 09:21:24 GMT 55.95891 -6.26126 41,000 140 561 0
2017-11-11 09:21:20 GMT 55.96550 -6.27103 41,000 140 561 0
2017-11-11 09:21:18 GMT 55.97026 -6.27810 40,975 140 561 0
2017-11-11 09:21:16 GMT 55.97441 -6.28435 41,000 140 561 0
2017-11-11 09:21:13 GMT 55.97978 -6.29234 40,975 140 561 0
2017-11-11 09:21:10 GMT 55.98516 -6.30032 41,000 140 561 0
2017-11-11 09:21:07 GMT 55.99070 -6.30864 41,000 140 561 0
2017-11-11 09:21:05 GMT 55.99608 -6.31664 41,000 140 561 0
2017-11-11 09:21:03 GMT 56.00047 -6.32313 41,000 140 561 0
2017-11-11 09:21:00 GMT 56.00541 -6.33053 41,000 140 561 0
2017-11-11 09:20:59 GMT 56.00642 -6.33204 41,000 140 561 0
2017-11-11 09:20:57 GMT 56.01237 -6.34094 41,000 140 562 0
2017-11-11 09:20:55 GMT 56.01538 -6.34538 41,000 140 561 0
2017-11-11 09:20:53 GMT 56.02034 -6.35276 40,975 140 561 0
2017-11-11 09:20:50 GMT 56.02551 -6.36050 41,000 140 562 0
2017-11-11 09:20:46 GMT 56.03224 -6.37057 40,975 140 562 0
2017-11-11 09:20:44 GMT 56.03664 -6.37715 41,000 139 561 0
2017-11-11 09:20:42 GMT 56.04042 -6.38280 40,975 139 561 0
2017-11-11 09:20:40 GMT 56.04538 -6.39021 40,975 139 561 0
2017-11-11 09:20:38 GMT 56.04854 -6.39496 41,000 139 561 0
2017-11-11 09:20:35 GMT 56.05746 -6.40838 41,000 139 561 0
2017-11-11 09:20:32 GMT 56.06044 -6.41277 40,975 139 561 0
2017-11-11 09:20:29 GMT 56.06621 -6.42142 41,000 139 561 64
2017-11-11 09:20:24 GMT 56.07751 -6.43840 40,975 139 561 64
2017-11-11 09:20:22 GMT 56.08067 -6.44315 40,975 139 561 64
2017-11-11 09:20:19 GMT 56.08662 -6.45205 40,975 139 561 64
2017-11-11 09:20:19 GMT 56.08662 -6.45205 40,975 139 561 64
2017-11-11 09:20:14 GMT 56.09615 -6.46637 40,975 139 561 0
2017-11-11 09:20:12 GMT 56.10091 -6.47353 40,975 140 562 0
2017-11-11 09:20:10 GMT 56.10708 -6.48271 40,975 140 562 0
2017-11-11 09:20:04 GMT 56.11584 -6.49584 40,975 139 561 -64
2017-11-11 09:20:02 GMT 56.12118 -6.50382 40,975 139 561 -64
2017-11-11 09:19:59 GMT 56.12612 -6.51129 40,975 139 561 -64
2017-11-11 09:19:58 GMT 56.12929 -6.51609 40,975 139 561 -64
2017-11-11 09:19:55 GMT 56.13387 -6.52297 40,975 139 561 -64
2017-11-11 09:19:53 GMT 56.13904 -6.53071 41,000 139 561 -64
2017-11-11 09:19:51 GMT 56.14178 -6.53487 40,975 139 561 -64
2017-11-11 09:19:49 GMT 56.14655 -6.54202 41,000 139 561 -64
2017-11-11 09:19:47 GMT 56.15048 -6.54802 41,000 139 561 -64
2017-11-11 09:19:43 GMT 56.15741 -6.55849 41,000 139 560 0
2017-11-11 09:19:41 GMT 56.16137 -6.56442 40,975 139 560 -64
2017-11-11 09:19:39 GMT 56.16632 -6.57191 41,000 139 560 -64
2017-11-11 09:19:37 GMT 56.16928 -6.57635 40,975 139 560 -64
2017-11-11 09:19:32 GMT 56.18138 -6.59454 41,000 139 560 -64
2017-11-11 09:19:28 GMT 56.18729 -6.60353 40,975 139 559 -64
2017-11-11 09:19:23 GMT 56.19777 -6.61935 41,000 139 559 -64
2017-11-11 09:19:21 GMT 56.20189 -6.62559 41,000 139 559 -64
2017-11-11 09:19:18 GMT 56.20764 -6.63420 41,000 139 559 -64
2017-11-11 09:19:13 GMT 56.21788 -6.64973 41,000 139 559 -64
2017-11-11 09:19:11 GMT 56.22244 -6.65655 41,000 139 559 -64
2017-11-11 09:19:09 GMT 56.22835 -6.66554 41,000 139 559 0
2017-11-11 09:19:07 GMT 56.22835 -6.66554 41,000 139 559 0
2017-11-11 09:19:01 GMT 56.24135 -6.68526 41,000 139 559 0
2017-11-11 09:18:59 GMT 56.24570 -6.69184 41,000 139 559 0
2017-11-11 09:18:57 GMT 56.24865 -6.69625 41,000 139 558 0
2017-11-11 09:18:55 GMT 56.25256 -6.70226 41,000 139 558 0
2017-11-11 09:18:50 GMT 56.26206 -6.71659 41,000 139 559 -64
2017-11-11 09:18:48 GMT 56.26876 -6.72672 40,975 139 559 0
2017-11-11 09:18:45 GMT 56.27367 -6.73420 41,000 139 559 0
2017-11-11 09:18:41 GMT 56.28314 -6.74860 41,000 139 559 0
2017-11-11 09:18:39 GMT 56.28608 -6.75307 40,975 139 559 0
2017-11-11 09:18:37 GMT 56.28827 -6.75643 41,000 139 559 64
2017-11-11 09:18:35 GMT 56.29357 -6.76449 40,975 139 559 0
2017-11-11 09:18:32 GMT 56.29926 -6.77324 41,000 139 559 0
2017-11-11 09:18:30 GMT 56.30241 -6.77798 40,975 139 559 64
2017-11-11 09:18:28 GMT 56.30676 -6.78456 40,975 139 559 0
2017-11-11 09:18:26 GMT 56.31267 -6.79363 40,975 139 559 0
2017-11-11 09:18:20 GMT 56.32288 -6.80919 41,000 139 559 0
2017-11-11 09:18:20 GMT 56.32210 -6.80795 40,975 139 559 0
2017-11-11 09:18:16 GMT 56.32900 -6.81848 40,975 139 559 0
2017-11-11 09:18:14 GMT 56.33491 -6.82749 41,000 139 559 0
2017-11-11 09:18:10 GMT 56.34199 -6.83830 41,000 139 559 0
2017-11-11 09:18:08 GMT 56.34572 -6.84398 41,000 139 559 0
2017-11-11 09:18:05 GMT 56.35204 -6.85355 41,000 139 559 0
2017-11-11 09:18:00 GMT 56.36484 -6.87306 41,000 139 559 0
2017-11-11 09:17:57 GMT 56.36759 -6.87727 41,000 139 559 0
2017-11-11 09:17:55 GMT 56.37150 -6.88328 41,000 139 559 0
2017-11-11 09:17:53 GMT 56.37509 -6.88868 40,975 139 559 -64
2017-11-11 09:17:49 GMT 56.38374 -6.90199 41,000 139 559 0
2017-11-11 09:17:46 GMT 56.38985 -6.91132 40,975 139 559 0
2017-11-11 09:17:44 GMT 56.39259 -6.91548 41,000 139 560 64
2017-11-11 09:17:39 GMT 56.40227 -6.93031 41,000 139 561 0
2017-11-11 09:17:37 GMT 56.40623 -6.93632 41,000 139 561 0
2017-11-11 09:17:35 GMT 56.41372 -6.94782 40,975 139 561 0
2017-11-11 09:17:30 GMT 56.42317 -6.96233 41,000 139 561 0
2017-11-11 09:17:27 GMT 56.42713 -6.96834 41,000 139 561 0
2017-11-11 09:17:24 GMT 56.43247 -6.97649 41,000 139 561 0
2017-11-11 09:17:19 GMT 56.44313 -6.99288 41,000 139 561 -64
2017-11-11 09:17:17 GMT 56.44707 -6.99896 41,000 139 561 0
2017-11-11 09:17:15 GMT 56.44981 -7.00320 40,975 139 561 64
2017-11-11 09:17:13 GMT 56.45474 -7.01074 41,000 139 561 0
2017-11-11 09:17:11 GMT 56.45851 -7.01652 41,000 139 561 0
2017-11-11 09:17:09 GMT 56.46281 -7.02318 40,975 139 562 0
2017-11-11 09:17:07 GMT 56.46735 -7.03022 40,975 139 562 64
2017-11-11 09:17:03 GMT 56.47368 -7.03992 41,000 139 562 0
2017-11-11 09:17:00 GMT 56.47880 -7.04782 41,000 139 562 64
2017-11-11 09:16:58 GMT 56.48337 -7.05480 41,000 139 562 64
2017-11-11 09:16:56 GMT 56.48709 -7.06060 41,000 139 562 0
2017-11-11 09:16:54 GMT 56.49300 -7.06970 40,975 139 563 64
2017-11-11 09:16:50 GMT 56.49875 -7.07861 40,975 139 562 0
2017-11-11 09:16:48 GMT 56.50269 -7.08468 41,000 139 562 0
2017-11-11 09:16:46 GMT 56.50762 -7.09228 41,000 139 562 0
2017-11-11 09:16:43 GMT 56.51274 -7.10017 41,000 139 562 0
2017-11-11 09:16:37 GMT 56.52640 -7.12122 41,000 139 563 0
2017-11-11 09:16:35 GMT 56.52857 -7.12463 40,975 139 563 0
2017-11-11 09:16:33 GMT 56.53349 -7.13221 41,000 139 563 64
2017-11-11 09:16:25 GMT 56.54851 -7.15551 41,000 139 563 64
2017-11-11 09:16:22 GMT 56.55441 -7.16467 40,975 139 563 64
2017-11-11 09:16:15 GMT 56.56804 -7.18583 40,975 139 564 0
2017-11-11 09:16:13 GMT 56.57396 -7.19501 40,975 139 563 0
2017-11-11 09:16:05 GMT 56.58857 -7.21776 40,975 139 564 0
2017-11-11 09:16:03 GMT 56.59470 -7.22729 41,000 139 564 0
2017-11-11 09:15:55 GMT 56.60857 -7.24883 40,975 139 565 0
2017-11-11 09:15:52 GMT 56.61506 -7.25895 41,000 139 565 0
2017-11-11 09:15:45 GMT 56.62834 -7.27956 41,000 139 564 -64
2017-11-11 09:15:41 GMT 56.63564 -7.29094 41,000 139 564 -64
2017-11-11 09:15:35 GMT 56.64812 -7.31029 40,975 139 565 -64
2017-11-11 09:15:33 GMT 56.65324 -7.31827 41,000 139 564 0
2017-11-11 09:15:30 GMT 56.65801 -7.32565 41,000 139 564 0
2017-11-11 09:15:25 GMT 56.66862 -7.34239 41,000 139 564 0
2017-11-11 09:15:23 GMT 56.67059 -7.34548 41,000 139 564 -64
2017-11-11 09:15:21 GMT 56.67474 -7.35189 41,000 139 564 0
2017-11-11 09:15:14 GMT 56.68894 -7.37422 41,000 139 565 -64
2017-11-11 09:15:12 GMT 56.69602 -7.38529 41,000 139 565 -64
2017-11-11 09:15:04 GMT 56.70826 -7.40443 41,000 139 565 -64
2017-11-11 09:15:04 GMT 56.71042 -7.40787 40,975 139 564 0
2017-11-11 09:15:00 GMT 56.71655 -7.41746 41,000 139 564 0
2017-11-11 09:14:54 GMT 56.72937 -7.43757 41,000 139 564 64
2017-11-11 09:14:51 GMT 56.73367 -7.44435 41,000 139 564 0
2017-11-11 09:14:48 GMT 56.73940 -7.45334 41,000 139 564 0
2017-11-11 09:14:46 GMT 56.74471 -7.46169 41,000 139 564 0
2017-11-11 09:14:44 GMT 56.74828 -7.46727 40,975 139 564 64
2017-11-11 09:14:40 GMT 56.75656 -7.48032 40,975 139 565 64
2017-11-11 09:14:38 GMT 56.76050 -7.48650 41,000 139 565 0
2017-11-11 09:14:36 GMT 56.76422 -7.49241 40,975 139 565 0
2017-11-11 09:14:34 GMT 56.76682 -7.49645 40,975 139 565 0
2017-11-11 09:14:32 GMT 56.77171 -7.50419 40,975 139 565 64
2017-11-11 09:14:30 GMT 56.77469 -7.50890 40,975 139 565 0
2017-11-11 09:14:24 GMT 56.78810 -7.53001 41,000 139 565 -64
2017-11-11 09:14:20 GMT 56.79499 -7.54087 41,000 139 565 -64
2017-11-11 09:14:16 GMT 56.80307 -7.55370 41,000 139 565 -64
2017-11-11 09:14:13 GMT 56.80881 -7.56267 41,000 139 565 -64
2017-11-11 09:14:11 GMT 56.81473 -7.57206 41,000 139 565 -64
2017-11-11 09:14:09 GMT 56.81668 -7.57516 41,000 139 565 -64
2017-11-11 09:14:04 GMT 56.82793 -7.59293 41,000 139 565 0
2017-11-11 09:14:00 GMT 56.83479 -7.60387 41,000 139 566 0
2017-11-11 09:13:54 GMT 56.84782 -7.62442 40,975 139 566 0
2017-11-11 09:13:52 GMT 56.85077 -7.62906 40,975 139 565 64
2017-11-11 09:13:49 GMT 56.85769 -7.64002 41,000 139 565 0
2017-11-11 09:13:44 GMT 56.86719 -7.65499 40,975 138 566 -64
2017-11-11 09:13:42 GMT 56.87110 -7.66119 40,975 138 566 0
2017-11-11 09:13:39 GMT 56.87563 -7.66846 40,975 138 566 0
2017-11-11 09:13:34 GMT 56.88716 -7.68715 41,000 137 567 -64
2017-11-11 09:13:32 GMT 56.88931 -7.69069 41,000 137 567 0
2017-11-11 09:13:30 GMT 56.89513 -7.70030 41,000 137 567 -64
2017-11-11 09:13:25 GMT 56.90685 -7.72011 41,000 137 568 0
2017-11-11 09:13:23 GMT 56.90802 -7.72206 41,000 136 568 0
2017-11-11 09:13:21 GMT 56.91374 -7.73189 40,975 136 568 0
2017-11-11 09:13:19 GMT 56.91565 -7.73526 40,975 136 568 0
2017-11-11 09:13:13 GMT 56.92722 -7.75549 40,975 135 568 0
2017-11-11 09:13:09 GMT 56.93436 -7.76819 40,975 135 569 0
2017-11-11 09:13:03 GMT 56.94535 -7.78815 41,000 134 569 0
2017-11-11 09:13:01 GMT 56.95033 -7.79729 40,975 134 569 0
2017-11-11 09:12:58 GMT 56.95399 -7.80415 40,975 134 569 0
2017-11-11 09:12:53 GMT 56.96388 -7.82278 40,975 133 570 -64
2017-11-11 09:12:51 GMT 56.96919 -7.83281 40,975 133 570 -64
2017-11-11 09:12:49 GMT 56.97244 -7.83910 41,000 133 570 -64
2017-11-11 09:12:42 GMT 56.98394 -7.86160 41,000 132 570 0
2017-11-11 09:12:38 GMT 56.99106 -7.87578 41,000 132 569 -64
2017-11-11 09:12:32 GMT 57.00145 -7.89625 41,000 132 569 0
2017-11-11 09:12:28 GMT 57.00838 -7.90998 41,000 132 570 0
2017-11-11 09:12:21 GMT 57.02014 -7.93333 40,975 132 569 0
2017-11-11 09:12:17 GMT 57.02784 -7.94861 41,000 132 569 0
2017-11-11 09:12:11 GMT 57.03818 -7.96908 41,000 132 569 0
2017-11-11 09:12:07 GMT 57.04761 -7.98792 41,000 132 569 0
2017-11-11 09:12:01 GMT 57.05596 -8.00451 41,000 132 569 0
2017-11-11 09:11:57 GMT 57.06395 -8.02054 41,000 132 569 0
2017-11-11 09:11:51 GMT 57.07425 -8.04105 40,975 132 569 64
2017-11-11 09:11:44 GMT 57.08650 -8.06556 40,975 132 569 64
2017-11-11 09:11:41 GMT 57.09218 -8.07690 40,975 132 569 64
2017-11-11 09:11:32 GMT 57.11028 -8.11314 40,975 132 568 0
2017-11-11 09:11:25 GMT 57.11934 -8.13126 40,975 132 568 -64
2017-11-11 09:11:21 GMT 57.12765 -8.14796 41,000 132 568 -64
2017-11-11 09:11:19 GMT 57.13081 -8.15434 40,975 132 566 -64
2017-11-11 09:11:10 GMT 57.14653 -8.18593 40,975 132 566 -64
2017-11-11 09:11:05 GMT 57.15500 -8.20293 41,000 132 566 0
2017-11-11 09:11:01 GMT 57.16315 -8.21923 41,000 132 566 -64
2017-11-11 09:10:50 GMT 57.18146 -8.25623 41,000 132 566 0
2017-11-11 09:10:39 GMT 57.20078 -8.29528 41,000 132 566 0
2017-11-11 09:10:30 GMT 57.21717 -8.32835 41,000 132 566 -64
2017-11-11 09:10:20 GMT 57.23492 -8.36429 40,975 132 566 0
2017-11-11 09:10:10 GMT 57.25282 -8.40068 41,000 132 567 0
2017-11-11 09:10:00 GMT 57.27004 -8.43570 41,000 132 567 0
2017-11-11 09:09:50 GMT 57.28816 -8.47259 40,975 132 567 64
2017-11-11 09:09:39 GMT 57.30624 -8.50943 40,975 132 567 0
2017-11-11 09:09:30 GMT 57.32396 -8.54568 41,000 132 567 -64
2017-11-11 09:09:19 GMT 57.34241 -8.58333 41,000 132 567 -64
2017-11-11 09:09:06 GMT 57.36502 -8.62958 41,000 132 567 -64
2017-11-11 09:08:58 GMT 57.37866 -8.65758 41,000 132 567 64
2017-11-11 09:08:48 GMT 57.39601 -8.69327 40,975 131 567 64
2017-11-11 09:08:38 GMT 57.41313 -8.72855 41,000 132 567 -64
2017-11-11 09:08:28 GMT 57.43098 -8.76529 41,000 132 567 -64
2017-11-11 09:08:16 GMT 57.45200 -8.80855 41,000 132 567 0
We lost coverage of the aircraft here for a total of 53 minutes
2017-11-11 08:14:54 GMT 60.47195 -23.76257 40,975 102 556 0
2017-11-11 08:11:10 GMT 60.59104 -24.89688 40,975 101 548 0
2017-11-11 08:11:02 GMT 60.59491 -24.93565 40,975 101 547 0
2017-11-11 08:10:52 GMT 60.60004 -24.98689 41,000 101 547 0
2017-11-11 08:10:41 GMT 60.60553 -25.04220 41,000 101 546 -64
2017-11-11 08:10:31 GMT 60.61043 -25.09145 40,975 101 546 0
2017-11-11 08:10:17 GMT 60.61711 -25.15928 40,975 101 545 0
2017-11-11 08:10:08 GMT 60.62177 -25.20646 41,000 101 545 0
2017-11-11 08:10:00 GMT 60.62577 -25.24756 40,975 101 545 0
2017-11-11 08:09:48 GMT 60.63164 -25.30789 40,975 101 545 0
2017-11-11 08:09:38 GMT 60.63648 -25.35802 40,975 101 545 0
2017-11-11 08:09:28 GMT 60.64132 -25.40824 40,975 101 545 -64
We lost coverage of the aircraft here for a total of 274 minutes
2017-11-11 03:35:28 GMT 55.02498 -104.23198 38,975 56 497 -64
2017-11-11 03:34:58 GMT 54.98859 -104.32763 39,000 56 497 -64
2017-11-11 03:34:31 GMT 54.95520 -104.41514 39,000 56 498 -64
2017-11-11 03:34:29 GMT 54.95201 -104.42343 39,000 56 498 -64
2017-11-11 03:34:19 GMT 54.93816 -104.45959 38,975 56 497 0
2017-11-11 03:34:05 GMT 54.92024 -104.50640 39,000 56 497 -64
2017-11-11 03:33:58 GMT 54.91097 -104.53050 39,000 56 496 -64
2017-11-11 03:33:47 GMT 54.89677 -104.56745 38,975 56 495 -64
2017-11-11 03:33:35 GMT 54.88367 -104.60148 39,000 56 495 0
2017-11-11 03:33:25 GMT 54.87094 -104.63435 38,975 56 495 -64
2017-11-11 03:33:15 GMT 54.85799 -104.66796 38,975 56 495 -64
2017-11-11 03:32:59 GMT 54.83762 -104.72071 39,000 56 495 -64
2017-11-11 03:32:53 GMT 54.82796 -104.74567 38,975 56 496 -64
2017-11-11 03:32:42 GMT 54.81541 -104.77790 39,000 56 496 0
2017-11-11 03:32:20 GMT 54.78754 -104.84956 39,000 55 497 0
2017-11-11 03:32:06 GMT 54.76886 -104.89754 38,975 55 497 -64
2017-11-11 03:31:58 GMT 54.76012 -104.91992 39,000 55 497 -64
2017-11-11 03:31:50 GMT 54.74971 -104.94648 39,000 55 497 -64
2017-11-11 03:31:40 GMT 54.73471 -104.98495 38,975 55 497 -64
2017-11-11 03:31:28 GMT 54.72146 -105.01873 39,000 55 496 0
2017-11-11 03:31:15 GMT 54.70367 -105.06400 38,975 55 497 -64
2017-11-11 03:30:49 GMT 54.66708 -105.15697 38,975 55 496 -64
2017-11-11 03:30:44 GMT 54.66284 -105.16776 39,000 55 497 -64
2017-11-11 03:30:35 GMT 54.65005 -105.20017 38,975 55 497 -64
2017-11-11 03:30:25 GMT 54.63702 -105.23311 38,975 55 497 -64
2017-11-11 03:30:13 GMT 54.62228 -105.27035 39,000 55 497 0
2017-11-11 03:30:01 GMT 54.60887 -105.30428 38,975 55 497 -64
2017-11-11 03:29:52 GMT 54.59586 -105.33725 38,975 55 496 -64
2017-11-11 03:29:41 GMT 54.58189 -105.37237 38,975 55 495 -64
2017-11-11 03:29:32 GMT 54.57042 -105.40130 39,000 55 494 -64
2017-11-11 03:29:20 GMT 54.55610 -105.43712 39,000 55 494 -64
2017-11-11 03:29:11 GMT 54.54332 -105.46907 38,975 55 494 -64
2017-11-11 03:28:55 GMT 54.52203 -105.52235 38,975 55 494 -64
2017-11-11 03:28:44 GMT 54.50949 -105.55365 39,000 55 494 -64
2017-11-11 03:28:36 GMT 54.49942 -105.57886 39,000 55 494 -64
2017-11-11 03:28:29 GMT 54.49000 -105.60242 38,975 55 494 0
2017-11-11 03:28:18 GMT 54.47603 -105.63712 38,975 55 493 0
2017-11-11 03:28:08 GMT 54.46298 -105.66965 39,000 55 493 -64
2017-11-11 03:27:56 GMT 54.44852 -105.70560 39,000 55 492 -64
2017-11-11 03:27:46 GMT 54.43456 -105.74026 39,000 55 492 -64
2017-11-11 03:27:33 GMT 54.41812 -105.78095 38,975 55 492 -64
2017-11-11 03:27:23 GMT 54.40467 -105.81432 39,000 55 492 -64
2017-11-11 03:27:15 GMT 54.39418 -105.84019 39,000 55 492 -64
2017-11-11 03:27:04 GMT 54.37944 -105.87670 39,000 55 492 0
2017-11-11 03:26:52 GMT 54.36556 -105.91087 38,975 55 492 0
2017-11-11 03:26:42 GMT 54.35179 -105.94466 38,975 55 492 0
2017-11-11 03:26:31 GMT 54.33810 -105.97808 38,975 55 492 -64
2017-11-11 03:26:13 GMT 54.31352 -106.03837 39,000 54 493 -64
2017-11-11 03:26:09 GMT 54.30895 -106.04957 39,000 54 493 -64
2017-11-11 03:26:01 GMT 54.29732 -106.07791 39,000 54 493 -64
2017-11-11 03:25:49 GMT 54.28163 -106.11619 38,975 54 493 0
2017-11-11 03:25:40 GMT 54.26804 -106.14934 38,975 54 494 0
2017-11-11 03:25:28 GMT 54.25333 -106.18504 39,000 54 494 -64
2017-11-11 03:25:17 GMT 54.23945 -106.21881 39,000 54 494 -64
2017-11-11 03:25:07 GMT 54.22735 -106.24813 39,000 54 494 -64
2017-11-11 03:24:57 GMT 54.21304 -106.28276 38,975 54 494 -64
2017-11-11 03:24:47 GMT 54.20119 -106.31140 39,000 54 493 -64
2017-11-11 03:24:36 GMT 54.18704 -106.34569 39,000 54 493 -64
2017-11-11 03:24:26 GMT 54.17290 -106.37991 39,000 54 493 0
2017-11-11 03:24:14 GMT 54.15793 -106.41601 39,000 54 493 -64
2017-11-11 03:24:04 GMT 54.14211 -106.45437 38,975 54 493 0
2017-11-11 03:23:54 GMT 54.13046 -106.48247 38,975 54 493 -64
2017-11-11 03:23:42 GMT 54.11632 -106.51669 39,000 54 492 -64
2017-11-11 03:23:32 GMT 54.10250 -106.54977 39,000 54 493 -64
2017-11-11 03:23:21 GMT 54.08825 -106.58386 39,000 54 493 -64
2017-11-11 03:23:10 GMT 54.07526 -106.61502 38,975 54 492 -64
2017-11-11 03:23:01 GMT 54.06111 -106.64881 38,975 54 493 0
2017-11-11 03:22:49 GMT 54.04596 -106.68502 39,000 54 493 -64
2017-11-11 03:22:40 GMT 54.03273 -106.71648 39,000 54 493 -64
2017-11-11 03:22:28 GMT 54.01817 -106.75109 38,975 54 493 -64
2017-11-11 03:22:17 GMT 54.00467 -106.78319 39,000 54 493 -64
2017-11-11 03:22:07 GMT 53.98970 -106.81870 39,000 54 493 -64
2017-11-11 03:21:57 GMT 53.97909 -106.84382 38,975 54 494 0
2017-11-11 03:21:47 GMT 53.96462 -106.87814 39,000 54 494 -64
2017-11-11 03:21:36 GMT 53.94962 -106.91369 39,000 54 494 -64
2017-11-11 03:21:26 GMT 53.93631 -106.94512 39,000 54 495 -64
2017-11-11 03:21:15 GMT 53.92072 -106.98188 38,975 54 495 0
2017-11-11 03:21:04 GMT 53.90777 -107.01241 38,975 54 495 -64
2017-11-11 03:20:51 GMT 53.88547 -107.06491 39,000 54 495 -64
2017-11-11 03:20:44 GMT 53.87626 -107.08657 38,975 54 495 -64
2017-11-11 03:20:30 GMT 53.86006 -107.12447 38,975 54 494 -64
2017-11-11 03:20:21 GMT 53.84752 -107.15390 38,975 54 494 -64
2017-11-11 03:20:09 GMT 53.83138 -107.19175 38,975 54 494 -64
2017-11-11 03:20:00 GMT 53.82281 -107.21178 39,000 54 494 -64
2017-11-11 03:19:51 GMT 53.80879 -107.24453 39,000 54 494 -64
2017-11-11 03:19:39 GMT 53.79479 -107.27729 38,975 54 494 -64
2017-11-11 03:19:30 GMT 53.78092 -107.30969 38,975 54 494 -64
2017-11-11 03:19:18 GMT 53.76620 -107.34394 39,000 53 493 -64
2017-11-11 03:19:09 GMT 53.75201 -107.37682 38,975 53 492 -64
2017-11-11 03:18:58 GMT 53.73853 -107.40807 39,000 53 492 -64
2017-11-11 03:18:47 GMT 53.72461 -107.44025 39,000 53 491 -64
2017-11-11 03:18:37 GMT 53.71081 -107.47198 39,000 53 490 -64
2017-11-11 03:18:26 GMT 53.69582 -107.50647 38,975 53 491 -64
2017-11-11 03:18:15 GMT 53.68274 -107.53668 38,975 53 491 -64
2017-11-11 03:18:06 GMT 53.66752 -107.57191 39,000 53 491 0
2017-11-11 03:17:55 GMT 53.65341 -107.60462 39,000 53 491 -64
2017-11-11 03:17:43 GMT 53.63745 -107.64122 38,975 53 490 -64
2017-11-11 03:17:32 GMT 53.62408 -107.67190 39,000 53 490 0
2017-11-11 03:17:22 GMT 53.61030 -107.70350 38,975 53 490 -64
2017-11-11 03:17:12 GMT 53.59638 -107.73533 39,000 53 490 0
2017-11-11 03:17:01 GMT 53.58000 -107.77265 39,000 53 489 -64
2017-11-11 03:16:49 GMT 53.56766 -107.80076 38,975 53 489 -64
2017-11-11 03:16:40 GMT 53.55323 -107.83380 38,975 53 490 -64
2017-11-11 03:16:28 GMT 53.53908 -107.86611 39,000 53 489 0
2017-11-11 03:16:19 GMT 53.52553 -107.89688 39,000 53 489 -64
2017-11-11 03:16:07 GMT 53.51115 -107.92936 39,000 53 489 -64
2017-11-11 03:15:57 GMT 53.49683 -107.96194 38,975 53 488 -64
2017-11-11 03:15:47 GMT 53.48303 -107.99326 38,975 53 488 0
2017-11-11 03:15:37 GMT 53.46832 -108.02671 39,000 53 488 -64
2017-11-11 03:15:25 GMT 53.45531 -108.05611 38,975 53 488 -64
2017-11-11 03:15:16 GMT 53.43662 -108.09820 39,000 53 487 0
2017-11-11 03:15:04 GMT 53.42321 -108.12833 38,975 53 486 -64
2017-11-11 03:14:52 GMT 53.40841 -108.16153 39,000 53 487 -64
2017-11-11 03:14:40 GMT 53.39472 -108.19231 39,000 53 487 -64
2017-11-11 03:14:31 GMT 53.38032 -108.22459 39,000 53 488 -64
2017-11-11 03:14:20 GMT 53.36595 -108.25693 38,975 53 488 -64
2017-11-11 03:14:09 GMT 53.35126 -108.28980 39,000 53 488 -64
2017-11-11 03:13:59 GMT 53.33741 -108.32083 38,975 53 487 -64
2017-11-11 03:13:48 GMT 53.32301 -108.35313 38,975 53 487 -64
2017-11-11 03:13:38 GMT 53.30971 -108.38287 38,975 53 487 -64
2017-11-11 03:13:27 GMT 53.29610 -108.41316 39,000 53 486 -64
2017-11-11 03:13:16 GMT 53.28177 -108.44495 39,000 53 486 -64
2017-11-11 03:13:06 GMT 53.26712 -108.47755 38,975 53 486 -64
2017-11-11 03:12:55 GMT 53.25320 -108.50827 39,000 53 485 -64
2017-11-11 03:12:46 GMT 53.23975 -108.53817 39,000 53 485 0
2017-11-11 03:12:35 GMT 53.22546 -108.56980 38,975 53 485 -64
2017-11-11 03:12:24 GMT 53.21063 -108.60260 39,000 53 485 -64
2017-11-11 03:12:14 GMT 53.19580 -108.63540 39,000 53 485 0
2017-11-11 03:12:03 GMT 53.18097 -108.66820 38,975 52 486 0
2017-11-11 03:11:52 GMT 53.16647 -108.70002 39,000 52 486 -64
2017-11-11 03:11:46 GMT 53.15809 -108.71844 39,000 52 486 0
2017-11-11 03:11:41 GMT 53.15134 -108.73331 39,000 52 486 -64
2017-11-11 03:11:38 GMT 53.14920 -108.73807 39,000 52 486 -64
2017-11-11 03:11:31 GMT 53.13784 -108.76311 39,000 52 486 0
2017-11-11 03:11:20 GMT 53.12251 -108.79674 39,000 52 486 -64
2017-11-11 03:11:09 GMT 53.10791 -108.82884 39,000 52 486 0
2017-11-11 03:10:58 GMT 53.09432 -108.85864 38,975 52 487 0
2017-11-11 03:10:48 GMT 53.07962 -108.89069 39,000 52 486 0
2017-11-11 03:10:37 GMT 53.06531 -108.92183 39,000 52 487 -64
2017-11-11 03:10:27 GMT 53.04831 -108.95889 39,000 52 488 0
2017-11-11 03:10:16 GMT 53.03549 -108.98682 38,975 52 487 -64
2017-11-11 03:10:06 GMT 53.01979 -109.02094 39,000 52 488 -64
2017-11-11 03:09:55 GMT 53.00844 -109.04556 39,000 52 488 -64
2017-11-11 03:09:45 GMT 52.99393 -109.07707 38,975 52 488 -64
2017-11-11 03:09:33 GMT 52.97901 -109.10938 38,975 52 489 -64
2017-11-11 03:09:24 GMT 52.96541 -109.13879 39,000 52 489 -64
2017-11-11 03:09:13 GMT 52.95047 -109.17122 39,000 52 489 0
2017-11-11 03:09:05 GMT 52.93897 -109.19618 39,000 52 488 -64
2017-11-11 03:09:03 GMT 52.93567 -109.20324 38,975 52 488 -64
2017-11-11 03:08:56 GMT 52.92787 -109.22012 39,000 52 489 0
2017-11-11 03:08:52 GMT 52.92068 -109.23553 39,000 52 489 -64
2017-11-11 03:08:44 GMT 52.91080 -109.25682 39,000 52 489 0
2017-11-11 03:08:41 GMT 52.90434 -109.27073 38,975 52 489 0
2017-11-11 03:08:36 GMT 52.89940 -109.28140 39,000 52 489 -64
2017-11-11 03:08:33 GMT 52.89597 -109.28879 39,000 52 489 -64
2017-11-11 03:08:31 GMT 52.89157 -109.29825 39,000 52 489 -64
2017-11-11 03:08:24 GMT 52.88455 -109.31334 39,000 52 488 -64
2017-11-11 03:08:20 GMT 52.87631 -109.33107 39,000 52 488 0
2017-11-11 03:08:12 GMT 52.86818 -109.34845 39,000 52 488 -64
2017-11-11 03:08:08 GMT 52.86225 -109.36121 39,000 52 488 0
2017-11-11 03:08:04 GMT 52.85597 -109.37478 38,975 52 488 -64
2017-11-11 03:07:58 GMT 52.84768 -109.39244 39,000 52 489 0
2017-11-11 03:07:54 GMT 52.84204 -109.40453 39,000 52 489 -64
2017-11-11 03:07:47 GMT 52.83293 -109.42398 38,975 52 488 0
2017-11-11 03:07:43 GMT 52.82739 -109.43573 38,975 52 489 0
2017-11-11 03:07:36 GMT 52.81554 -109.46106 38,975 52 489 0
2017-11-11 03:07:33 GMT 52.81334 -109.46579 38,975 52 489 -64
2017-11-11 03:07:27 GMT 52.80383 -109.48614 39,000 52 489 0
2017-11-11 03:07:23 GMT 52.79929 -109.49585 38,975 52 489 -64
2017-11-11 03:07:18 GMT 52.79214 -109.51118 38,975 52 489 -64
2017-11-11 03:07:16 GMT 52.78949 -109.51674 39,000 52 489 -64
2017-11-11 03:07:10 GMT 52.78121 -109.53440 38,975 52 489 0
2017-11-11 03:07:06 GMT 52.77475 -109.54826 38,975 52 489 -64
2017-11-11 03:07:01 GMT 52.77004 -109.55826 39,000 52 489 -64
2017-11-11 03:06:54 GMT 52.75955 -109.58061 38,975 52 488 -64
2017-11-11 03:06:50 GMT 52.75411 -109.59208 39,000 52 489 -64
2017-11-11 03:06:45 GMT 52.74568 -109.60998 39,000 52 489 -64
2017-11-11 03:06:40 GMT 52.74136 -109.61907 39,000 52 489 0
2017-11-11 03:06:33 GMT 52.72944 -109.64434 39,000 52 489 -64
2017-11-11 03:06:28 GMT 52.72250 -109.65901 39,000 52 489 0
2017-11-11 03:06:25 GMT 52.71822 -109.66812 39,000 52 489 -64
2017-11-11 03:06:22 GMT 52.71547 -109.67400 39,000 52 489 -64
2017-11-11 03:06:18 GMT 52.70824 -109.68933 39,025 52 489 0
2017-11-11 03:06:12 GMT 52.70007 -109.70665 38,975 52 489 0
2017-11-11 03:06:09 GMT 52.69798 -109.71107 39,000 52 490 0
2017-11-11 03:06:05 GMT 52.69206 -109.72375 39,000 52 490 0
2017-11-11 03:06:01 GMT 52.68553 -109.73755 39,000 52 490 0
2017-11-11 03:05:58 GMT 52.68247 -109.74403 38,975 52 490 -64
2017-11-11 03:05:56 GMT 52.67830 -109.75288 39,000 52 490 0
2017-11-11 03:05:49 GMT 52.66969 -109.77104 38,975 52 490 -64
2017-11-11 03:05:44 GMT 52.66371 -109.78371 39,000 51 490 -64
2017-11-11 03:05:38 GMT 52.65310 -109.80592 38,975 51 490 0
2017-11-11 03:05:35 GMT 52.64877 -109.81499 39,000 51 490 0
2017-11-11 03:05:29 GMT 52.64029 -109.83283 39,000 51 490 0
2017-11-11 03:05:24 GMT 52.63471 -109.84460 39,000 51 490 -64
2017-11-11 03:05:17 GMT 52.62605 -109.86273 38,975 51 490 0
2017-11-11 03:05:13 GMT 52.61920 -109.87709 38,975 51 490 0
2017-11-11 03:05:08 GMT 52.61137 -109.89349 39,000 51 490 -64
2017-11-11 03:05:03 GMT 52.60510 -109.90668 38,975 51 491 -64
2017-11-11 03:05:00 GMT 52.60035 -109.91664 38,975 52 490 -64
2017-11-11 03:04:57 GMT 52.59728 -109.92308 39,000 52 490 -64
2017-11-11 03:04:51 GMT 52.58978 -109.93893 39,000 52 490 0
2017-11-11 03:04:45 GMT 52.58057 -109.95824 39,000 51 490 -64
2017-11-11 03:04:42 GMT 52.57622 -109.96727 39,000 51 490 -64
2017-11-11 03:04:40 GMT 52.57425 -109.97139 39,000 51 490 -64
2017-11-11 03:04:35 GMT 52.56600 -109.98860 39,000 51 490 0
2017-11-11 03:04:31 GMT 52.55969 -110.00176 39,000 51 490 0
2017-11-11 03:04:29 GMT 52.55650 -110.00846 38,975 51 490 -64
2017-11-11 03:04:25 GMT 52.55049 -110.02106 38,975 51 490 0
2017-11-11 03:04:20 GMT 52.54431 -110.03387 38,975 51 490 0
2017-11-11 03:04:14 GMT 52.53583 -110.05170 38,975 51 490 0
2017-11-11 03:04:11 GMT 52.53204 -110.05959 38,975 51 490 -64
2017-11-11 03:04:08 GMT 52.52913 -110.06574 39,000 51 490 -64
2017-11-11 03:04:05 GMT 52.52394 -110.07660 38,975 51 490 -64
2017-11-11 03:04:05 GMT 52.52339 -110.07774 39,000 51 490 -64
2017-11-11 03:04:03 GMT 52.52103 -110.08269 38,975 51 490 -64
2017-11-11 03:04:00 GMT 52.51763 -110.08968 38,975 51 490 -64
2017-11-11 03:03:57 GMT 52.51428 -110.09674 39,000 51 490 -64
2017-11-11 03:03:54 GMT 52.50911 -110.10750 39,000 51 490 -64
2017-11-11 03:03:53 GMT 52.50911 -110.10750 39,000 51 490 -64
2017-11-11 03:03:50 GMT 52.50183 -110.12268 39,000 51 490 -64
2017-11-11 03:03:48 GMT 52.49975 -110.12703 38,975 51 490 -64
2017-11-11 03:03:44 GMT 52.49483 -110.13725 39,000 51 491 0
2017-11-11 03:03:43 GMT 52.49400 -110.13901 39,000 51 491 -64
2017-11-11 03:03:39 GMT 52.48810 -110.15121 39,000 51 491 -64
2017-11-11 03:03:37 GMT 52.48389 -110.15999 39,000 51 490 0
2017-11-11 03:03:33 GMT 52.47968 -110.16876 39,000 51 491 0
2017-11-11 03:03:32 GMT 52.47968 -110.16876 39,000 51 491 0
2017-11-11 03:03:29 GMT 52.47295 -110.18272 38,975 51 491 0
2017-11-11 03:03:25 GMT 52.46846 -110.19203 39,000 51 491 0
2017-11-11 03:03:23 GMT 52.46465 -110.19993 38,975 51 491 -64
2017-11-11 03:03:22 GMT 52.46465 -110.19993 38,975 51 491 -64
2017-11-11 03:03:18 GMT 52.45834 -110.21301 39,000 51 491 -64
2017-11-11 03:03:15 GMT 52.45441 -110.22118 38,975 51 491 -64
2017-11-11 03:03:13 GMT 52.45020 -110.22987 38,975 51 491 -64
2017-11-11 03:03:11 GMT 52.44892 -110.23250 39,000 51 491 -64
2017-11-11 03:03:09 GMT 52.44484 -110.24094 39,000 51 491 -64
2017-11-11 03:03:05 GMT 52.43893 -110.25322 39,000 51 491 -64
2017-11-11 03:03:02 GMT 52.43597 -110.25926 39,000 51 491 -64
2017-11-11 03:03:00 GMT 52.43445 -110.26253 39,000 51 491 -64
2017-11-11 03:02:57 GMT 52.42882 -110.27420 39,000 51 491 0
2017-11-11 03:02:54 GMT 52.42346 -110.28526 38,975 51 491 0
2017-11-11 03:02:51 GMT 52.42080 -110.29081 39,000 51 494 -64
2017-11-11 03:02:46 GMT 52.41417 -110.30441 39,000 51 492 0
2017-11-11 03:02:43 GMT 52.40809 -110.31694 39,000 51 492 -64
2017-11-11 03:02:41 GMT 52.40684 -110.31960 38,975 51 492 -64
2017-11-11 03:02:35 GMT 52.39865 -110.33646 39,000 51 492 0
2017-11-11 03:02:32 GMT 52.39399 -110.34605 38,975 51 492 -64
2017-11-11 03:02:30 GMT 52.39188 -110.35049 39,000 51 493 -64
2017-11-11 03:02:26 GMT 52.38435 -110.36591 38,975 51 493 0
2017-11-11 03:02:22 GMT 52.37872 -110.37760 38,975 51 493 -64
2017-11-11 03:02:20 GMT 52.37659 -110.38193 38,975 51 493 -64
2017-11-11 03:02:15 GMT 52.36964 -110.39628 39,000 51 493 -64
2017-11-11 03:02:10 GMT 52.36256 -110.41087 39,000 51 494 -64
2017-11-11 03:02:05 GMT 52.35432 -110.42782 38,975 51 495 0
2017-11-11 03:02:00 GMT 52.34720 -110.44242 39,000 51 495 -64
2017-11-11 03:01:53 GMT 52.33937 -110.45853 38,975 51 496 -64
2017-11-11 03:01:49 GMT 52.33295 -110.47169 39,000 51 496 -64
2017-11-11 03:01:44 GMT 52.32411 -110.48982 39,000 51 497 -64
2017-11-11 03:01:39 GMT 52.31783 -110.50269 39,000 51 497 0
2017-11-11 03:01:39 GMT 52.31712 -110.50415 38,975 51 497 0
2017-11-11 03:01:31 GMT 52.30698 -110.52497 38,975 51 498 128
2017-11-11 03:01:27 GMT 52.30193 -110.53528 38,975 51 498 192
2017-11-11 03:01:23 GMT 52.29436 -110.55079 38,950 51 498 320
2017-11-11 03:01:18 GMT 52.28831 -110.56319 38,925 51 498 448
2017-11-11 03:01:16 GMT 52.28631 -110.56727 38,900 51 498 448
2017-11-11 03:01:11 GMT 52.27942 -110.58132 38,875 51 499 704
2017-11-11 03:01:07 GMT 52.27322 -110.59395 38,825 51 499 640
2017-11-11 03:01:05 GMT 52.27034 -110.59982 38,800 51 499 576
2017-11-11 03:01:00 GMT 52.26173 -110.61745 38,750 51 499 512
2017-11-11 03:00:56 GMT 52.25510 -110.63088 38,700 51 498 384
2017-11-11 03:00:50 GMT 52.24937 -110.64262 38,675 51 498 384
2017-11-11 03:00:47 GMT 52.24333 -110.65491 38,650 51 498 384
2017-11-11 03:00:45 GMT 52.24017 -110.66132 38,650 51 498 384
2017-11-11 03:00:41 GMT 52.23445 -110.67299 38,625 51 497 320
2017-11-11 03:00:36 GMT 52.22786 -110.68642 38,600 51 496 192
2017-11-11 03:00:35 GMT 52.22726 -110.68764 38,600 51 494 128
2017-11-11 03:00:33 GMT 52.22458 -110.69314 38,575 51 496 192
2017-11-11 03:00:29 GMT 52.21914 -110.70421 38,575 51 495 128
2017-11-11 03:00:26 GMT 52.21257 -110.71755 38,575 51 494 128
2017-11-11 03:00:19 GMT 52.20345 -110.73607 38,550 51 493 256
2017-11-11 03:00:15 GMT 52.19828 -110.74650 38,525 51 493 512
2017-11-11 03:00:08 GMT 52.18892 -110.76557 38,475 51 492 512
2017-11-11 03:00:05 GMT 52.18309 -110.77736 38,450 51 492 384
2017-11-11 02:59:59 GMT 52.17398 -110.79582 38,400 51 492 320
2017-11-11 02:59:53 GMT 52.16788 -110.80818 38,375 51 490 256
2017-11-11 02:59:48 GMT 52.15964 -110.82482 38,350 51 490 384
2017-11-11 02:59:44 GMT 52.15389 -110.83664 38,325 51 489 512
2017-11-11 02:59:38 GMT 52.14427 -110.85609 38,275 51 489 576
2017-11-11 02:59:33 GMT 52.13914 -110.86639 38,225 51 489 640
2017-11-11 02:59:28 GMT 52.13095 -110.88295 38,150 51 488 640
2017-11-11 02:59:25 GMT 52.12826 -110.88838 38,150 51 488 640
2017-11-11 02:59:23 GMT 52.12418 -110.89668 38,100 51 488 704
2017-11-11 02:59:19 GMT 52.11784 -110.90957 38,050 51 488 704
2017-11-11 02:59:17 GMT 52.11516 -110.91499 38,025 51 488 640
2017-11-11 02:59:13 GMT 52.10921 -110.92697 38,000 51 488 576
2017-11-11 02:59:08 GMT 52.10243 -110.94070 37,950 51 488 256
2017-11-11 02:59:05 GMT 52.09945 -110.94669 37,950 51 487 128
2017-11-11 02:59:01 GMT 52.09410 -110.95752 37,950 51 487 64
2017-11-11 02:58:56 GMT 52.08483 -110.97628 37,925 51 485 64
2017-11-11 02:58:52 GMT 52.07976 -110.98648 37,925 51 484 64
2017-11-11 02:58:52 GMT 52.08032 -110.98530 37,925 51 485 64
2017-11-11 02:58:47 GMT 52.07105 -111.00398 37,925 51 483 128
2017-11-11 02:58:44 GMT 52.07039 -111.00532 37,900 51 483 128
2017-11-11 02:58:41 GMT 52.06519 -111.01575 37,900 51 482 256
2017-11-11 02:58:35 GMT 52.05556 -111.03508 37,850 50 481 512
2017-11-11 02:58:30 GMT 52.05010 -111.04604 37,825 50 481 576
2017-11-11 02:58:30 GMT 52.05066 -111.04486 37,825 50 481 512
2017-11-11 02:58:24 GMT 52.04033 -111.06558 37,750 51 479 640
2017-11-11 02:58:19 GMT 52.03614 -111.07398 37,725 51 479 704
2017-11-11 02:58:13 GMT 52.02484 -111.09657 37,600 51 479 768
2017-11-11 02:58:10 GMT 52.02177 -111.10275 37,575 51 479 768
2017-11-11 02:58:02 GMT 52.00937 -111.12757 37,475 51 479 640
2017-11-11 02:58:00 GMT 52.00742 -111.13142 37,450 51 479 640
2017-11-11 02:57:53 GMT 51.99736 -111.15151 37,375 51 479 576
2017-11-11 02:57:51 GMT 51.99472 -111.15685 37,350 50 479 576
2017-11-11 02:57:48 GMT 51.99210 -111.16210 37,350 50 479 512
2017-11-11 02:57:42 GMT 51.98316 -111.17991 37,300 50 478 448
2017-11-11 02:57:39 GMT 51.97829 -111.18958 37,275 50 477 448
2017-11-11 02:57:32 GMT 51.96761 -111.21091 37,200 50 476 640
2017-11-11 02:57:30 GMT 51.96552 -111.21506 37,175 50 476 640
2017-11-11 02:57:28 GMT 51.96370 -111.21868 37,175 50 476 640
2017-11-11 02:57:27 GMT 51.96370 -111.21868 37,175 50 476 640
2017-11-11 02:57:21 GMT 51.95357 -111.23878 37,075 50 476 832
2017-11-11 02:57:18 GMT 51.94927 -111.24732 37,025 50 476 832
2017-11-11 02:57:16 GMT 51.94583 -111.25427 37,000 50 476 832
2017-11-11 02:57:11 GMT 51.93875 -111.26835 36,925 50 476 832
2017-11-11 02:57:07 GMT 51.93489 -111.27612 36,900 50 475 768
2017-11-11 02:57:00 GMT 51.92477 -111.29623 36,800 50 475 832
2017-11-11 02:56:56 GMT 51.92074 -111.30414 36,775 50 475 832
2017-11-11 02:56:50 GMT 51.91031 -111.32477 36,650 50 475 896
2017-11-11 02:56:47 GMT 51.90542 -111.33435 36,600 50 476 1088
2017-11-11 02:56:39 GMT 51.89546 -111.35420 36,450 50 476 1088
2017-11-11 02:56:36 GMT 51.89003 -111.36499 36,400 50 476 896
2017-11-11 02:56:29 GMT 51.88115 -111.38266 36,300 50 476 768
2017-11-11 02:56:25 GMT 51.87561 -111.39365 36,250 50 476 896
2017-11-11 02:56:18 GMT 51.86683 -111.41098 36,150 50 476 1088
2017-11-11 02:56:14 GMT 51.86073 -111.42311 36,050 50 476 1280
2017-11-11 02:56:08 GMT 51.85128 -111.44180 35,900 50 477 1344
2017-11-11 02:56:05 GMT 51.84877 -111.44676 35,875 50 478 1344
2017-11-11 02:56:03 GMT 51.84569 -111.45287 35,825 50 478 1280
2017-11-11 02:55:57 GMT 51.83727 -111.46942 35,700 50 479 960
2017-11-11 02:55:55 GMT 51.83382 -111.47627 35,650 50 479 832
2017-11-11 02:55:53 GMT 51.83033 -111.48323 35,625 50 478 768
2017-11-11 02:55:45 GMT 51.81985 -111.50388 35,550 50 477 640
2017-11-11 02:55:42 GMT 51.81569 -111.51220 35,525 50 476 768
2017-11-11 02:55:36 GMT 51.80814 -111.52697 35,425 50 476 1088
2017-11-11 02:55:34 GMT 51.80463 -111.53381 35,375 50 476 1280
2017-11-11 02:55:31 GMT 51.79971 -111.54337 35,300 50 477 1344
2017-11-11 02:55:24 GMT 51.79090 -111.56067 35,150 50 478 1408
2017-11-11 02:55:22 GMT 51.78877 -111.56475 35,125 50 478 1408
2017-11-11 02:55:20 GMT 51.78488 -111.57247 35,050 50 478 1280
2017-11-11 02:55:14 GMT 51.77618 -111.58955 34,925 50 478 1088
2017-11-11 02:55:11 GMT 51.77293 -111.59584 34,900 50 478 1088
2017-11-11 02:55:08 GMT 51.76958 -111.60248 34,850 50 478 960
2017-11-11 02:55:04 GMT 51.76283 -111.61568 34,775 50 478 960
2017-11-11 02:55:02 GMT 51.75989 -111.62147 34,750 50 478 896
2017-11-11 02:54:57 GMT 51.75430 -111.63245 34,675 50 478 832
2017-11-11 02:54:54 GMT 51.74914 -111.64269 34,625 50 477 768
2017-11-11 02:54:52 GMT 51.74647 -111.64789 34,600 50 477 768
2017-11-11 02:54:48 GMT 51.73932 -111.66183 34,525 50 477 704
2017-11-11 02:54:42 GMT 51.73196 -111.67640 34,475 50 476 768
2017-11-11 02:54:37 GMT 51.72400 -111.69190 34,375 50 475 832
2017-11-11 02:54:33 GMT 51.71982 -111.70013 34,350 50 474 704
2017-11-11 02:54:30 GMT 51.71603 -111.70743 34,300 50 474 512
2017-11-11 02:54:26 GMT 51.70841 -111.72241 34,275 50 473 448
2017-11-11 02:54:21 GMT 51.70299 -111.73296 34,225 50 472 640
2017-11-11 02:54:15 GMT 51.69333 -111.75189 34,150 50 471 832
2017-11-11 02:54:12 GMT 51.69054 -111.75731 34,125 50 470 896
2017-11-11 02:54:10 GMT 51.68849 -111.76132 34,100 50 470 896
2017-11-11 02:54:02 GMT 51.67582 -111.78612 33,975 50 468 704
2017-11-11 02:53:59 GMT 51.67346 -111.79071 33,950 50 468 640
2017-11-11 02:53:54 GMT 51.66417 -111.80898 33,875 50 466 448
2017-11-11 02:53:50 GMT 51.65950 -111.81803 33,850 50 465 384
2017-11-11 02:53:43 GMT 51.64993 -111.83666 33,800 50 463 704
2017-11-11 02:53:41 GMT 51.64696 -111.84253 33,775 50 463 896
2017-11-11 02:53:39 GMT 51.64558 -111.84513 33,775 50 462 960
2017-11-11 02:53:38 GMT 51.64476 -111.84676 33,750 50 462 1216
2017-11-11 02:53:32 GMT 51.63509 -111.86546 33,600 50 462 1344
2017-11-11 02:53:29 GMT 51.63084 -111.87363 33,525 50 462 1216
2017-11-11 02:53:21 GMT 51.62000 -111.89479 33,375 50 462 960
2017-11-11 02:53:19 GMT 51.61661 -111.90140 33,350 50 461 896
2017-11-11 02:53:15 GMT 51.61386 -111.90674 33,325 50 461 832
2017-11-11 02:53:10 GMT 51.60425 -111.92544 33,225 50 460 768
2017-11-11 02:53:07 GMT 51.60287 -111.92804 33,200 50 460 768
2017-11-11 02:52:59 GMT 51.58983 -111.95313 33,050 50 458 832
2017-11-11 02:52:57 GMT 51.58779 -111.95709 33,025 50 458 832
2017-11-11 02:52:49 GMT 51.57628 -111.97919 32,925 50 456 960
2017-11-11 02:52:46 GMT 51.57408 -111.98335 32,875 50 456 1024
2017-11-11 02:52:38 GMT 51.56126 -112.00798 32,675 50 455 1664
2017-11-11 02:52:36 GMT 51.55980 -112.01081 32,625 50 456 1664
2017-11-11 02:52:27 GMT 51.54753 -112.03453 32,400 50 458 1152
2017-11-11 02:52:25 GMT 51.54630 -112.03687 32,375 50 458 1024
2017-11-11 02:52:16 GMT 51.53252 -112.06359 32,225 50 460 704
2017-11-11 02:52:16 GMT 51.53252 -112.06359 32,225 50 460 704
2017-11-11 02:52:04 GMT 51.51732 -112.09291 32,100 50 458 640
2017-11-11 02:51:55 GMT 51.50409 -112.11845 32,000 50 455 768
2017-11-11 02:51:53 GMT 51.50221 -112.12208 31,975 50 455 832
2017-11-11 02:51:44 GMT 51.48825 -112.14903 31,800 50 453 1024
2017-11-11 02:51:33 GMT 51.47378 -112.17687 31,600 50 452 1088
2017-11-11 02:51:22 GMT 51.45969 -112.20404 31,400 50 450 960
2017-11-11 02:51:14 GMT 51.44865 -112.22527 31,275 50 448 896
2017-11-11 02:51:13 GMT 51.44865 -112.22527 31,275 50 448 896
2017-11-11 02:51:10 GMT 51.44481 -112.23262 31,225 50 448 960
2017-11-11 02:51:02 GMT 51.43515 -112.25113 31,100 50 446 1152
2017-11-11 02:51:00 GMT 51.43119 -112.25868 31,025 50 445 1152
2017-11-11 02:50:53 GMT 51.42082 -112.27864 30,875 50 444 1280
2017-11-11 02:50:53 GMT 51.42082 -112.27864 30,875 50 444 1280
2017-11-11 02:50:50 GMT 51.41676 -112.28645 30,800 50 443 1280
2017-11-11 02:50:42 GMT 51.40768 -112.30373 30,650 49 442 1152
2017-11-11 02:50:41 GMT 51.40713 -112.30477 30,650 49 442 1152
2017-11-11 02:50:39 GMT 51.40237 -112.31375 30,575 49 442 1152
2017-11-11 02:50:32 GMT 51.39372 -112.33016 30,425 49 440 1280
2017-11-11 02:50:28 GMT 51.38860 -112.33986 30,350 49 439 1408
2017-11-11 02:50:21 GMT 51.37981 -112.35651 30,175 49 440 1472
2017-11-11 02:50:17 GMT 51.37444 -112.36664 30,075 49 440 1536
2017-11-11 02:50:11 GMT 51.36639 -112.38205 29,900 50 439 1472
2017-11-11 02:50:06 GMT 51.36015 -112.39395 29,800 50 438 1344
2017-11-11 02:50:00 GMT 51.35261 -112.40837 29,650 50 438 1344
2017-11-11 02:49:56 GMT 51.34637 -112.42020 29,550 50 436 1472
2017-11-11 02:49:50 GMT 51.33847 -112.43527 29,375 49 436 1408
2017-11-11 02:49:45 GMT 51.33202 -112.44759 29,275 50 435 1344
2017-11-11 02:49:40 GMT 51.32543 -112.46018 29,150 49 435 1408
2017-11-11 02:49:38 GMT 51.32412 -112.46262 29,125 49 435 1408
2017-11-11 02:49:34 GMT 51.31793 -112.47437 29,000 49 433 1536
2017-11-11 02:49:29 GMT 51.31187 -112.48590 28,875 49 433 1536
2017-11-11 02:49:23 GMT 51.30452 -112.49977 28,725 49 432 1472
2017-11-11 02:49:18 GMT 51.29810 -112.51198 28,600 49 432 1472
2017-11-11 02:49:12 GMT 51.29037 -112.52663 28,450 49 431 1536
2017-11-11 02:49:08 GMT 51.28459 -112.53756 28,325 49 431 1600
2017-11-11 02:49:01 GMT 51.27589 -112.55404 28,150 49 430 1536
2017-11-11 02:48:57 GMT 51.27100 -112.56325 28,050 49 429 1536
2017-11-11 02:48:51 GMT 51.26244 -112.57942 27,875 49 428 1600
2017-11-11 02:48:47 GMT 51.25783 -112.58804 27,775 49 428 1600
2017-11-11 02:48:40 GMT 51.24889 -112.60490 27,575 49 427 1536
2017-11-11 02:48:36 GMT 51.24422 -112.61380 27,475 49 426 1472
2017-11-11 02:48:28 GMT 51.23378 -112.63347 27,275 49 425 1536
2017-11-11 02:48:26 GMT 51.23048 -112.63963 27,200 49 424 1536
2017-11-11 02:48:16 GMT 51.21896 -112.66129 26,950 49 422 1536
2017-11-11 02:48:14 GMT 51.21707 -112.66487 26,925 49 422 1600
2017-11-11 02:48:07 GMT 51.20686 -112.68402 26,700 49 421 1600
2017-11-11 02:48:05 GMT 51.20388 -112.68974 26,650 49 420 1600
2017-11-11 02:47:55 GMT 51.19303 -112.70996 26,400 49 419 1600
2017-11-11 02:47:53 GMT 51.19043 -112.71490 26,350 49 419 1600
2017-11-11 02:47:50 GMT 51.18651 -112.72217 26,250 49 418 1600
2017-11-11 02:47:46 GMT 51.18041 -112.73368 26,125 49 417 1600
2017-11-11 02:47:44 GMT 51.17804 -112.73811 26,075 49 417 1600
2017-11-11 02:47:35 GMT 51.16695 -112.75885 25,825 49 414 1600
2017-11-11 02:47:35 GMT 51.16695 -112.75885 25,825 49 414 1600
2017-11-11 02:47:33 GMT 51.16505 -112.76230 25,775 49 414 1600
2017-11-11 02:47:24 GMT 51.15290 -112.78496 25,525 49 412 1536
2017-11-11 02:47:22 GMT 51.15118 -112.78824 25,475 49 412 1536
2017-11-11 02:47:14 GMT 51.14103 -112.80708 25,275 49 410 1344
2017-11-11 02:47:12 GMT 51.13908 -112.81074 25,250 49 410 1344
2017-11-11 02:47:02 GMT 51.12602 -112.83508 24,975 49 405 1536
2017-11-11 02:46:59 GMT 51.12297 -112.84081 24,925 49 405 1536
2017-11-11 02:46:53 GMT 51.11571 -112.85438 24,750 49 403 1600
2017-11-11 02:46:53 GMT 51.11524 -112.85530 24,750 49 403 1600
2017-11-11 02:46:51 GMT 51.11357 -112.85843 24,700 49 403 1600
2017-11-11 02:46:43 GMT 51.10309 -112.87806 24,475 49 401 1664
2017-11-11 02:46:41 GMT 51.10034 -112.88322 24,400 49 401 1728
2017-11-11 02:46:32 GMT 51.09123 -112.90056 24,175 50 399 1856
2017-11-11 02:46:30 GMT 51.08766 -112.90731 24,075 50 398 1856
2017-11-11 02:46:22 GMT 51.07837 -112.92503 23,825 49 398 1792
2017-11-11 02:46:22 GMT 51.07837 -112.92503 23,825 49 398 1792
2017-11-11 02:46:19 GMT 51.07455 -112.93213 23,725 49 397 1856
2017-11-11 02:46:11 GMT 51.06619 -112.94873 23,500 54 396 1920
2017-11-11 02:46:10 GMT 51.06619 -112.94873 23,500 54 396 1920
2017-11-11 02:46:08 GMT 51.06216 -112.95838 23,375 59 396 1984
2017-11-11 02:46:01 GMT 51.05695 -112.97382 23,150 66 397 1984
2017-11-11 02:46:01 GMT 51.05695 -112.97382 23,150 65 397 1984
2017-11-11 02:45:57 GMT 51.05429 -112.98399 23,025 70 397 1984
2017-11-11 02:45:50 GMT 51.05054 -113.00351 22,800 77 398 2048
2017-11-11 02:45:48 GMT 51.04974 -113.00949 22,725 79 398 2048
2017-11-11 02:45:46 GMT 51.04916 -113.01502 22,650 81 398 2048
2017-11-11 02:45:40 GMT 51.04797 -113.03358 22,425 87 399 1984
2017-11-11 02:45:38 GMT 51.04788 -113.03970 22,375 90 399 1984
2017-11-11 02:45:36 GMT 51.04797 -113.04672 22,275 92 399 2048
2017-11-11 02:45:29 GMT 51.04877 -113.06305 22,075 96 399 2112
2017-11-11 02:45:25 GMT 51.04990 -113.07908 21,875 96 398 2048
2017-11-11 02:45:19 GMT 51.05095 -113.09380 21,700 96 397 2112
2017-11-11 02:45:17 GMT 51.05156 -113.10249 21,600 96 397 2048
2017-11-11 02:45:14 GMT 51.05207 -113.10944 21,525 96 396 2048
2017-11-11 02:45:09 GMT 51.05309 -113.12386 21,350 96 396 2112
2017-11-11 02:45:05 GMT 51.05384 -113.13370 21,225 96 396 2048
2017-11-11 02:45:03 GMT 51.05449 -113.14293 21,125 96 396 1856
2017-11-11 02:44:58 GMT 51.05525 -113.15361 21,025 96 397 1344
2017-11-11 02:44:56 GMT 51.05589 -113.16230 20,950 96 397 896
2017-11-11 02:44:52 GMT 51.05653 -113.17158 20,900 96 397 832
2017-11-11 02:44:48 GMT 51.05747 -113.18459 20,825 96 397 1024
2017-11-11 02:44:44 GMT 51.05809 -113.19355 20,775 96 397 1280
2017-11-11 02:44:41 GMT 51.05891 -113.20602 20,675 95 396 1408
2017-11-11 02:44:37 GMT 51.05952 -113.21465 20,600 95 395 1664
2017-11-11 02:44:35 GMT 51.06003 -113.22334 20,500 95 394 1920
2017-11-11 02:44:31 GMT 51.06070 -113.23512 20,375 95 393 2176
2017-11-11 02:44:27 GMT 51.06120 -113.24373 20,275 95 393 2112
2017-11-11 02:44:26 GMT 51.06129 -113.24516 20,250 95 393 2112
2017-11-11 02:44:24 GMT 51.06171 -113.25234 20,150 95 392 2112
2017-11-11 02:44:20 GMT 51.06249 -113.26615 20,000 95 392 2048
2017-11-11 02:44:17 GMT 51.06292 -113.27385 19,900 95 391 2048
2017-11-11 02:44:16 GMT 51.06303 -113.27528 19,875 95 391 2048
2017-11-11 02:44:09 GMT 51.06427 -113.29644 19,625 95 389 2112
2017-11-11 02:44:06 GMT 51.06482 -113.30438 19,525 95 389 2048
2017-11-11 02:44:05 GMT 51.06482 -113.30438 19,525 95 389 2048
2017-11-11 02:43:57 GMT 51.06638 -113.33043 19,200 93 387 2112
2017-11-11 02:43:56 GMT 51.06650 -113.33298 19,175 92 387 2112
2017-11-11 02:43:55 GMT 51.06650 -113.33298 19,175 92 387 2112
2017-11-11 02:43:48 GMT 51.06599 -113.35792 18,850 82 384 2176
2017-11-11 02:43:45 GMT 51.06555 -113.36324 18,775 81 384 2240
2017-11-11 02:43:44 GMT 51.06548 -113.36464 18,750 81 384 2240
2017-11-11 02:43:35 GMT 51.06124 -113.39134 18,375 70 382 2304
2017-11-11 02:43:34 GMT 51.06038 -113.39531 18,325 68 381 2304
2017-11-11 02:43:25 GMT 51.05342 -113.41820 18,000 58 379 2048
2017-11-11 02:43:23 GMT 51.05342 -113.41820 18,000 58 379 2048
2017-11-11 02:43:15 GMT 51.04434 -113.43857 17,650 52 376 2240
2017-11-11 02:43:13 GMT 51.04281 -113.44162 17,600 51 377 2240
2017-11-11 02:43:13 GMT 51.04230 -113.44267 17,575 51 376 2240
2017-11-11 02:43:04 GMT 51.03177 -113.46390 17,225 51 374 2112
2017-11-11 02:43:04 GMT 51.03177 -113.46390 17,225 51 374 2112
2017-11-11 02:42:54 GMT 51.02097 -113.48595 16,900 52 370 1792
2017-11-11 02:42:53 GMT 51.02097 -113.48595 16,900 52 371 1728
2017-11-11 02:42:52 GMT 51.02046 -113.48701 16,875 52 371 1728
2017-11-11 02:42:43 GMT 51.00994 -113.50838 16,550 51 367 2176
2017-11-11 02:42:32 GMT 50.99858 -113.53138 16,125 51 365 2240
2017-11-11 02:42:22 GMT 50.98732 -113.55394 15,700 51 363 2432
2017-11-11 02:42:11 GMT 50.97619 -113.57613 15,250 51 360 2496
2017-11-11 02:42:00 GMT 50.96497 -113.59840 14,825 51 359 2304
2017-11-11 02:41:51 GMT 50.95564 -113.61712 14,500 51 356 2048
2017-11-11 02:41:50 GMT 50.95564 -113.61712 14,500 51 356 2048
2017-11-11 02:41:48 GMT 50.95389 -113.62060 14,425 52 356 2112
2017-11-11 02:41:39 GMT 50.94304 -113.64281 13,975 52 354 2752
2017-11-11 02:41:30 GMT 50.93480 -113.65959 13,600 51 354 2496
2017-11-11 02:41:28 GMT 50.93230 -113.66463 13,500 51 353 2304
2017-11-11 02:41:19 GMT 50.92424 -113.68088 13,225 51 350 1856
2017-11-11 02:41:17 GMT 50.92149 -113.68630 13,125 51 349 1728
2017-11-11 02:41:08 GMT 50.91293 -113.70331 12,925 51 342 1408
2017-11-11 02:41:06 GMT 50.91092 -113.70727 12,875 51 341 1536
2017-11-11 02:40:59 GMT 50.90341 -113.72223 12,600 51 337 2368
2017-11-11 02:40:55 GMT 50.90053 -113.72802 12,475 51 336 2496
2017-11-11 02:40:47 GMT 50.89307 -113.74301 12,150 51 334 2432
2017-11-11 02:40:45 GMT 50.89026 -113.74863 12,025 51 334 2432
2017-11-11 02:40:37 GMT 50.88304 -113.76320 11,725 51 332 2304
2017-11-11 02:40:34 GMT 50.87947 -113.77018 11,575 50 332 2240
2017-11-11 02:40:27 GMT 50.87265 -113.78325 11,325 50 328 1984
2017-11-11 02:40:23 GMT 50.86917 -113.78985 11,225 51 327 1792
2017-11-11 02:40:17 GMT 50.86414 -113.80081 11,075 58 323 1280
2017-11-11 02:40:15 GMT 50.86295 -113.80388 11,050 62 322 1152
2017-11-11 02:40:12 GMT 50.86065 -113.81126 10,975 67 320 1088
2017-11-11 02:40:06 GMT 50.85764 -113.82556 10,850 78 313 1024
2017-11-11 02:40:01 GMT 50.85667 -113.83454 10,775 85 310 1024
2017-11-11 02:39:56 GMT 50.85645 -113.84672 10,700 93 305 1024
2017-11-11 02:39:54 GMT 50.85655 -113.85002 10,675 95 304 1024
2017-11-11 02:39:51 GMT 50.85745 -113.85896 10,600 103 299 1152
2017-11-11 02:39:45 GMT 50.86004 -113.87207 10,450 112 294 1856
2017-11-11 02:39:40 GMT 50.86279 -113.88138 10,275 119 292 2816
2017-11-11 02:39:35 GMT 50.86609 -113.88969 10,025 125 293 2944
2017-11-11 02:39:33 GMT 50.86697 -113.89163 9,975 128 293 2880
2017-11-11 02:39:29 GMT 50.87196 -113.90068 9,700 136 294 2880
2017-11-11 02:39:24 GMT 50.87680 -113.90732 9,475 143 295 2944
2017-11-11 02:39:18 GMT 50.88388 -113.91464 9,175 152 296 2688
2017-11-11 02:39:12 GMT 50.88968 -113.91902 8,975 158 295 2496
2017-11-11 02:39:06 GMT 50.89705 -113.92296 8,725 165 294 2624
2017-11-11 02:39:03 GMT 50.90300 -113.92511 8,525 168 292 2624
2017-11-11 02:38:54 GMT 50.91507 -113.92883 8,150 168 290 2752
2017-11-11 02:38:51 GMT 50.91678 -113.92934 8,075 168 290 2752
2017-11-11 02:38:44 GMT 50.92598 -113.93230 7,725 168 289 2944
2017-11-11 02:38:42 GMT 50.93085 -113.93387 7,550 168 290 2560
2017-11-11 02:38:33 GMT 50.94081 -113.93715 7,275 167 290 1664
2017-11-11 02:38:31 GMT 50.94461 -113.93847 7,200 168 290 832
2017-11-11 02:38:22 GMT 50.95697 -113.94262 7,100 167 290 -64
2017-11-11 02:38:19 GMT 50.95943 -113.94348 7,125 167 290 -64
2017-11-11 02:38:12 GMT 50.96967 -113.94699 7,075 167 290 448
2017-11-11 02:38:10 GMT 50.97284 -113.94806 7,075 167 290 448
2017-11-11 02:38:01 GMT 50.98370 -113.95183 6,950 167 289 1344
2017-11-11 02:37:58 GMT 50.98659 -113.95287 6,900 167 289 1408
2017-11-11 02:37:50 GMT 50.99730 -113.95673 6,675 166 286 2368
2017-11-11 02:37:50 GMT 50.99780 -113.95688 6,675 166 287 2432
2017-11-11 02:37:48 GMT 51.00092 -113.95799 6,550 166 286 2176
2017-11-11 02:37:40 GMT 51.01222 -113.96222 6,375 166 283 1024
2017-11-11 02:37:37 GMT 51.01464 -113.96309 6,350 166 281 1280
2017-11-11 02:37:29 GMT 51.02554 -113.96719 6,100 166 273 1536
2017-11-11 02:37:27 GMT 51.02678 -113.96764 6,075 166 272 1472
2017-11-11 02:37:18 GMT 51.03843 -113.97209 5,850 166 262 1408
2017-11-11 02:37:16 GMT 51.04011 -113.97270 5,825 166 259 1600
2017-11-11 02:37:09 GMT 51.04886 -113.97598 5,575 167 253 1920
2017-11-11 02:37:06 GMT 51.05161 -113.97697 5,500 167 251 1728
2017-11-11 02:36:58 GMT 51.06054 -113.98010 5,350 167 240 192
2017-11-11 02:36:56 GMT 51.06399 -113.98132 5,350 167 234 64
2017-11-11 02:36:48 GMT 51.07150 -113.98375 5,325 168 220 384
2017-11-11 02:36:47 GMT 51.07150 -113.98375 5,325 168 220 384
2017-11-11 02:36:45 GMT 51.07400 -113.98453 5,300 168 213 320
2017-11-11 02:36:38 GMT 51.08116 -113.98666 5,250 169 201 896
2017-11-11 02:36:37 GMT 51.08162 -113.98679 5,250 170 198 960
2017-11-11 02:36:35 GMT 51.08442 -113.98758 5,175 170 195 1472
2017-11-11 02:36:27 GMT 51.09050 -113.98902 4,950 172 191 2368
2017-11-11 02:36:26 GMT 51.09050 -113.98902 4,950 172 191 2368
2017-11-11 02:36:23 GMT 51.09366 -113.98969 4,800 173 191 2368
2017-11-11 02:36:23 GMT 51.09366 -113.98969 4,800 173 191 2368
2017-11-11 02:36:17 GMT 51.09979 -113.99048 4,525 177 192 2112
2017-11-11 02:36:16 GMT 51.09979 -113.99048 4,525 177 192 2112
2017-11-11 02:36:13 GMT 51.10286 -113.99065 4,400 180 191 2112
2017-11-11 02:36:06 GMT 51.10896 -113.99056 4,175 181 189 1600
2017-11-11 02:36:05 GMT 51.10896 -113.99056 4,175 181 189 1600
2017-11-11 02:36:02 GMT 51.11245 -113.99048 4,050 181 187 1664
2017-11-11 02:35:56 GMT 51.11794 -113.99040 3,875 181 187 1728
2017-11-11 02:35:55 GMT 51.11794 -113.99040 3,875 181 187 1728
2017-11-11 02:35:45 GMT 51.12685 -113.99035 3,700 180 172 0
2017-11-11 02:35:39 GMT 51.13147 -113.99035 3,700 180 172 0
2017-11-11 02:35:34 GMT 51.13489 -113.99033 3,700 180 135 -64
2017-11-11 02:35:32 GMT 51.13670 -113.99033 3,700 180 135 -64
2017-11-11 02:35:29 GMT 51.13866 -113.99033 3,725 180 122 -128
2017-11-11 02:35:23 GMT 51.14182 -113.99033 3,725 180 101 -128
2017-11-11 02:35:19 GMT 51.14353 -113.99033 0 165 86 0
2017-11-11 02:35:13 GMT 51.14557 -113.99033 0 163 66 0
2017-11-11 02:35:08 GMT 51.14691 -113.99032 0 165 44 0
2017-11-11 02:35:03 GMT 51.14764 -113.99034 0 163 22 0
2017-11-11 02:34:56 GMT 51.14801 -113.99034 0 160 2 0
2017-11-11 02:34:53 GMT 51.14801 -113.99034 0 160 0 0
2017-11-11 02:34:42 GMT 51.14801 -113.99035 0 160 0 0
2017-11-11 02:34:36 GMT 51.14803 -113.99035 0 160 4 0
2017-11-11 02:34:33 GMT 51.14807 -113.99033 0 157 5 0
2017-11-11 02:34:25 GMT 51.14827 -113.99034 0 120 6 0
2017-11-11 02:34:22 GMT 51.14833 -113.99037 0 109 6 0
2017-11-11 02:34:12 GMT 51.14846 -113.99069 0 78 6 0
2017-11-11 02:34:01 GMT 51.14848 -113.99115 0 75 7 0
2017-11-11 02:33:50 GMT 51.14848 -113.99176 0 73 9 0
2017-11-11 02:33:41 GMT 51.14846 -113.99236 0 50 9 0
2017-11-11 02:33:38 GMT 51.14845 -113.99252 0 39 9 0
2017-11-11 02:33:31 GMT 51.14827 -113.99290 0 2 8 0
2017-11-11 02:33:29 GMT 51.14824 -113.99294 0 357 8 0
2017-11-11 02:33:20 GMT 51.14787 -113.99303 0 345 9 0
2017-11-11 02:33:10 GMT 51.14742 -113.99303 0 343 11 0
2017-11-11 02:33:08 GMT 51.14740 -113.99303 0 343 11 0
2017-11-11 02:32:59 GMT 51.14690 -113.99301 0 345 11 0
2017-11-11 02:32:47 GMT 51.14636 -113.99303 0 345 12 0
2017-11-11 02:32:37 GMT 51.14578 -113.99303 0 345 13 0
2017-11-11 02:32:27 GMT 51.14519 -113.99303 0 345 13 0
2017-11-11 02:32:23 GMT 51.14491 -113.99303 0 345 13 0
2017-11-11 02:32:17 GMT 51.14463 -113.99303 0 345 13 0
2017-11-11 02:32:14 GMT 51.14443 -113.99303 0 345 12 0
2017-11-11 02:32:06 GMT 51.14405 -113.99303 0 345 12 0
2017-11-11 02:32:04 GMT 51.14394 -113.99303 0 345 12 0
2017-11-11 02:31:56 GMT 51.14352 -113.99303 0 345 11 0
2017-11-11 02:31:54 GMT 51.14342 -113.99303 0 345 11 0
2017-11-11 02:31:46 GMT 51.14303 -113.99305 0 343 10 0
2017-11-11 02:31:45 GMT 51.14303 -113.99305 0 343 10 0
2017-11-11 02:31:36 GMT 51.14264 -113.99303 0 343 8 0
2017-11-11 02:31:35 GMT 51.14261 -113.99303 0 343 8 0
2017-11-11 02:31:32 GMT 51.14250 -113.99303 0 343 8 0
2017-11-11 02:31:24 GMT 51.14223 -113.99303 0 343 9 0
2017-11-11 02:31:24 GMT 51.14223 -113.99303 0 343 9 0
2017-11-11 02:31:18 GMT 51.14194 -113.99303 0 345 9 0
2017-11-11 02:31:15 GMT 51.14182 -113.99303 0 345 9 0
2017-11-11 02:31:15 GMT 51.14184 -113.99303 0 345 9 0
2017-11-11 02:31:11 GMT 51.14167 -113.99303 0 345 9 0
2017-11-11 02:31:04 GMT 51.14142 -113.99303 0 345 9 0
2017-11-11 02:31:03 GMT 51.14142 -113.99303 0 345 9 0
2017-11-11 02:31:00 GMT 51.14124 -113.99303 0 345 8 0
2017-11-11 02:30:53 GMT 51.14104 -113.99305 0 354 6 0
2017-11-11 02:30:49 GMT 51.14092 -113.99305 0 2 5 0
2017-11-11 02:30:43 GMT 51.14081 -113.99307 0 16 5 0
2017-11-11 02:30:38 GMT 51.14071 -113.99313 0 36 5 0
2017-11-11 02:30:32 GMT 51.14061 -113.99324 0 59 5 0
2017-11-11 02:30:28 GMT 51.14057 -113.99342 0 70 5 0
2017-11-11 02:30:23 GMT 51.14055 -113.99359 0 70 5 0
2017-11-11 02:30:12 GMT 51.14055 -113.99399 0 42 6 0
2017-11-11 02:30:01 GMT 51.14040 -113.99435 0 357 6 0
2017-11-11 02:29:59 GMT 51.14035 -113.99441 0 351 6 0
2017-11-11 02:29:51 GMT 51.14016 -113.99444 0 343 6 0
2017-11-11 02:29:50 GMT 51.14014 -113.99445 0 343 6 0
2017-11-11 02:29:44 GMT 51.13998 -113.99444 0 343 5 0
2017-11-11 02:29:40 GMT 51.13990 -113.99445 0 343 5 0
2017-11-11 02:29:35 GMT 51.13978 -113.99444 0 345 6 0
2017-11-11 02:29:33 GMT 51.13973 -113.99443 0 345 6 0
2017-11-11 02:29:30 GMT 51.13967 -113.99445 0 345 7 0
2017-11-11 02:29:28 GMT 51.13961 -113.99443 0 345 7 0
2017-11-11 02:29:21 GMT 51.13940 -113.99443 0 343 8 0
2017-11-11 02:29:19 GMT 51.13930 -113.99444 0 343 8 0
2017-11-11 02:29:15 GMT 51.13917 -113.99444 0 345 9 0
2017-11-11 02:29:10 GMT 51.13891 -113.99443 0 345 10 0
2017-11-11 02:28:58 GMT 51.13837 -113.99444 0 345 13 0
2017-11-11 02:28:57 GMT 51.13831 -113.99443 0 345 13 0
2017-11-11 02:28:48 GMT 51.13772 -113.99444 0 345 15 0
2017-11-11 02:28:47 GMT 51.13762 -113.99445 0 345 15 0
2017-11-11 02:28:37 GMT 51.13706 -113.99445 0 345 14 0
2017-11-11 02:28:34 GMT 51.13686 -113.99444 0 345 14 0
2017-11-11 02:28:28 GMT 51.13641 -113.99445 0 345 14 0
2017-11-11 02:28:24 GMT 51.13622 -113.99444 0 345 14 0
2017-11-11 02:28:17 GMT 51.13577 -113.99445 0 345 13 0
2017-11-11 02:28:16 GMT 51.13571 -113.99445 0 345 14 0
2017-11-11 02:28:06 GMT 51.13499 -113.99445 0 345 15 0
2017-11-11 02:27:57 GMT 51.13442 -113.99444 0 345 15 0
2017-11-11 02:27:46 GMT 51.13371 -113.99444 0 345 15 0
2017-11-11 02:27:44 GMT 51.13364 -113.99444 0 345 15 0
2017-11-11 02:27:36 GMT 51.13301 -113.99445 0 345 15 0
2017-11-11 02:27:32 GMT 51.13274 -113.99446 0 345 15 0
2017-11-11 02:27:25 GMT 51.13233 -113.99445 0 345 14 0
2017-11-11 02:27:24 GMT 51.13227 -113.99446 0 345 14 0
2017-11-11 02:27:15 GMT 51.13165 -113.99445 0 345 14 0
2017-11-11 02:27:14 GMT 51.13162 -113.99446 0 345 14 0
2017-11-11 02:27:04 GMT 51.13099 -113.99445 0 343 14 0
2017-11-11 02:27:02 GMT 51.13092 -113.99446 0 343 14 0
2017-11-11 02:26:53 GMT 51.13035 -113.99445 0 345 13 0
2017-11-11 02:26:52 GMT 51.13031 -113.99444 0 345 13 0
2017-11-11 02:26:44 GMT 51.12975 -113.99445 0 345 13 0
2017-11-11 02:26:44 GMT 51.12975 -113.99445 0 345 13 0
2017-11-11 02:26:32 GMT 51.12911 -113.99445 0 345 12 0
2017-11-11 02:26:32 GMT 51.12913 -113.99445 0 345 12 0
2017-11-11 02:26:16 GMT 51.12825 -113.99446 0 343 11 0
2017-11-11 02:26:09 GMT 51.12796 -113.99445 0 345 9 0
2017-11-11 02:26:02 GMT 51.12771 -113.99445 0 345 8 0
2017-11-11 02:26:00 GMT 51.12763 -113.99446 0 345 7 0
2017-11-11 02:25:52 GMT 51.12738 -113.99446 0 348 5 0
2017-11-11 02:25:45 GMT 51.12723 -113.99442 0 14 5 0
2017-11-11 02:25:41 GMT 51.12718 -113.99443 0 25 5 0
2017-11-11 02:25:36 GMT 51.12707 -113.99448 0 56 5 0
2017-11-11 02:25:30 GMT 51.12701 -113.99468 0 73 6 0
2017-11-11 02:25:20 GMT 51.12701 -113.99511 0 75 8 0
2017-11-11 02:25:18 GMT 51.12701 -113.99523 0 75 8 0
2017-11-11 02:25:10 GMT 51.12701 -113.99572 0 75 8 0
2017-11-11 02:25:08 GMT 51.12701 -113.99577 0 75 8 0
2017-11-11 02:24:58 GMT 51.12701 -113.99633 0 75 7 0
2017-11-11 02:24:52 GMT 51.12701 -113.99668 0 75 7 0
2017-11-11 02:24:48 GMT 51.12701 -113.99679 0 73 7 0
2017-11-11 02:24:44 GMT 51.12701 -113.99698 0 75 7 0
2017-11-11 02:24:38 GMT 51.12701 -113.99729 0 75 7 0
We lost coverage of the aircraft here for a total of 7 minutes
2017-11-11 02:17:32 GMT 51.12835 -114.00068 0 258 1 0
2017-11-11 02:17:02 GMT 51.12836 -114.00105 0 258 2 0
2017-11-11 02:16:28 GMT 51.12838 -114.00154 0 258 2 0
2017-11-11 02:15:35 GMT 51.12865 -114.00221 0 292 2 0
2017-11-11 02:15:34 GMT 51.12865 -114.00221 0 292 2 0
2017-11-11 02:14:56 GMT 51.12887 -114.00255 0 300 2 0
2017-11-11 02:14:35 GMT 51.12896 -114.00271 0 298 0 0
2017-11-11 02:14:25 GMT 51.12900 -114.00276 0 298 0 0
2017-11-11 02:13:50 GMT 51.12900 -114.00277 0 298 0 0
2017-11-11 02:13:40 GMT 51.12900 -114.00276 0 298 0 0
2017-11-11 02:13:34 GMT 51.12900 -114.00276 0 298 0 0
2017-11-11 02:13:30 GMT 51.12900 -114.00275 0 298 0 0
2017-11-11 02:13:23 GMT 51.12900 -114.00275 0 298 0 0

Making use of Plane Finder data

You are free to use the raw flight data, aircraft information and images provided in this report for your own purposes provided the data is correctly attributed to Plane Finder. We ask that you please credit Plane Finder and link to planefinder.net in close proximity to the content.

Optionally one of the following logos (no smaller then 150x24px) can be used and must link to planefinder.net

Embedding the Plane Finder map

You are welcome to embed the Plane Finder playback map on your website to offer visitors a more interactive experience. We suggest using the following HTML code:

<iframe src="//planefinder.net/data/report/BA102-G-ZBJA-7700-squawk-2017-11-11/map" width="800" height="600" seamless="seamless"></iframe>

Where our data comes from

Plane Finder has a global network of data feeds and antenna radars that receive data broadcast directly from aircraft. The primary technologies used are ADS-B and MLAT. We also show feeds from the FAA and a FLARM glider feed.

Click here to find out more about the Plane Finder network.

How we collect our data